TROPICAL DEPRESSION "MICHAEL" :: POST-OBSERVATION RAW DATA >>
-------------------------------------------------------------------------------------
Station: Typhoon2000.com AUTOMATED WEATHER STATION (AWS) | DAVIS WIRELESS VANTAGE PRO 
Location: San Felipe, Naga City, Philippines
Lat/Lon: 1338'59"N / 12313'00"E 
View: Graphical Version
=====================================================================================

                  Temp     Hi    Low   Out    Dew  Wind  Wind  Wind    Hi    Hi   Wind   Heat    THW                Rain    Heat    Cool    In     In    In     In   Wind  Wind    ISS   Arc.
  Date    Time     Out   Temp   Temp   Hum    Pt. Speed   Dir   Run Speed   Dir  Chill  Index  Index   Bar    Rain  Rate    D-D     D-D    Temp   Hum    Dew   Heat  Samp   Tx   Recept  Int.
-----------------------------------------------------------------------------------------------------------------------------------------------------------------------------------------------
 9/14/05 12:05a   24.8   24.8   24.8    92   23.4   0.0   ---  0.00   0.0   ---   24.8   27.0   27.0  1009.7  0.00   0.0   0.000   0.022   28.3    84   25.4   33.8   113    1     99.1    5 
 9/14/05 12:10a   24.8   24.8   24.8    92   23.4   0.0   ---  0.00   0.0   ---   24.8   27.0   27.0  1009.7  0.00   0.0   0.000   0.022   28.3    85   25.6   33.9   114    1    100.0    5 
 9/14/05 12:15a   24.8   24.8   24.8    92   23.4   0.0   ENE  0.00   1.6   ENE   24.8   27.0   27.0  1009.5  0.00   0.0   0.000   0.022   28.3    85   25.5   33.8   114    1    100.0    5 
 9/14/05 12:20a   24.8   24.8   24.7    92   23.4   0.0   ---  0.00   0.0   ---   24.8   27.0   27.0  1009.5  0.00   0.0   0.000   0.022   28.2    85   25.5   33.7   114    1    100.0    5 
 9/14/05 12:25a   24.7   24.7   24.7    92   23.3   0.0   ---  0.00   0.0   ---   24.7   26.8   26.8  1009.5  0.00   0.0   0.000   0.022   28.2    85   25.5   33.7   113    1     99.1    5 
 9/14/05 12:30a   24.7   24.7   24.7    92   23.3   1.6    NE  0.13   3.2    NE   24.7   26.8   26.8  1009.6  0.25   0.0   0.000   0.022   28.2    85   25.5   33.7   114    1    100.0    5 
 9/14/05 12:35a   24.7   24.7   24.7    92   23.3   0.0    NE  0.00   1.6    NE   24.7   26.8   26.8  1009.6  0.25   6.1   0.000   0.022   28.2    85   25.4   33.5   114    1    100.0    5 
 9/14/05 12:40a   24.7   24.7   24.7    92   23.3   0.0    NE  0.00   1.6    NE   24.7   26.8   26.8  1009.6  0.25   3.8   0.000   0.022   28.1    85   25.3   33.3   114    1    100.0    5 
 9/14/05 12:45a   24.7   24.7   24.7    92   23.3   0.0    NE  0.00   3.2    NE   24.7   26.8   26.8  1009.4  0.25   2.8   0.000   0.022   28.1    85   25.3   33.3   114    1    100.0    5 
 9/14/05 12:50a   24.7   24.7   24.6    92   23.3   0.0    NE  0.00   1.6    NE   24.7   26.8   26.8  1009.4  0.00   2.0   0.000   0.022   28.1    86   25.5   33.6   114    1    100.0    5 
 9/14/05 12:55a   24.6   24.6   24.6    92   23.2   0.0   ---  0.00   0.0   ---   24.6   26.7   26.7  1009.4  0.00   1.3   0.000   0.022   28.1    86   25.5   33.6   114    1    100.0    5 
 9/14/05  1:00a   24.6   24.6   24.6    92   23.2   0.0   ---  0.00   0.0   ---   24.6   26.7   26.7  1009.0  0.25   1.3   0.000   0.022   28.0    85   25.2   33.1   114    1    100.0    5 
 9/14/05  1:05a   24.6   24.6   24.6    92   23.2   0.0   ---  0.00   0.0   ---   24.6   26.7   26.7  1009.0  0.25   3.6   0.000   0.022   28.0    86   25.4   33.2   114    1    100.0    5 
 9/14/05  1:10a   24.6   24.6   24.6    92   23.2   0.0   ENE  0.00   3.2   ENE   24.6   26.7   26.7  1009.0  0.00   2.5   0.000   0.022   28.0    86   25.4   33.2   114    1    100.0    5 
 9/14/05  1:15a   24.6   24.6   24.6    92   23.2   0.0   ---  0.00   0.0   ---   24.6   26.7   26.7  1008.9  0.00   1.5   0.000   0.022   27.9    86   25.4   33.1   114    1    100.0    5 
 9/14/05  1:20a   24.4   24.6   24.4    92   23.1   0.0   ---  0.00   0.0   ---   24.4   26.5   26.5  1008.9  0.25   1.5   0.000   0.021   27.9    86   25.3   32.9   114    1    100.0    5 
 9/14/05  1:25a   24.4   24.4   24.4    92   23.0   0.0   ---  0.00   0.0   ---   24.4   26.4   26.4  1008.9  0.00   1.3   0.000   0.021   27.9    86   25.3   32.9   114    1    100.0    5 
 9/14/05  1:30a   24.4   24.4   24.4    93   23.2   0.0   ---  0.00   0.0   ---   24.4   26.5   26.5  1008.8  0.25   1.8   0.000   0.021   27.9    86   25.3   32.9   114    1    100.0    5 
 9/14/05  1:35a   24.4   24.4   24.4    92   23.0   0.0   ---  0.00   0.0   ---   24.4   26.4   26.4  1008.8  0.25   2.3   0.000   0.021   27.8    86   25.2   32.6   114    1    100.0    5 
 9/14/05  1:40a   24.4   24.4   24.4    92   23.0   0.0   ---  0.00   0.0   ---   24.4   26.4   26.4  1008.8  0.25   2.3   0.000   0.021   27.8    86   25.2   32.6   114    1    100.0    5 
 9/14/05  1:45a   24.4   24.4   24.3    92   23.0   0.0   ---  0.00   0.0   ---   24.4   26.4   26.4  1008.7  0.00   2.0   0.000   0.021   27.8    86   25.2   32.6   114    1    100.0    5 
 9/14/05  1:50a   24.3   24.4   24.3    92   22.9   0.0   ---  0.00   0.0   ---   24.3   26.3   26.3  1008.7  0.25   2.5   0.000   0.021   27.8    86   25.2   32.6   114    1    100.0    5 
 9/14/05  1:55a   24.4   24.4   24.4    92   23.0   0.0   ---  0.00   0.0   ---   24.4   26.4   26.4  1008.7  0.51   3.3   0.000   0.021   27.8    86   25.2   32.6   114    1    100.0    5 
 9/14/05  2:00a   24.4   24.4   24.4    92   23.0   0.0   ---  0.00   0.0   ---   24.4   26.4   26.4  1008.7  0.51   7.9   0.000   0.021   27.8    86   25.2   32.6   113    1     99.1    5 
 9/14/05  2:05a   24.4   24.4   24.4    92   23.0   0.0   ---  0.00   0.0   ---   24.4   26.4   26.4  1008.7  0.25   6.6   0.000   0.021   27.7    87   25.4   32.7   114    1    100.0    5 
 9/14/05  2:10a   24.4   24.4   24.4    92   23.1   0.0   ---  0.00   0.0   ---   24.4   26.5   26.5  1008.7  0.51   5.8   0.000   0.021   27.7    87   25.4   32.7   113    1     99.1    5 
 9/14/05  2:15a   24.4   24.4   24.4    92   23.1   0.0     N  0.00   1.6   NNE   24.4   26.5   26.5  1008.5  0.25   5.8   0.000   0.021   27.7    87   25.4   32.7   113    1     99.1    5 
 9/14/05  2:20a   24.4   24.4   24.4    92   23.1   0.0     N  0.00   1.6     N   24.4   26.5   26.5  1008.5  0.25   3.3   0.000   0.021   27.7    87   25.4   32.7   114    1    100.0    5 
 9/14/05  2:25a   24.4   24.6   24.4    92   23.1   0.0     N  0.00   1.6     N   24.4   26.5   26.5  1008.5  0.00   2.0   0.000   0.021   27.7    87   25.4   32.7   114    1    100.0    5 
 9/14/05  2:30a   24.6   24.6   24.6    92   23.2   0.0     N  0.00   1.6     N   24.6   26.7   26.7  1008.4  0.51   4.6   0.000   0.022   27.7    87   25.4   32.7   114    1    100.0    5 
 9/14/05  2:35a   24.6   24.6   24.6    92   23.2   0.0     N  0.00   1.6     N   24.6   26.7   26.7  1008.4  0.25   4.6   0.000   0.022   27.7    87   25.4   32.7   114    1    100.0    5 
 9/14/05  2:40a   24.6   24.6   24.6    92   23.2   0.0   ---  0.00   0.0   ---   24.6   26.7   26.7  1008.4  0.25   5.1   0.000   0.022   27.7    87   25.4   32.7   114    1    100.0    5 
 9/14/05  2:45a   24.6   24.6   24.4    92   23.2   0.0     N  0.00   3.2     N   24.6   26.7   26.7  1008.4  0.51   4.6   0.000   0.022   27.7    87   25.4   32.7   114    1    100.0    5 
 9/14/05  2:50a   24.4   24.4   24.4    92   23.1   0.0     N  0.00   1.6     N   24.4   26.5   26.5  1008.4  0.25   4.6   0.000   0.021   27.6    87   25.3   32.4   114    1    100.0    5 
 9/14/05  2:55a   24.4   24.4   24.4    92   23.1   0.0   ---  0.00   0.0   ---   24.4   26.5   26.5  1008.4  0.25   5.1   0.000   0.021   27.7    87   25.3   32.5   113    1     99.1    5 
 9/14/05  3:00a   24.4   24.4   24.4    92   23.1   0.0   ---  0.00   0.0   ---   24.4   26.5   26.5  1008.4  0.25   4.3   0.000   0.021   27.6    87   25.3   32.4   114    1    100.0    5 
 9/14/05  3:05a   24.4   24.4   24.4    92   23.1   0.0   ---  0.00   0.0   ---   24.4   26.5   26.5  1008.4  0.25   2.5   0.000   0.021   27.6    87   25.3   32.4   114    1    100.0    5 
 9/14/05  3:10a   24.4   24.4   24.4    92   23.1   0.0   ---  0.00   0.0   ---   24.4   26.5   26.5  1008.4  0.00   2.5   0.000   0.021   27.7    87   25.3   32.5   113    1     99.1    5 
 9/14/05  3:15a   24.4   24.4   24.4    92   23.1   0.0     N  0.00   1.6     N   24.4   26.5   26.5  1008.4  0.51   3.8   0.000   0.021   27.6    87   25.3   32.4   114    1    100.0    5 
 9/14/05  3:20a   24.4   24.4   24.4    92   23.1   0.0   ---  0.00   0.0   ---   24.4   26.5   26.5  1008.4  0.25   3.8   0.000   0.021   27.7    87   25.3   32.5   114    1    100.0    5 
 9/14/05  3:25a   24.4   24.4   24.4    92   23.1   0.0   ---  0.00   0.0   ---   24.4   26.5   26.5  1008.4  0.25   4.6   0.000   0.021   27.6    87   25.3   32.4   114    1    100.0    5 
 9/14/05  3:30a   24.4   24.4   24.4    92   23.1   0.0   ---  0.00   0.0   ---   24.4   26.5   26.5  1008.6  0.25   4.6   0.000   0.021   27.6    88   25.4   32.6   114    1    100.0    5 
 9/14/05  3:35a   24.5   24.6   24.4    92   23.1   0.0   ---  0.00   0.0   ---   24.5   26.6   26.6  1008.6  0.25   3.8   0.000   0.021   27.6    88   25.4   32.6   114    1    100.0    5 
 9/14/05  3:40a   24.6   24.6   24.6    92   23.2   0.0   ---  0.00   0.0   ---   24.6   26.7   26.7  1008.6  0.51   5.6   0.000   0.022   27.6    88   25.4   32.6   114    1    100.0    5 
 9/14/05  3:45a   24.6   24.6   24.6    92   23.2   0.0   ---  0.00   0.0   ---   24.6   26.7   26.7  1008.7  0.25   5.6   0.000   0.022   27.6    88   25.4   32.6   114    1    100.0    5 
 9/14/05  3:50a   24.6   24.6   24.6    92   23.2   0.0   ---  0.00   0.0   ---   24.6   26.7   26.7  1008.7  0.25   3.3   0.000   0.022   27.5    88   25.3   32.2   114    1    100.0    5 
 9/14/05  3:55a   24.6   24.6   24.6    92   23.2   0.0   ---  0.00   0.0   ---   24.6   26.7   26.7  1008.7  0.00   2.8   0.000   0.022   27.5    88   25.3   32.2   114    1    100.0    5 
 9/14/05  4:00a   24.6   24.6   24.6    92   23.2   0.0   ---  0.00   0.0   ---   24.6   26.7   26.7  1008.7  0.25   2.8   0.000   0.022   27.5    88   25.3   32.2   114    1    100.0    5 
 9/14/05  4:05a   24.6   24.6   24.6    92   23.2   0.0   ---  0.00   0.0   ---   24.6   26.7   26.7  1008.7  0.25   5.1   0.000   0.022   27.5    88   25.3   32.2   114    1    100.0    5 
 9/14/05  4:10a   24.6   24.6   24.6    92   23.2   0.0   ---  0.00   0.0   ---   24.6   26.7   26.7  1008.7  0.25   5.1   0.000   0.022   27.5    88   25.3   32.2   114    1    100.0    5 
 9/14/05  4:15a   24.6   24.6   24.6    92   23.2   0.0   ---  0.00   0.0   ---   24.6   26.7   26.7  1008.9  0.25   2.5   0.000   0.022   27.5    88   25.3   32.2   114    1    100.0    5 
 9/14/05  4:20a   24.6   24.6   24.6    92   23.2   0.0   ---  0.00   0.0   ---   24.6   26.7   26.7  1008.9  0.00   2.5   0.000   0.022   27.5    89   25.5   32.4   114    1    100.0    5 
 9/14/05  4:25a   24.6   24.6   24.6    92   23.2   0.0   ---  0.00   0.0   ---   24.6   26.7   26.7  1008.9  0.00   2.3   0.000   0.022   27.6    88   25.4   32.4   113    1     99.1    5 
 9/14/05  4:30a   24.6   24.6   24.6    92   23.2   0.0   ---  0.00   0.0   ---   24.6   26.7   26.7  1008.9  0.25   3.3   0.000   0.022   27.6    88   25.4   32.4   113    1     99.1    5 
 9/14/05  4:35a   24.6   24.6   24.6    92   23.2   0.0   ---  0.00   0.0   ---   24.6   26.7   26.7  1008.9  0.51   3.8   0.000   0.022   27.5    88   25.3   32.2   114    1    100.0    5 
 9/14/05  4:40a   24.6   24.6   24.6    92   23.2   0.0   ---  0.00   0.0   ---   24.6   26.7   26.7  1008.9  0.25   3.8   0.000   0.022   27.5    88   25.3   32.2   114    1    100.0    5 
 9/14/05  4:45a   24.6   24.6   24.6    92   23.2   0.0   ---  0.00   0.0   ---   24.6   26.7   26.7  1008.9  0.25   4.3   0.000   0.022   27.5    89   25.5   32.4   114    1    100.0    5 
 9/14/05  4:50a   24.6   24.6   24.6    92   23.2   0.0   ---  0.00   0.0   ---   24.6   26.7   26.7  1008.9  0.25   4.3   0.000   0.022   27.5    89   25.5   32.4   114    1    100.0    5 
 9/14/05  4:55a   24.6   24.6   24.6    92   23.2   0.0   ---  0.00   0.0   ---   24.6   26.7   26.7  1008.9  0.51   4.3   0.000   0.022   27.6    89   25.6   32.6   113    1     99.1    5 
 9/14/05  5:00a   24.6   24.6   24.6    92   23.2   0.0   ---  0.00   0.0   ---   24.6   26.7   26.7  1009.1  0.25   3.8   0.000   0.022   27.6    89   25.6   32.7   114    1    100.0    5 
 9/14/05  5:05a   24.6   24.6   24.6    92   23.2   0.0   ---  0.00   0.0   ---   24.6   26.7   26.7  1009.1  0.25   5.6   0.000   0.022   27.7    89   25.7   33.1   114    1    100.0    5 
 9/14/05  5:10a   24.6   24.6   24.4    92   23.2   0.0   ---  0.00   0.0   ---   24.6   26.7   26.7  1009.1  0.51   5.6   0.000   0.022   27.8    88   25.6   33.0   114    1    100.0    5 
 9/14/05  5:15a   24.4   24.4   24.4    92   23.1   0.0   ---  0.00   0.0   ---   24.4   26.5   26.5  1009.2  0.25   4.3   0.000   0.021   27.8    88   25.7   33.2   114    1    100.0    5 
 9/14/05  5:20a   24.4   24.4   24.4    92   23.1   0.0   ---  0.00   0.0   ---   24.4   26.5   26.5  1009.2  0.51   5.3   0.000   0.021   27.9    88   25.7   33.3   114    1    100.0    5 
 9/14/05  5:25a   24.4   24.4   24.4    92   23.1   0.0   ---  0.00   0.0   ---   24.4   26.5   26.5  1009.2  0.51   5.3   0.000   0.021   27.9    87   25.6   33.3   114    1    100.0    5 
 9/14/05  5:30a   24.4   24.4   24.4    92   23.1   0.0   ---  0.00   0.0   ---   24.4   26.5   26.5  1009.4  0.25   5.1   0.000   0.021   28.0    87   25.6   33.4   114    1    100.0    5 
 9/14/05  5:35a   24.4   24.4   24.4    92   23.0   0.0   ---  0.00   0.0   ---   24.4   26.4   26.4  1009.4  0.25   4.3   0.000   0.021   28.0    87   25.6   33.4   114    1    100.0    5 
 9/14/05  5:40a   24.4   24.4   24.4    92   23.0   0.0   ---  0.00   0.0   ---   24.4   26.4   26.4  1009.4  0.25   3.8   0.000   0.021   28.1    87   25.7   33.7   113    1     99.1    5 
 9/14/05  5:45a   24.4   24.4   24.4    92   23.0   0.0   ---  0.00   0.0   ---   24.4   26.4   26.4  1009.4  0.25   2.8   0.000   0.021   28.1    87   25.7   33.7   114    1    100.0    5 
 9/14/05  5:50a   24.4   24.4   24.4    92   23.0   0.0   ---  0.00   0.0   ---   24.4   26.4   26.4  1009.4  0.00   2.8   0.000   0.021   28.1    86   25.5   33.6   114    1    100.0    5 
 9/14/05  5:55a   24.4   24.4   24.4    92   23.0   0.0   ---  0.00   0.0   ---   24.4   26.4   26.4  1009.4  0.25   2.8   0.000   0.021   28.2    86   25.7   33.8   114    1    100.0    5 
 9/14/05  6:00a   24.4   24.4   24.4    92   23.0   0.0   ---  0.00   0.0   ---   24.4   26.4   26.4  1009.7  0.25   4.3   0.000   0.021   28.2    86   25.7   33.8   114    1    100.0    5 
 9/14/05  6:05a   24.4   24.4   24.4    92   23.0   0.0   ---  0.00   0.0   ---   24.4   26.4   26.4  1009.7  0.25   3.6   0.000   0.021   28.2    86   25.7   33.8   114    1    100.0    5 
 9/14/05  6:10a   24.4   24.4   24.4    92   23.0   0.0   ---  0.00   0.0   ---   24.4   26.4   26.4  1009.7  0.25   3.8   0.000   0.021   28.3    86   25.7   34.0   113    1     99.1    5 
 9/14/05  6:15a   24.4   24.4   24.4    93   23.2   0.0   ---  0.00   0.0   ---   24.4   26.5   26.5  1010.0  0.25   3.8   0.000   0.021   28.3    86   25.8   34.1   113    1     99.1    5 
 9/14/05  6:20a   24.4   24.4   24.4    93   23.2   0.0   ---  0.00   0.0   ---   24.4   26.5   26.5  1010.0  0.25   3.8   0.000   0.021   28.3    85   25.6   33.9   113    1     99.1    5 
 9/14/05  6:25a   24.4   24.4   24.4    93   23.2   0.0   ---  0.00   0.0   ---   24.4   26.5   26.5  1010.0  0.25   3.0   0.000   0.021   28.3    85   25.6   33.9   114    1    100.0    5 
 9/14/05  6:30a   24.4   24.4   24.4    92   23.1   0.0   ---  0.00   0.0   ---   24.4   26.5   26.5  1010.2  0.25   3.6   0.000   0.021   28.3    85   25.6   33.9   114    1    100.0    5 
 9/14/05  6:35a   24.4   24.4   24.4    92   23.0   0.0   ---  0.00   0.0   ---   24.4   26.4   26.4  1010.2  0.25   3.0   0.000   0.021   28.3    85   25.6   33.9   114    1    100.0    5 
 9/14/05  6:40a   24.3   24.4   24.3    92   22.9   0.0   ---  0.00   0.0   ---   24.3   26.3   26.3  1010.2  0.25   3.3   0.000   0.021   28.4    85   25.6   34.1   112    1     98.2    5 
 9/14/05  6:45a   24.3   24.3   24.3    93   23.1   0.0   ---  0.00   0.0   ---   24.3   26.3   26.3  1010.2  0.25   3.3   0.000   0.021   28.4    85   25.7   34.3   114    1    100.0    5 
 9/14/05  6:50a   24.2   24.3   24.2    92   22.8   0.0   ---  0.00   0.0   ---   24.2   26.2   26.2  1010.2  0.25   3.6   0.000   0.020   28.4    85   25.7   34.3   114    1    100.0    5 
 9/14/05  6:55a   24.2   24.2   24.2    93   23.0   0.0   ---  0.00   0.0   ---   24.2   26.2   26.2  1010.2  0.25   3.3   0.000   0.020   28.4    85   25.7   34.3   113    1     99.1    5 
 9/14/05  7:00a   24.2   24.3   24.2    93   23.0   0.0   ---  0.00   0.0   ---   24.2   26.2   26.2  1010.4  0.25   3.0   0.000   0.020   28.4    84   25.5   34.1   114    1    100.0    5 
 9/14/05  7:05a   24.3   24.3   24.2    92   22.9   0.0     N  0.00   1.6     N   24.3   26.3   26.3  1010.4  0.25   3.0   0.000   0.021   28.4    84   25.5   34.1   114    1    100.0    5 
 9/14/05  7:10a   24.2   24.2   24.2    92   22.8   0.0   ---  0.00   0.0   ---   24.2   26.2   26.2  1010.4  0.25   5.1   0.000   0.020   28.4    84   25.5   34.1   114    1    100.0    5 
 9/14/05  7:15a   24.2   24.2   24.1    92   22.8   0.0     N  0.00   1.6     N   24.2   26.2   26.2  1010.5  0.25   5.1   0.000   0.020   28.4    84   25.5   34.1   109    1     95.6    5 
 9/14/05  7:20a   24.1   24.1   24.1    92   22.7   0.0     N  0.00   1.6     N   24.1   26.1   26.1  1010.5  0.25   4.1   0.000   0.020   28.4    84   25.5   34.1   111    1     97.4    5 
 9/14/05  7:25a   24.1   24.2   24.1    93   22.9   0.0   ---  0.00   0.0   ---   24.1   26.2   26.2  1010.5  0.00   2.0   0.000   0.020   28.6    84   25.6   34.4   112    1     98.2    5 
 9/14/05  7:30a   24.2   24.2   24.2    93   23.0   0.0     N  0.00   1.6     N   24.2   26.2   26.2  1010.6  0.25   2.0   0.000   0.020   28.6    84   25.6   34.4   114    1    100.0    5 
 9/14/05  7:35a   24.3   24.3   24.2    92   22.9   0.0     N  0.00   3.2     N   24.3   26.3   26.3  1010.6  0.25   2.5   0.000   0.021   28.6    84   25.6   34.4   114    1    100.0    5 
 9/14/05  7:40a   24.3   24.3   24.3    93   23.1   1.6     N  0.13   3.2     N   24.3   26.3   26.3  1010.6  0.00   2.0   0.000   0.021   28.6    84   25.6   34.4   113    1     99.1    5 
 9/14/05  7:45a   24.3   24.3   24.3    93   23.1   0.0     N  0.00   1.6     N   24.3   26.3   26.3  1010.8  0.51   8.4   0.000   0.021   28.4    84   25.5   34.1   114    1    100.0    5 
 9/14/05  7:50a   24.3   24.4   24.3    93   23.1   0.0     N  0.00   3.2     N   24.3   26.3   26.3  1010.8  0.00   2.3   0.000   0.021   28.4    84   25.5   34.1   113    1     99.1    5 
 9/14/05  7:55a   24.4   24.4   24.4    93   23.2   0.0     N  0.00   3.2     N   24.4   26.5   26.5  1010.8  0.00   1.3   0.000   0.021   28.4    84   25.5   34.1   114    1    100.0    5 
 9/14/05  8:00a   24.4   24.4   24.4    92   23.0   1.6     N  0.13   3.2     N   24.4   26.4   26.4  1010.7  0.00   1.0   0.000   0.021   28.4    84   25.5   34.1   114    1    100.0    5 
 9/14/05  8:05a   24.4   24.4   24.4    93   23.2   1.6    NW  0.13   4.8    NW   24.4   26.5   26.5  1010.7  0.00   0.0   0.000   0.021   28.3    84   25.4   33.8   114    1    100.0    5 
 9/14/05  8:10a   24.4   24.4   24.3    92   23.0   1.6   WNW  0.13   9.7    NW   24.4   26.4   26.4  1010.7  0.25   0.0   0.000   0.021   28.3    85   25.6   33.9   114    1    100.0    5 
 9/14/05  8:15a   24.3   24.3   24.3    92   22.9   1.6    NW  0.13   4.8    NW   24.3   26.3   26.3  1010.6  0.00   0.0   0.000   0.021   28.3    85   25.6   33.9   113    1     99.1    5 
 9/14/05  8:20a   24.3   24.3   24.3    92   22.9   0.0    NW  0.00   3.2    NW   24.3   26.3   26.3  1010.6  0.25   1.5   0.000   0.021   28.2    85   25.5   33.7    90    1     78.9    5 
 9/14/05  8:25a   24.3   24.3   24.3    92   22.9   0.0    NW  0.00   4.8    NW   24.3   26.3   26.3  1010.6  0.00   1.5   0.000   0.021   28.2    85   25.5   33.7   114    1    100.0    5 
 9/14/05  8:30a   24.2   24.3   24.2    92   22.8   1.6    NW  0.13   4.8    NW   24.2   26.2   26.2  1010.5  0.00   1.3   0.000   0.020   28.2    85   25.5   33.7   114    1    100.0    5 
 9/14/05  8:35a   24.2   24.3   24.2    93   23.0   1.6    NW  0.13   3.2    NW   24.2   26.3   26.3  1010.5  0.00   1.0   0.000   0.020   28.2    85   25.5   33.7   114    1    100.0    5 
 9/14/05  8:40a   24.4   24.6   24.3    93   23.2   1.6    NW  0.13   3.2    NW   24.4   26.5   26.5  1010.5  0.25   1.0   0.000   0.021   28.2    85   25.5   33.7   114    1    100.0    5 
 9/14/05  8:45a   24.6   24.7   24.6    93   23.4   1.6   WNW  0.13   4.8   WNW   24.6   26.8   26.8  1010.3  0.00   0.0   0.000   0.022   28.2    85   25.5   33.7   114    1    100.0    5 
 9/14/05  8:50a   24.7   24.8   24.7    93   23.5   0.0   WNW  0.00   3.2   WNW   24.7   27.0   27.0  1010.3  0.00   0.0   0.000   0.022   28.2    85   25.5   33.7   114    1    100.0    5 
 9/14/05  8:55a   24.9   24.9   24.8    93   23.7   1.6    NW  0.13   8.0     W   24.9   27.2   27.2  1010.3  0.00   0.0   0.000   0.023   28.2    85   25.5   33.7   114    1    100.0    5 
 9/14/05  9:00a   24.9   24.9   24.8    93   23.7   1.6   WNW  0.13   6.4    NW   24.9   27.2   27.2  1010.0  0.00   0.0   0.000   0.023   28.1    85   25.3   33.3   114    1    100.0    5 
 9/14/05  9:05a   24.9   24.9   24.9    92   23.6   1.6   WNW  0.13   4.8    NW   24.9   27.3   27.3  1010.0  0.00   0.0   0.000   0.023   28.1    86   25.5   33.6   114    1    100.0    5 
 9/14/05  9:10a   25.0   25.1   24.9    92   23.6   1.6   WNW  0.13   4.8   WNW   25.0   27.3   27.3  1010.0  0.00   0.0   0.000   0.023   28.1    86   25.5   33.4   113    1     99.1    5 
 9/14/05  9:15a   25.2   25.3   25.1    93   24.0   1.6   WNW  0.13   4.8   WNW   25.2   27.7   27.7  1009.9  0.00   0.0   0.000   0.024   28.0    86   25.4   33.2   114    1    100.0    5 
 9/14/05  9:20a   25.3   25.3   25.3    92   23.9   1.6   WNW  0.13   8.0     W   25.3   27.9   27.9  1009.9  0.00   0.0   0.000   0.024   28.0    87   25.6   33.4   114    1    100.0    5 
 9/14/05  9:25a   25.4   25.6   25.3    91   23.9   0.0     W  0.00   4.8     W   25.4   28.1   28.1  1009.9  0.00   0.0   0.000   0.025   28.1    87   25.7   33.6   114    1    100.0    5 
 9/14/05  9:30a   25.6   25.7   25.6    90   23.8   1.6     W  0.13   8.0   WNW   25.6   28.3   28.3  1009.6  0.00   0.0   0.000   0.025   28.1    87   25.7   33.7   114    1    100.0    5 
 9/14/05  9:35a   25.8   25.9   25.7    89   23.8   0.0   WNW  0.00   3.2   WNW   25.8   28.6   28.6  1009.6  0.00   0.0   0.000   0.026   28.1    87   25.7   33.7   113    1     99.1    5 
 9/14/05  9:40a   26.1   26.2   25.9    88   23.9   1.6   WNW  0.13   6.4   WNW   26.1   28.9   28.9  1009.6  0.00   0.0   0.000   0.027   28.2    87   25.8   33.9   114    1    100.0    5 
 9/14/05  9:45a   26.2   26.3   26.2    86   23.7   1.6   WNW  0.13   3.2   WNW   26.2   29.1   29.1  1009.5  0.00   0.0   0.000   0.027   28.2    87   25.9   34.0   114    1    100.0    5 
 9/14/05  9:50a   26.3   26.4   26.2    86   23.7   1.6    NW  0.13   8.0   NNW   26.3   29.2   29.2  1009.5  0.00   0.0   0.000   0.028   28.2    87   25.9   34.0   114    1    100.0    5 
 9/14/05  9:55a   26.5   26.7   26.4    85   23.8   1.6   WNW  0.13   9.7    NW   26.5   29.4   29.4  1009.5  0.00   0.0   0.000   0.028   28.3    87   25.9   34.2   114    1    100.0    5 
 9/14/05 10:00a   26.8   26.9   26.7    83   23.6   3.2     W  0.27   9.7     W   26.8   29.8   29.8  1009.4  0.00   0.0   0.000   0.029   28.3    87   26.0   34.3   114    1    100.0    5 
 9/14/05 10:05a   27.2   27.3   27.0    81   23.6   3.2     W  0.27   8.0   WNW   27.2   30.3   30.3  1009.4  0.00   0.0   0.000   0.031   28.4    86   25.8   34.3   114    1    100.0    5 
 9/14/05 10:10a   27.4   27.6   27.3    80   23.7   3.2   WNW  0.27  12.9    NW   27.4   30.8   30.8  1009.4  0.00   0.0   0.000   0.032   28.4    86   25.9   34.4   114    1    100.0    5 
 9/14/05 10:15a   27.8   27.9   27.6    79   23.8   3.2   WSW  0.27  12.9     W   27.8   31.4   31.4  1009.2  0.00   0.0   0.000   0.033   28.6    86   26.0   34.8   114    1    100.0    5 
 9/14/05 10:20a   27.9   27.9   27.8    79   23.9   6.4   WSW  0.54  16.1     N   27.9   31.8   31.8  1009.2  0.00   0.0   0.000   0.033   28.6    86   26.0   34.8   114    1    100.0    5 
 9/14/05 10:25a   28.0   28.2   27.8    78   23.8   3.2   WNW  0.27   9.7     W   28.0   31.9   31.9  1009.2  0.00   0.0   0.000   0.034   28.7    86   26.1   35.2   114    1    100.0    5 
 9/14/05 10:30a   28.4   28.6   28.2    77   24.0   1.6   WSW  0.13   8.0    SW   28.4   32.9   32.9  1009.3  0.00   0.0   0.000   0.035   28.8    86   26.2   35.5   114    1    100.0    5 
 9/14/05 10:35a   28.7   28.7   28.6    77   24.3   3.2   WNW  0.27   9.7     W   28.7   33.7   33.7  1009.3  0.00   0.0   0.000   0.036   28.8    88   26.6   36.1   112    1     98.2    5 
 9/14/05 10:40a   28.7   28.8   28.6    76   24.1   3.2     W  0.27   9.7   WSW   28.7   33.5   33.5  1009.3  0.00   0.0   0.000   0.036   29.1    87   26.7   36.6   114    1    100.0    5 
 9/14/05 10:45a   28.6   28.6   28.5    76   23.9   6.4    NW  0.54  11.3    NW   28.6   33.1   33.1  1009.2  0.00   0.0   0.000   0.035   29.3    87   26.9   37.0   114    1    100.0    5 
 9/14/05 10:50a   28.5   28.5   28.4    76   23.9   3.2   NNW  0.27   9.7   WNW   28.5   32.9   32.9  1009.2  0.00   0.0   0.000   0.035   29.3    86   26.7   36.9   114    1    100.0    5 
 9/14/05 10:55a   28.7   28.8   28.5    75   23.8   1.6   NNW  0.13   4.8     W   28.7   33.2   33.2  1009.2  0.00   0.0   0.000   0.036   29.4    85   26.7   36.9   114    1    100.0    5 
 9/14/05 11:00a   28.9   29.1   28.8    73   23.6   3.2     W  0.27  11.3     W   28.9   33.4   33.4  1009.2  0.00   0.0   0.000   0.037   29.5    85   26.7   37.1   114    1    100.0    5 
 9/14/05 11:05a   29.2   29.2   29.1    73   23.8   1.6    NW  0.13   4.8    SW   29.2   33.8   33.8  1009.2  0.00   0.0   0.000   0.038   29.6    85   26.8   37.2   114    1    100.0    5 
 9/14/05 11:10a   29.1   29.2   29.0    73   23.8   1.6   WSW  0.13   4.8   WSW   29.1   33.8   33.8  1009.2  0.00   0.0   0.000   0.037   29.7    85   26.9   37.5   114    1    100.0    5 
 9/14/05 11:15a   29.0   29.0   29.0    73   23.7   1.6     W  0.13   4.8   WSW   29.0   33.6   33.6  1009.0  0.00   0.0   0.000   0.037   29.7    84   26.7   37.3   114    1    100.0    5 
 9/14/05 11:20a   29.1   29.1   29.0    74   23.9   0.0     W  0.00   3.2     W   29.1   33.8   33.8  1009.0  0.00   0.0   0.000   0.037   29.7    84   26.7   37.4   114    1    100.0    5 
 9/14/05 11:25a   29.3   29.3   29.1    72   23.7   1.6    SW  0.13   4.8    SW   29.3   33.9   33.9  1009.0  0.00   0.0   0.000   0.038   29.8    84   26.8   37.6   114    1    100.0    5 
 9/14/05 11:30a   29.6   29.8   29.3    72   24.0   1.6    SW  0.13   4.8    SW   29.6   34.5   34.5  1008.8  0.00   0.0   0.000   0.039   29.9    83   26.7   37.6   114    1    100.0    5 
 9/14/05 11:35a   29.9   30.0   29.8    72   24.3   1.6    NW  0.13   4.8    NW   29.9   35.3   35.3  1008.8  0.00   0.0   0.000   0.040   29.9    83   26.7   37.6   114    1    100.0    5 
 9/14/05 11:40a   29.9   30.0   29.9    69   23.6   1.6   WSW  0.13   8.0   WSW   29.9   34.8   34.8  1008.8  0.00   0.0   0.000   0.040   29.9    83   26.7   37.8   113    1     99.1    5 
 9/14/05 11:45a   29.8   29.9   29.8    68   23.3   4.8     N  0.40  11.3     N   29.8   34.3   34.3  1008.8  0.00   0.0   0.000   0.040   30.0    82   26.6   37.7   114    1    100.0    5 
 9/14/05 11:50a   29.7   29.8   29.7    67   22.9   4.8   NNW  0.40   9.7   NNW   29.7   33.8   33.8  1008.8  0.00   0.0   0.000   0.039   30.0    81   26.4   37.4   114    1    100.0    5 
 9/14/05 11:55a   29.8   29.9   29.7    66   22.7   4.8   WNW  0.40  12.9   NNW   29.8   33.8   33.8  1008.8  0.00   0.0   0.000   0.040   30.1    80   26.3   37.5   114    1    100.0    5 
 9/14/05 12:00p   29.9   30.0   29.9    67   23.1   3.2    NW  0.27   8.0    NW   29.9   34.4   34.4  1008.6  0.00   0.0   0.000   0.040   30.1    80   26.3   37.5   114    1    100.0    5 
 9/14/05 12:05p   29.9   30.0   29.8    68   23.4   4.8    NW  0.40  11.3   NNW   29.9   34.6   34.6  1008.6  0.00   0.0   0.000   0.040   30.1    79   26.1   37.3   114    1    100.0    5 
 9/14/05 12:10p   29.7   29.8   29.6    69   23.4   3.2     N  0.27   9.7   NNW   29.7   34.2   34.2  1008.6  0.00   0.0   0.000   0.039   30.2    79   26.2   37.6   114    1    100.0    5 
 9/14/05 12:15p   29.4   29.6   29.3    71   23.6   4.8   NNW  0.40  11.3   NNW   29.4   34.0   34.0  1008.4  0.00   0.0   0.000   0.039   30.2    79   26.2   37.6   114    1    100.0    5 
 9/14/05 12:20p   29.3   29.3   29.2    75   24.4   6.4     N  0.54  17.7     N   29.3   34.4   34.4  1008.4  0.00   0.0   0.000   0.038   30.2    79   26.2   37.6   114    1    100.0    5 
 9/14/05 12:25p   29.0   29.2   28.8    75   24.1   8.0     N  0.67  16.1   NNE   29.0   33.9   33.9  1008.4  0.00   0.0   0.000   0.037   30.2    79   26.2   37.6   113    1     99.1    5 
 9/14/05 12:30p   28.8   28.8   28.7    75   23.9   9.7     N  0.80  16.1   NNE   28.8   33.4   33.4  1008.3  0.00   0.0   0.000   0.036   30.3    80   26.5   38.2   114    1    100.0    5 
 9/14/05 12:35p   28.7   28.7   28.6    75   23.8   6.4     N  0.54  14.5     N   28.7   33.2   33.2  1008.3  0.00   0.0   0.000   0.036   30.3    80   26.4   38.1   114    1    100.0    5 
 9/14/05 12:40p   28.6   28.6   28.5    76   23.9   8.0     N  0.67  14.5    NE   28.6   33.1   33.1  1008.3  0.00   0.0   0.000   0.035   30.3    80   26.5   38.2   114    1    100.0    5 
 9/14/05 12:45p   28.5   28.5   28.4    76   23.9   4.8     N  0.40  11.3   NNE   28.5   32.9   32.9  1008.2  0.00   0.0   0.000   0.035   30.3    80   26.5   38.2   113    1     99.1    5 
 9/14/05 12:50p   28.4   28.5   28.4    76   23.7   4.8     N  0.40  12.9     N   28.4   32.6   32.6  1008.2  0.00   0.0   0.000   0.035   30.3    80   26.5   38.2   114    1    100.0    5 
 9/14/05 12:55p   28.4   28.4   28.3    76   23.7   4.8     N  0.40   9.7     N   28.4   32.6   32.6  1008.2  0.00   0.0   0.000   0.035   30.3    79   26.3   37.9   113    1     99.1    5 
 9/14/05  1:00p   28.3   28.4   28.3    77   23.9   4.8   NNE  0.40   9.7     N   28.3   32.5   32.5  1008.1  0.00   0.0   0.000   0.035   30.3    79   26.3   37.9   114    1    100.0    5 
 9/14/05  1:05p   28.2   28.3   28.2    76   23.6   3.2     N  0.27   9.7     N   28.2   32.2   32.2  1008.1  0.00   0.0   0.000   0.034   30.3    79   26.3   37.9   114    1    100.0    5 
 9/14/05  1:10p   28.2   28.2   28.2    77   23.8   3.2     N  0.27   8.0     N   28.2   32.2   32.2  1008.1  0.00   0.0   0.000   0.034   30.3    79   26.3   37.9   114    1    100.0    5 
 9/14/05  1:15p   28.1   28.2   28.1    77   23.6   4.8     N  0.40  11.3     N   28.1   31.9   31.9  1007.9  0.00   0.0   0.000   0.034   30.3    79   26.2   37.8   114    1    100.0    5 
 9/14/05  1:20p   28.0   28.1   27.9    78   23.8   4.8     N  0.40   9.7     N   28.0   31.9   31.9  1007.9  0.00   0.0   0.000   0.034   30.2    79   26.2   37.6   114    1    100.0    5 
 9/14/05  1:25p   27.8   27.9   27.7    79   23.8   4.8     N  0.40   9.7     N   27.8   31.4   31.4  1007.9  0.00   0.0   0.000   0.033   30.2    79   26.2   37.6   114    1    100.0    5 
 9/14/05  1:30p   27.7   27.7   27.6    80   23.9   4.8     N  0.40   9.7     N   27.7   31.3   31.3  1007.9  0.00   0.0   0.000   0.032   30.2    79   26.2   37.6   114    1    100.0    5 
 9/14/05  1:35p   27.4   27.6   27.4    81   23.9   6.4     N  0.54  14.5    NE   27.4   30.9   30.9  1007.9  0.00   0.0   0.000   0.032   30.1    79   26.1   37.3   113    1     99.1    5 
 9/14/05  1:40p   27.3   27.4   27.3    81   23.8   4.8     N  0.40  11.3   NNE   27.3   30.7   30.7  1007.9  0.00   0.0   0.000   0.031   30.1    79   26.1   37.3   114    1    100.0    5 
 9/14/05  1:45p   27.2   27.3   27.2    81   23.7   4.8     N  0.40   9.7     N   27.2   30.4   30.4  1007.7  0.00   0.0   0.000   0.031   30.1    80   26.2   37.3   114    1    100.0    5 
 9/14/05  1:50p   27.1   27.2   27.1    82   23.8   3.2     N  0.27   9.7   NNE   27.1   30.3   30.3  1007.7  0.00   0.0   0.000   0.030   30.0    80   26.2   37.1   114    1    100.0    5 
 9/14/05  1:55p   27.2   27.2   27.1    82   23.8   1.6     N  0.13   4.8     N   27.2   30.4   30.4  1007.7  0.25   0.0   0.000   0.031   30.0    80   26.2   37.1   113    1     99.1    5 
 9/14/05  2:00p   27.2   27.2   27.1    80   23.4   1.6   NNW  0.13   4.8   NNW   27.2   30.2   30.2  1007.6  0.00   0.0   0.000   0.031   29.9    80   26.1   37.0   114    1    100.0    5 
 9/14/05  2:05p   27.1   27.2   27.1    81   23.6   1.6   NNW  0.13   4.8   NNW   27.1   30.2   30.2  1007.6  0.00   0.0   0.000   0.030   29.9    80   26.1   36.8   114    1    100.0    5 
 9/14/05  2:10p   27.2   27.2   27.2    81   23.7   0.0   NNW  0.00   3.2   NNW   27.2   30.4   30.4  1007.6  0.00   0.0   0.000   0.031   29.9    80   26.1   36.8   114    1    100.0    5 
 9/14/05  2:15p   27.3   27.3   27.3    79   23.3   1.6   NNW  0.13   3.2   NNW   27.3   30.3   30.3  1007.6  0.00   0.0   0.000   0.031   29.9    80   26.1   36.8   114    1    100.0    5 
 9/14/05  2:20p   27.3   27.3   27.3    78   23.1   0.0   NNW  0.00   8.0   WNW   27.3   30.2   30.2  1007.6  0.00   0.0   0.000   0.031   29.9    80   26.1   36.8   114    1    100.0    5 
 9/14/05  2:25p   27.3   27.4   27.3    78   23.2   1.6    NW  0.13   8.0   WNW   27.3   30.3   30.3  1007.6  0.00   0.0   0.000   0.031   29.9    80   26.1   36.8   114    1    100.0    5 
 9/14/05  2:30p   27.4   27.5   27.4    77   23.1   1.6   NNW  0.13   8.0   NNW   27.4   30.4   30.4  1007.6  0.00   0.0   0.000   0.032   29.8    79   25.7   36.4   114    1    100.0    5 
 9/14/05  2:35p   27.5   27.5   27.5    77   23.1   1.6    NW  0.13   8.0    NW   27.5   30.6   30.6  1007.6  0.00   0.0   0.000   0.032   29.8    80   26.0   36.6   114    1    100.0    5 
 9/14/05  2:40p   27.6   27.6   27.5    77   23.2   1.6    NW  0.13   8.0    NW   27.6   30.8   30.8  1007.6  0.00   0.0   0.000   0.032   29.8    79   25.7   36.4   114    1    100.0    5 
 9/14/05  2:45p   27.6   27.7   27.6    78   23.4   0.0   NNW  0.00   3.2     N   27.6   30.9   30.9  1007.5  0.00   0.0   0.000   0.032   29.7    79   25.7   36.2   114    1    100.0    5 
 9/14/05  2:50p   27.7   27.7   27.6    77   23.3   3.2   NNW  0.27   9.7    NW   27.7   30.9   30.9  1007.5  0.00   0.0   0.000   0.032   29.7    80   25.8   36.3   114    1    100.0    5 
 9/14/05  2:55p   27.6   27.7   27.6    78   23.4   1.6   NNW  0.13   3.2   NNW   27.6   30.9   30.9  1007.5  0.00   0.0   0.000   0.032   29.7    79   25.6   36.1   114    1    100.0    5 
 9/14/05  3:00p   27.7   27.7   27.7    78   23.5   1.6    NW  0.13   4.8    NW   27.7   31.2   31.2  1007.6  0.00   0.0   0.000   0.033   29.7    79   25.6   36.1   114    1    100.0    5 
 9/14/05  3:05p   27.7   27.7   27.7    78   23.5   1.6   WNW  0.13   4.8   WNW   27.7   31.2   31.2  1007.6  0.00   0.0   0.000   0.033   29.7    79   25.6   36.1   114    1    100.0    5 
 9/14/05  3:10p   27.6   27.7   27.6    79   23.6   1.6   WNW  0.13   4.8   WNW   27.6   31.1   31.1  1007.6  0.00   0.0   0.000   0.032   29.7    80   25.8   36.3   114    1    100.0    5 
 9/14/05  3:15p   27.6   27.6   27.6    79   23.6   0.0   NNW  0.00   4.8   NNW   27.6   31.1   31.1  1007.5  0.00   0.0   0.000   0.032   29.7    80   25.8   36.3   114    1    100.0    5 
 9/14/05  3:20p   27.6   27.6   27.6    79   23.6   3.2   NNW  0.27  12.9     N   27.6   31.1   31.1  1007.5  0.00   0.0   0.000   0.032   29.7    80   25.8   36.3   114    1    100.0    5 
 9/14/05  3:25p   27.5   27.6   27.5    79   23.5   6.4     N  0.54  12.9     N   27.5   30.8   30.8  1007.5  0.00   0.0   0.000   0.032   29.7    80   25.8   36.3   114    1    100.0    5 
 9/14/05  3:30p   27.5   27.5   27.4    78   23.3   8.0     N  0.67  20.9     N   27.5   30.7   30.7  1007.5  0.00   0.0   0.000   0.032   29.7    80   25.8   36.3   114    1    100.0    5 
 9/14/05  3:35p   27.2   27.4   26.9    79   23.2  11.3   NNW  0.94  19.3   NNW   27.2   30.1   30.1  1007.5  0.00   0.0   0.000   0.031   29.6    80   25.7   36.1   114    1    100.0    5 
 9/14/05  3:40p   26.6   26.8   26.5    80   22.9   8.0    NW  0.67  16.1   NNW   26.6   29.1   29.1  1007.5  0.00   0.0   0.000   0.029   29.5    79   25.5   35.7   114    1    100.0    5 
 9/14/05  3:45p   26.4   26.5   26.3    81   22.9   6.4    NW  0.54  14.5    NW   26.4   28.8   28.8  1007.6  0.00   0.0   0.000   0.028   29.3    78   25.1   35.2   114    1    100.0    5 
 9/14/05  3:50p   26.2   26.3   26.1    81   22.6   8.0    NW  0.67  16.1    NW   26.2   28.4   28.4  1007.6  0.00   0.0   0.000   0.027   29.2    78   25.0   34.9   114    1    100.0    5 
 9/14/05  3:55p   25.8   25.9   25.8    83   22.7   8.0    NW  0.67  17.7   NNW   25.8   28.1   28.1  1007.6  0.00   0.0   0.000   0.026   29.2    78   24.9   34.8   114    1    100.0    5 
 9/14/05  4:00p   25.6   25.8   25.6    83   22.5   4.8    NW  0.40  14.5   NNW   25.6   27.8   27.8  1007.6  0.00   0.0   0.000   0.025   29.0    78   24.8   34.6   114    1    100.0    5 
 9/14/05  4:05p   25.4   25.6   25.3    84   22.5   4.8   WNW  0.40  11.3   WNW   25.4   27.6   27.6  1007.6  0.00   0.0   0.000   0.025   28.9    79   24.9   34.6   114    1    100.0    5 
 9/14/05  4:10p   25.3   25.3   25.3    83   22.2   6.4   WNW  0.54  11.3   WNW   25.3   27.3   27.3  1007.6  0.00   0.0   0.000   0.024   28.9    79   24.9   34.5   114    1    100.0    5 
 9/14/05  4:15p   25.3   25.3   25.3    83   22.2   6.4    NW  0.54  12.9   NNW   25.3   27.3   27.3  1007.7  0.00   0.0   0.000   0.024   28.8    79   24.8   34.2   114    1    100.0    5 
 9/14/05  4:20p   25.3   25.3   25.3    84   22.4   3.2   NNW  0.27   9.7   NNW   25.3   27.4   27.4  1007.7  0.00   0.0   0.000   0.024   28.8    79   24.8   34.2   114    1    100.0    5 
 9/14/05  4:25p   25.3   25.3   25.3    84   22.4   3.2     N  0.27   9.7   NNE   25.3   27.4   27.4  1007.7  0.51  19.3   0.000   0.024   28.8    79   24.8   34.2   114    1    100.0    5 
 9/14/05  4:30p   25.2   25.3   25.1    84   22.3   3.2   NNW  0.27   9.7    NW   25.2   27.2   27.2  1007.9  0.76  22.1   0.000   0.024   28.7    79   24.7   33.9   114    1    100.0    5 
 9/14/05  4:35p   24.9   25.1   24.8    85   22.2   3.2    NW  0.27   9.7    NW   24.9   26.8   26.8  1007.9  0.25   4.6   0.000   0.023   28.7    80   24.9   34.1   114    1    100.0    5 
 9/14/05  4:40p   24.8   24.8   24.8    85   22.1   1.6    NW  0.13   4.8    NW   24.8   26.7   26.7  1007.9  0.00   2.0   0.000   0.022   28.7    79   24.7   33.9   114    1    100.0    5 
 9/14/05  4:45p   24.8   24.8   24.8    86   22.3   0.0    NW  0.00   3.2    NW   24.8   26.7   26.7  1007.8  0.00   1.3   0.000   0.022   28.6    79   24.6   33.6   113    1     99.1    5 
 9/14/05  4:50p   24.7   24.8   24.7    86   22.2   1.6    NW  0.13   4.8    NW   24.7   26.7   26.7  1007.8  0.00   0.0   0.000   0.022   28.6    80   24.8   33.8   114    1    100.0    5 
 9/14/05  4:55p   24.7   24.7   24.7    86   22.2   0.0   WNW  0.00   3.2   WNW   24.7   26.6   26.6  1007.8  0.00   0.0   0.000   0.022   28.6    80   24.8   33.8   114    1    100.0    5 
 9/14/05  5:00p   24.7   24.7   24.7    87   22.4   1.6   WNW  0.13   3.2   WNW   24.7   26.6   26.6  1007.9  0.00   0.0   0.000   0.022   28.5    80   24.7   33.6   114    1    100.0    5 
 9/14/05  5:05p   24.6   24.7   24.6    87   22.3   1.6   WNW  0.13   3.2     W   24.6   26.6   26.6  1007.9  0.00   0.0   0.000   0.022   28.4    80   24.7   33.5   114    1    100.0    5 
 9/14/05  5:10p   24.6   24.7   24.6    87   22.3   0.0   WNW  0.00   3.2   WNW   24.6   26.6   26.6  1007.9  0.00   0.0   0.000   0.022   28.4    80   24.7   33.5   114    1    100.0    5 
 9/14/05  5:15p   24.7   24.7   24.7    87   22.4   1.6   WNW  0.13   4.8   WNW   24.7   26.6   26.6  1008.0  0.00   0.0   0.000   0.022   28.4    80   24.7   33.5   114    1    100.0    5 
 9/14/05  5:20p   24.7   24.7   24.7    88   22.5   1.6   WNW  0.13   6.4   WNW   24.7   26.7   26.7  1008.0  0.00   0.0   0.000   0.022   28.3    81   24.8   33.3   114    1    100.0    5 
 9/14/05  5:25p   24.7   24.8   24.7    88   22.6   0.0   WNW  0.00   3.2     W   24.7   26.7   26.7  1008.0  0.00   0.0   0.000   0.022   28.3    81   24.8   33.3   113    1     99.1    5 
 9/14/05  5:30p   24.8   24.8   24.8    89   22.8   1.6   WNW  0.13   3.2   WNW   24.8   26.8   26.8  1008.0  0.00   0.0   0.000   0.022   28.3    81   24.8   33.3   114    1    100.0    5 
 9/14/05  5:35p   24.8   24.8   24.8    89   22.9   1.6   WNW  0.13   8.0   WNW   24.8   26.9   26.9  1008.0  0.00   0.0   0.000   0.023   28.3    82   25.0   33.5   114    1    100.0    5 
 9/14/05  5:40p   24.8   24.8   24.8    89   22.9   1.6    NW  0.13   9.7    NW   24.8   26.9   26.9  1008.0  0.00   0.0   0.000   0.023   28.3    82   25.0   33.5   114    1    100.0    5 
 9/14/05  5:45p   24.8   24.8   24.8    89   22.9   3.2   NNW  0.27  11.3     N   24.8   26.9   26.9  1008.3  1.52  53.1   0.000   0.023   28.2    82   24.9   33.2   114    1    100.0    5 
 9/14/05  5:50p   24.8   24.8   24.8    89   22.9   4.8   NNW  0.40  17.7     W   24.8   26.9   26.9  1008.3  0.25  32.8   0.000   0.023   28.2    83   25.1   33.3   114    1    100.0    5 
 9/14/05  5:55p   24.7   24.8   24.7    90   23.0   9.7    NW  0.80  19.3   NNW   24.7   26.8   26.8  1008.3  0.51   9.7   0.000   0.022   28.1    83   24.9   33.0   114    1    100.0    5 
 9/14/05  6:00p   24.6   24.7   24.4    90   22.8   6.4   NNW  0.54  16.1    NW   24.6   26.6   26.6  1008.4  0.25   9.4   0.000   0.022   28.1    84   25.1   33.1   114    1    100.0    5 
 9/14/05  6:05p   24.4   24.4   24.4    90   22.7   3.2    NW  0.27   9.7    NW   24.4   26.4   26.4  1008.4  0.25   4.3   0.000   0.021   28.0    84   25.0   32.9   114    1    100.0    5 
 9/14/05  6:10p   24.4   24.4   24.4    91   22.8   1.6    NW  0.13   3.2    NW   24.4   26.4   26.4  1008.4  0.25   4.3   0.000   0.021   27.9    84   24.9   32.6   114    1    100.0    5 
 9/14/05  6:15p   24.4   24.4   24.4    91   22.8   0.0   WNW  0.00   3.2   WNW   24.4   26.4   26.4  1008.4  0.00   1.5   0.000   0.021   27.9    84   24.9   32.6   114    1    100.0    5 
 9/14/05  6:20p   24.4   24.4   24.4    91   22.8   1.6   NNW  0.13   6.4     N   24.4   26.4   26.4  1008.4  0.00   1.0   0.000   0.021   27.9    84   24.9   32.6   114    1    100.0    5 
 9/14/05  6:25p   24.3   24.4   24.3    91   22.8   1.6   NNW  0.13   4.8   NNW   24.3   26.3   26.3  1008.4  0.00   0.0   0.000   0.021   27.9    84   24.9   32.6   112    1     98.2    5 
 9/14/05  6:30p   24.3   24.3   24.2    91   22.7   1.6    NW  0.13   4.8     W   24.3   26.3   26.3  1008.5  0.00   0.0   0.000   0.021   27.8    84   24.9   32.4   114    1    100.0    5 
 9/14/05  6:35p   24.2   24.2   24.2    91   22.6   1.6     W  0.13   6.4     W   24.2   26.1   26.1  1008.5  0.00   0.0   0.000   0.020   27.8    84   24.8   32.3   114    1    100.0    5 
 9/14/05  6:40p   24.1   24.2   24.1    91   22.5   0.0     W  0.00   1.6     W   24.1   26.1   26.1  1008.5  0.00   0.0   0.000   0.020   27.8    84   24.8   32.3   113    1     99.1    5 
 9/14/05  6:45p   24.1   24.1   24.1    91   22.5   0.0     W  0.00   3.2     W   24.1   26.0   26.0  1008.6  0.00   0.0   0.000   0.020   27.8    84   24.8   32.3   114    1    100.0    5 
 9/14/05  6:50p   24.1   24.1   24.1    91   22.5   0.0   WNW  0.00   3.2   WNW   24.1   26.0   26.0  1008.6  0.00   0.0   0.000   0.020   27.8    84   24.8   32.3   114    1    100.0    5 
 9/14/05  6:55p   24.1   24.1   24.1    91   22.5   0.0   WNW  0.00   1.6   WNW   24.1   26.0   26.0  1008.6  0.00   0.0   0.000   0.020   27.8    84   24.8   32.3   114    1    100.0    5 
 9/14/05  7:00p   24.0   24.1   24.0    91   22.4   0.0   WNW  0.00   1.6   WNW   24.0   25.9   25.9  1008.7  0.00   0.0   0.000   0.020   27.8    85   25.0   32.4   114    1    100.0    5 
 9/14/05  7:05p   24.0   24.0   24.0    91   22.4   0.0   WNW  0.00   1.6   WNW   24.0   25.9   25.9  1008.7  0.25   0.0   0.000   0.020   27.8    85   25.0   32.4   114    1    100.0    5 
 9/14/05  7:10p   24.0   24.0   24.0    91   22.4   0.0   WNW  0.00   1.6   WNW   24.0   25.9   25.9  1008.7  0.25   3.0   0.000   0.020   27.8    85   25.0   32.4   114    1    100.0    5 
 9/14/05  7:15p   24.0   24.0   24.0    91   22.4   0.0   WNW  0.00   1.6   WNW   24.0   25.9   25.9  1008.8  0.25   3.0   0.000   0.020   27.8    85   25.0   32.4   114    1    100.0    5 
 9/14/05  7:20p   24.0   24.0   24.0    91   22.4   0.0   WNW  0.00   1.6   WNW   24.0   25.9   25.9  1008.8  0.00   2.0   0.000   0.020   27.7    85   25.0   32.3   114    1    100.0    5 
 9/14/05  7:25p   24.0   24.0   24.0    91   22.4   0.0   WNW  0.00   1.6   WNW   24.0   25.9   25.9  1008.8  0.00   1.3   0.000   0.020   27.7    85   25.0   32.3   113    1     99.1    5 
 9/14/05  7:30p   24.0   24.0   24.0    91   22.4   0.0     W  0.00   3.2     W   24.0   25.9   25.9  1008.9  0.25   1.3   0.000   0.020   27.7    85   25.0   32.3   114    1    100.0    5 
 9/14/05  7:35p   24.0   24.1   24.0    91   22.4   0.0   ---  0.00   0.0   ---   24.0   25.9   25.9  1008.9  0.00   1.3   0.000   0.020   27.7    84   24.8   32.1   113    1     99.1    5 
 9/14/05  7:40p   24.1   24.1   24.1    91   22.5   1.6     W  0.13   4.8     W   24.1   26.0   26.0  1008.9  0.25   1.3   0.000   0.020   27.7    84   24.8   32.1   114    1    100.0    5 
 9/14/05  7:45p   24.1   24.1   24.1    91   22.5   0.0     W  0.00   1.6     W   24.1   26.0   26.0  1008.9  0.25   2.3   0.000   0.020   27.7    84   24.8   32.1   114    1    100.0    5 
 9/14/05  7:50p   24.1   24.1   24.1    91   22.5   0.0   ---  0.00   0.0   ---   24.1   26.0   26.0  1008.9  0.00   2.3   0.000   0.020   27.6    84   24.7   31.8   114    1    100.0    5 
 9/14/05  7:55p   24.1   24.1   24.1    91   22.5   0.0   ---  0.00   0.0   ---   24.1   26.0   26.0  1008.9  0.00   1.3   0.000   0.020   27.6    85   24.9   32.0   114    1    100.0    5 
 9/14/05  8:00p   24.1   24.1   24.1    92   22.7   0.0   ---  0.00   0.0   ---   24.1   26.1   26.1  1008.9  0.25   1.3   0.000   0.020   27.6    85   24.9   32.0   114    1    100.0    5 
 9/14/05  8:05p   24.1   24.1   24.1    92   22.7   0.0   ---  0.00   0.0   ---   24.1   26.1   26.1  1008.9  0.25   3.3   0.000   0.020   27.6    85   24.9   32.0   113    1     99.1    5 
 9/14/05  8:10p   24.1   24.1   24.1    92   22.7   0.0   ---  0.00   0.0   ---   24.1   26.1   26.1  1008.9  0.25   3.3   0.000   0.020   27.6    85   24.9   32.0   113    1     99.1    5 
 9/14/05  8:15p   24.1   24.1   24.1    92   22.7   0.0   ---  0.00   0.0   ---   24.1   26.1   26.1  1009.2  0.25   3.6   0.000   0.020   27.6    85   24.9   32.0   114    1    100.0    5 
 9/14/05  8:20p   24.2   24.2   24.1    92   22.8   0.0     W  0.00   1.6     W   24.2   26.2   26.2  1009.2  0.25   3.6   0.000   0.020   27.6    85   24.9   32.0   114    1    100.0    5 
 9/14/05  8:25p   24.2   24.2   24.2    92   22.8   0.0     W  0.00   1.6     W   24.2   26.2   26.2  1009.2  0.51   4.8   0.000   0.020   27.6    86   25.1   32.2   112    1     98.2    5 
 9/14/05  8:30p   24.3   24.3   24.2    92   22.9   3.2     N  0.27   4.8     N   24.3   26.3   26.3  1009.9  0.51   8.4   0.000   0.021   27.6    85   24.9   32.0   103    1     90.4    5 
 9/14/05  8:35p   24.2   24.3   24.2    92   22.8   1.6   NNE  0.13   4.8   NNE   24.2   26.2   26.2  1009.9  1.52  22.9   0.000   0.020   27.6    86   25.0   32.1   114    1    100.0    5 
 9/14/05  8:40p   24.2   24.2   24.2    92   22.8   0.0   NNE  0.00   1.6   NNE   24.2   26.2   26.2  1009.9  3.81  63.5   0.000   0.020   27.6    86   25.1   32.2   114    1    100.0    5 
 9/14/05  8:45p   24.2   24.2   24.2    92   22.8   1.6    NW  0.13   3.2    NW   24.2   26.2   26.2  1009.6  3.05  73.9   0.000   0.020   27.5    86   24.9   31.9   114    1    100.0    5 
 9/14/05  8:50p   24.1   24.2   24.1    92   22.7   0.0    SW  0.00   3.2   WSW   24.1   26.1   26.1  1009.6  1.52  31.0   0.000   0.020   27.5    86   24.9   31.9   114    1    100.0    5 
 9/14/05  8:55p   24.0   24.1   24.0    92   22.6   1.6    SW  0.13   4.8    SW   24.0   26.0   26.0  1009.6  1.02  17.5   0.000   0.020   27.5    86   24.9   31.9   113    1     99.1    5 
 9/14/05  9:00p   24.0   24.0   24.0    92   22.6   1.6    SW  0.13   3.2    SW   24.0   26.0   26.0  1009.6  1.02  19.3   0.000   0.020   27.5    86   24.9   31.9   114    1    100.0    5 
 9/14/05  9:05p   23.9   24.0   23.9    92   22.6   0.0    SW  0.00   1.6    SW   23.9   25.9   25.9  1009.6  2.03  34.0   0.000   0.019   27.4    86   24.9   31.7   114    1    100.0    5 
 9/14/05  9:10p   23.9   23.9   23.9    92   22.5   1.6   SSW  0.13   4.8    SW   23.9   25.8   25.8  1009.6  2.29  42.4   0.000   0.019   27.4    85   24.6   31.4   114    1    100.0    5 
 9/14/05  9:15p   23.9   23.9   23.9    92   22.5   0.0    SW  0.00   3.2   SSW   23.9   25.8   25.8  1009.9  2.29  46.2   0.000   0.019   27.4    86   24.8   31.6   113    1     99.1    5 
 9/14/05  9:20p   23.9   24.0   23.9    93   22.7   0.0    SW  0.00   3.2    SW   23.9   25.9   25.9  1009.9  2.29  57.1   0.000   0.019   27.4    86   24.8   31.6   114    1    100.0    5 
 9/14/05  9:25p   24.0   24.0   24.0    93   22.8   1.6   WSW  0.13   4.8   WSW   24.0   26.0   26.0  1009.9  2.54  58.9   0.000   0.020   27.4    86   24.8   31.6   114    1    100.0    5 
 9/14/05  9:30p   23.9   24.0   23.9    92   22.6   1.6   NNE  0.13   6.4    NE   23.9   25.9   25.9  1010.0  1.02  15.7   0.000   0.019   27.3    86   24.8   31.4   114    1    100.0    5 
 9/14/05  9:35p   23.9   23.9   23.8    93   22.7   0.0     N  0.00   1.6     N   23.9   25.9   25.9  1010.0  1.02  18.0   0.000   0.019   27.3    87   24.9   31.4   114    1    100.0    5 
 9/14/05  9:40p   23.8   23.8   23.8    93   22.6   0.0     N  0.00   3.2     N   23.8   25.7   25.7  1010.0  1.02  20.3   0.000   0.019   27.3    87   25.0   31.6   114    1    100.0    5 
 9/14/05  9:45p   23.8   23.8   23.8    93   22.6   0.0   NNW  0.00   1.6     N   23.8   25.7   25.7  1010.0  2.03  39.1   0.000   0.019   27.4    87   25.0   31.8   114    1    100.0    5 
 9/14/05  9:50p   23.8   23.8   23.8    93   22.6   1.6     W  0.13   3.2    NW   23.8   25.7   25.7  1010.0  1.52  29.5   0.000   0.019   27.5    86   24.9   31.9   114    1    100.0    5 
 9/14/05  9:55p   23.7   23.8   23.6    93   22.5   1.6     W  0.13   4.8     W   23.7   25.5   25.5  1010.0  1.02  13.0   0.000   0.019   27.6    86   25.0   32.1   114    1    100.0    5 
 9/14/05 10:00p   23.6   23.6   23.5    93   22.4   0.0     W  0.00   4.8     W   23.6   25.3   25.3  1010.0  0.51  13.0   0.000   0.018   27.6    86   25.1   32.2   114    1    100.0    5 
 9/14/05 10:05p   23.5   23.5   23.5    93   22.3   0.0   WSW  0.00   4.8   WSW   23.5   25.2   25.2  1010.0  0.51   7.9   0.000   0.018   27.7    85   24.9   32.2   113    1     99.1    5 
 9/14/05 10:10p   23.5   23.5   23.5    93   22.3   3.2     W  0.27   9.7   WSW   23.5   25.2   25.2  1010.0  0.25   7.9   0.000   0.018   27.7    85   25.0   32.3   114    1    100.0    5 
 9/14/05 10:15p   23.5   23.5   23.5    93   22.3   3.2     W  0.27  11.3   WSW   23.5   25.2   25.2  1009.8  0.00   2.5   0.000   0.018   27.7    85   25.0   32.3   114    1    100.0    5 
 9/14/05 10:20p   23.5   23.5   23.5    93   22.3   3.2     W  0.27   8.0   WSW   23.5   25.2   25.2  1009.8  0.00   1.5   0.000   0.018   27.7    85   25.0   32.3   114    1    100.0    5 
 9/14/05 10:25p   23.5   23.5   23.5    93   22.3   3.2     W  0.27   9.7     W   23.5   25.2   25.2  1009.8  0.25   1.5   0.000   0.018   27.7    85   25.0   32.3   114    1    100.0    5 
 9/14/05 10:30p   23.5   23.5   23.5    93   22.3   3.2     W  0.27   9.7     W   23.5   25.2   25.2  1009.6  0.25   2.5   0.000   0.018   27.6    85   24.9   32.0   114    1    100.0    5 
 9/14/05 10:35p   23.5   23.5   23.5    93   22.3   3.2     W  0.27  11.3     W   23.5   25.2   25.2  1009.6  0.00   2.5   0.000   0.018   27.6    85   24.9   32.0   114    1    100.0    5 
 9/14/05 10:40p   23.5   23.5   23.5    93   22.3   3.2     W  0.27   8.0   WSW   23.5   25.2   25.2  1009.6  0.00   1.5   0.000   0.018   27.6    85   24.9   32.0   113    1     99.1    5 
 9/14/05 10:45p   23.5   23.5   23.5    93   22.3   3.2     W  0.27   9.7   WSW   23.5   25.2   25.2  1009.4  0.00   1.0   0.000   0.018   27.5    85   24.8   31.7   113    1     99.1    5 
 9/14/05 10:50p   23.5   23.6   23.5    93   22.3   1.6     W  0.13   4.8     W   23.5   25.2   25.2  1009.4  0.00   0.0   0.000   0.018   27.5    85   24.8   31.7   114    1    100.0    5 
 9/14/05 10:55p   23.6   23.6   23.5    93   22.4   1.6     W  0.13   3.2     W   23.6   25.4   25.4  1009.4  0.25   0.0   0.000   0.018   27.5    85   24.8   31.7   114    1    100.0    5 
 9/14/05 11:00p   23.6   23.6   23.6    93   22.4   1.6     W  0.13   4.8     W   23.6   25.4   25.4  1009.3  0.00   0.0   0.000   0.018   27.5    85   24.8   31.7   114    1    100.0    5 
 9/14/05 11:05p   23.6   23.6   23.6    93   22.4   1.6     W  0.13   4.8     W   23.6   25.4   25.4  1009.3  0.00   0.0   0.000   0.018   27.5    85   24.8   31.7   114    1    100.0    5 
 9/14/05 11:10p   23.6   23.7   23.6    93   22.4   1.6   WNW  0.13   4.8   WNW   23.6   25.4   25.4  1009.3  0.25   1.3   0.000   0.018   27.6    85   24.8   31.9   112    1     98.2    5 
 9/14/05 11:15p   23.7   23.7   23.7    93   22.5   1.6     W  0.13   4.8     W   23.7   25.5   25.5  1009.0  0.00   1.3   0.000   0.019   27.6    85   24.9   32.0   114    1    100.0    5 
 9/14/05 11:20p   23.7   23.7   23.6    93   22.5   1.6     W  0.13   6.4    NW   23.7   25.5   25.5  1009.0  0.25   1.3   0.000   0.019   27.6    85   24.9   32.0   114    1    100.0    5 
 9/14/05 11:25p   23.6   23.6   23.6    93   22.4   1.6     W  0.13   6.4     W   23.6   25.4   25.4  1009.0  0.00   1.3   0.000   0.018   27.6    85   24.9   32.0   114    1    100.0    5 
 9/14/05 11:30p   23.7   23.7   23.6    93   22.5   1.6     W  0.13   6.4     W   23.7   25.5   25.5  1008.8  0.00   1.3   0.000   0.019   27.6    85   24.9   32.0   114    1    100.0    5 
 9/14/05 11:35p   23.7   23.7   23.7    93   22.5   1.6    NW  0.13   3.2   WNW   23.7   25.5   25.5  1008.8  0.00   0.0   0.000   0.019   27.6    85   24.9   32.0   114    1    100.0    5 
 9/14/05 11:40p   23.7   23.7   23.7    93   22.5   1.6   WNW  0.13   6.4   WNW   23.7   25.5   25.5  1008.8  0.00   0.0   0.000   0.019   27.6    85   24.9   32.0   113    1     99.1    5 
 9/14/05 11:45p   23.7   23.7   23.7    93   22.5   1.6   WNW  0.13   6.4   WNW   23.7   25.5   25.5  1008.4  0.00   0.0   0.000   0.019   27.6    85   24.9   32.0   114    1    100.0    5 
 9/14/05 11:50p   23.7   23.7   23.7    93   22.5   1.6   WNW  0.13   8.0    NW   23.7   25.5   25.5  1008.4  0.00   0.0   0.000   0.019   27.6    85   24.9   32.0   113    1     99.1    5 
 9/14/05 11:55p   23.7   23.7   23.7    94   22.6   1.6   WSW  0.13   8.0   WNW   23.7   25.5   25.5  1008.4  0.00   0.0   0.000   0.019   27.6    85   24.9   32.0   113    1     99.1    5 
 9/15/05 12:00a   23.7   23.7   23.7    94   22.6   1.6     W  0.13   4.8   WSW   23.7   25.5   25.5  1008.0  0.00   0.0   0.000   0.019   27.6    85   24.9   32.0   114    1    100.0    5 
 9/15/05 12:05a   23.7   23.7   23.7    94   22.6   0.0     W  0.00   1.6     W   23.7   25.5   25.5  1008.0  0.00   0.0   0.000   0.019   27.7    85   25.0   32.3   111    1     97.4    5 
 9/15/05 12:10a   23.7   23.8   23.7    94   22.6   0.0     W  0.00   3.2     W   23.7   25.5   25.5  1008.0  0.00   0.0   0.000   0.019   27.7    85   25.0   32.3   110    1     96.5    5 
 9/15/05 12:15a   23.8   23.8   23.8    93   22.6   0.0     W  0.00   1.6     W   23.8   25.7   25.7  1008.1  0.00   0.0   0.000   0.019   27.7    85   25.0   32.3   113    1     99.1    5 
 9/15/05 12:20a   23.8   23.8   23.8    93   22.6   1.6    NW  0.13   9.7   WNW   23.8   25.7   25.7  1008.1  0.00   0.0   0.000   0.019   27.7    85   25.0   32.3   113    1     99.1    5 
 9/15/05 12:25a   23.8   23.8   23.8    93   22.6   1.6    NW  0.13   9.7     N   23.8   25.7   25.7  1008.1  0.00   0.0   0.000   0.019   27.8    85   25.0   32.4   114    1    100.0    5 
 9/15/05 12:30a   23.8   23.8   23.8    93   22.6   1.6    NW  0.13   3.2    NW   23.8   25.7   25.7  1007.9  0.00   0.0   0.000   0.019   27.8    85   25.0   32.4   114    1    100.0    5 
 9/15/05 12:35a   23.8   23.8   23.8    93   22.6   0.0    NW  0.00   4.8    NW   23.8   25.7   25.7  1007.9  0.00   0.0   0.000   0.019   27.8    85   25.0   32.4   113    1     99.1    5 
 9/15/05 12:40a   23.8   23.8   23.7    93   22.6   0.0   NNW  0.00   4.8   NNW   23.8   25.7   25.7  1007.9  0.00   0.0   0.000   0.019   27.8    85   25.0   32.4   114    1    100.0    5 
 9/15/05 12:45a   23.7   23.7   23.7    93   22.5   0.0   NNW  0.00   3.2   NNW   23.7   25.5   25.5  1007.9  0.00   0.0   0.000   0.019   27.8    85   25.0   32.4   113    1     99.1    5 
 9/15/05 12:50a   23.6   23.7   23.6    93   22.4   0.0   NNW  0.00   3.2   NNW   23.6   25.4   25.4  1007.9  0.00   0.0   0.000   0.018   27.8    84   24.8   32.3   114    1    100.0    5 
 9/15/05 12:55a   23.6   23.6   23.6    93   22.4   1.6   NNW  0.13   8.0   NNW   23.6   25.4   25.4  1007.9  0.25   0.0   0.000   0.018   27.8    84   24.8   32.3   113    1     99.1    5 
 9/15/05  1:00a   23.6   23.6   23.6    93   22.4   1.6    NW  0.13   4.8    NW   23.6   25.4   25.4  1007.8  0.25   3.6   0.000   0.018   27.8    84   24.8   32.3   114    1    100.0    5 
 9/15/05  1:05a   23.6   23.6   23.6    93   22.4   3.2   WNW  0.27   9.7   NNW   23.6   25.4   25.4  1007.8  0.00   1.8   0.000   0.018   27.8    84   24.8   32.3   114    1    100.0    5 
 9/15/05  1:10a   23.7   23.7   23.6    93   22.5   4.8   WNW  0.40  11.3   NNW   23.7   25.5   25.5  1007.8  0.25   1.8   0.000   0.019   27.7    84   24.8   32.1   114    1    100.0    5 
 9/15/05  1:15a   23.7   23.7   23.7    93   22.5   4.8    NW  0.40  12.9   WNW   23.7   25.5   25.5  1007.8  0.00   1.3   0.000   0.019   27.6    84   24.7   31.8   114    1    100.0    5 
 9/15/05  1:20a   23.7   23.7   23.7    93   22.5   4.8    NW  0.40  12.9    NW   23.7   25.5   25.5  1007.8  0.25   1.5   0.000   0.019   27.5    84   24.6   31.6   110    1     96.5    5 
 9/15/05  1:25a   23.7   23.7   23.7    93   22.5   4.8   WNW  0.40  12.9   WNW   23.7   25.5   25.5  1007.8  0.00   1.5   0.000   0.019   27.4    85   24.6   31.4   114    1    100.0    5 
 9/15/05  1:30a   23.7   23.7   23.7    93   22.5   4.8    NW  0.40  12.9   NNW   23.7   25.5   25.5  1007.7  0.00   1.3   0.000   0.019   27.3    85   24.5   31.2   114    1    100.0    5 
 9/15/05  1:35a   23.7   23.7   23.7    93   22.5   4.8    NW  0.40  11.3   NNW   23.7   25.5   25.5  1007.7  0.25   1.3   0.000   0.019   27.2    85   24.5   31.0   114    1    100.0    5 
 9/15/05  1:40a   23.7   23.8   23.7    93   22.5   4.8   WNW  0.40  11.3     W   23.7   25.5   25.5  1007.7  0.25   2.0   0.000   0.019   27.2    85   24.4   30.9   114    1    100.0    5 
 9/15/05  1:45a   23.8   23.8   23.8    93   22.6   4.8   WNW  0.40  11.3   WNW   23.8   25.7   25.7  1007.5  0.00   2.0   0.000   0.019   27.1    86   24.6   30.9   114    1    100.0    5 
 9/15/05  1:50a   23.8   23.8   23.8    93   22.6   3.2    NW  0.27  12.9   WNW   23.8   25.7   25.7  1007.5  0.00   1.5   0.000   0.019   27.1    86   24.5   30.8   114    1    100.0    5 
 9/15/05  1:55a   23.8   23.8   23.8    93   22.6   4.8    NW  0.40  11.3    NW   23.8   25.7   25.7  1007.5  0.00   1.0   0.000   0.019   27.1    86   24.5   30.8   114    1    100.0    5 
 9/15/05  2:00a   23.8   23.8   23.8    93   22.6   6.4    NW  0.54  12.9    NW   23.8   25.7   25.7  1007.4  0.00   0.0   0.000   0.019   27.1    87   24.7   30.9   114    1    100.0    5 
 9/15/05  2:05a   23.8   23.8   23.8    93   22.6   3.2   WNW  0.27   8.0    NW   23.8   25.7   25.7  1007.4  0.51   7.6   0.000   0.019   26.9    87   24.6   30.7   114    1    100.0    5 
 9/15/05  2:10a   23.8   23.8   23.8    93   22.6   3.2   WNW  0.27   4.8    NW   23.8   25.7   25.7  1007.4  0.51  18.0   0.000   0.019   26.9    87   24.6   30.7   114    1    100.0    5 
 9/15/05  2:15a   23.8   23.8   23.8    93   22.6   1.6    NW  0.13  11.3    NW   23.8   25.7   25.7  1007.4  0.00   1.8   0.000   0.019   26.9    87   24.6   30.7   112    1     98.2    5 
 9/15/05  2:20a   23.8   23.8   23.8    93   22.6   1.6    NW  0.13   8.0   WNW   23.8   25.7   25.7  1007.4  0.51  15.5   0.000   0.019   26.9    87   24.6   30.7   114    1    100.0    5 
 9/15/05  2:25a   23.8   23.8   23.8    93   22.6   3.2    NW  0.27   8.0    NW   23.8   25.7   25.7  1007.4  0.51  11.4   0.000   0.019   26.9    87   24.6   30.7   113    1     99.1    5 
 9/15/05  2:30a   23.8   23.8   23.8    93   22.6   3.2   WNW  0.27   9.7   WNW   23.8   25.7   25.7  1006.9  0.51  10.4   0.000   0.019   26.9    87   24.5   30.6   115    1    100.0    5 
 9/15/05  2:35a   23.8   23.8   23.8    93   22.6   3.2   WNW  0.27   9.7    NW   23.8   25.7   25.7  1006.9  0.51   8.1   0.000   0.019   26.9    88   24.7   30.7   114    1    100.0    5 
 9/15/05  2:40a   23.8   23.8   23.8    93   22.6   1.6   WNW  0.13   4.8    NW   23.8   25.7   25.7  1006.9  0.25   6.3   0.000   0.019   26.9    88   24.7   30.7   113    1     99.1    5 
 9/15/05  2:45a   23.8   23.8   23.8    93   22.6   1.6   WNW  0.13   3.2   WNW   23.8   25.7   25.7  1006.8  0.25   5.6   0.000   0.019   26.8    88   24.7   30.6   114    1    100.0    5 
 9/15/05  2:50a   23.8   23.8   23.8    93   22.6   3.2   WNW  0.27   9.7   WNW   23.8   25.7   25.7  1006.8  0.51   5.1   0.000   0.019   26.8    88   24.6   30.4   114    1    100.0    5 
 9/15/05  2:55a   23.8   23.8   23.8    93   22.6   3.2   WNW  0.27   9.7     W   23.8   25.7   25.7  1006.8  0.51  10.7   0.000   0.019   26.9    88   24.7   30.7   114    1    100.0    5 
 9/15/05  3:00a   23.8   23.8   23.7    93   22.6   4.8    NW  0.40  11.3   WNW   23.8   25.7   25.7  1006.4  1.02  20.8   0.000   0.019   26.9    87   24.5   30.6   114    1    100.0    5 
 9/15/05  3:05a   23.7   23.7   23.6    93   22.5   4.8   WNW  0.40  12.9     W   23.7   25.5   25.5  1006.4  0.51   9.9   0.000   0.019   26.8    87   24.5   30.4   114    1    100.0    5 
 9/15/05  3:10a   23.6   23.6   23.5    93   22.4   3.2   WNW  0.27  12.9    NW   23.6   25.4   25.4  1006.4  0.00   2.0   0.000   0.018   26.8    87   24.5   30.4   114    1    100.0    5 
 9/15/05  3:15a   23.5   23.5   23.5    93   22.3   3.2   WNW  0.27   8.0   WNW   23.5   25.2   25.2  1006.4  0.25   2.0   0.000   0.018   26.8    87   24.4   30.3   113    1     99.1    5 
 9/15/05  3:20a   23.5   23.5   23.5    93   22.3   3.2   WNW  0.27  11.3    NW   23.5   25.2   25.2  1006.4  0.00   1.5   0.000   0.018   26.8    87   24.4   30.3   114    1    100.0    5 
 9/15/05  3:25a   23.4   23.5   23.4    93   22.2   3.2     W  0.27   9.7   WNW   23.4   24.9   24.9  1006.4  0.00   1.3   0.000   0.018   26.8    87   24.4   30.3   113    1     99.1    5 
 9/15/05  3:30a   23.4   23.4   23.4    93   22.2   4.8   WNW  0.40  12.9   WNW   23.4   24.9   24.9  1006.3  0.25   1.3   0.000   0.018   26.8    87   24.4   30.3   114    1    100.0    5 
 9/15/05  3:35a   23.4   23.4   23.3    93   22.2   4.8     W  0.40  11.3   WNW   23.4   24.9   24.9  1006.3  0.00   1.3   0.000   0.018   26.8    87   24.4   30.3   114    1    100.0    5 
 9/15/05  3:40a   23.3   23.4   23.3    93   22.1   4.8     W  0.40  11.3   WNW   23.3   24.8   24.8  1006.3  0.00   1.0   0.000   0.017   26.8    87   24.4   30.3   113    1     99.1    5 
 9/15/05  3:45a   23.3   23.3   23.3    93   22.1   6.4     W  0.54  12.9   WSW   23.3   24.8   24.8  1006.3  0.00   0.0   0.000   0.017   26.7    87   24.3   30.1   114    1    100.0    5 
 9/15/05  3:50a   23.3   23.4   23.3    93   22.1   3.2   WNW  0.27  11.3   WNW   23.3   24.9   24.9  1006.3  0.00   0.0   0.000   0.017   26.7    87   24.3   30.1   114    1    100.0    5 
 9/15/05  3:55a   23.4   23.4   23.4    93   22.2   4.8   WNW  0.40  12.9    NW   23.4   24.9   24.9  1006.3  0.25   0.0   0.000   0.018   26.7    87   24.3   30.1   114    1    100.0    5 
 9/15/05  4:00a   23.4   23.4   23.4    93   22.2   3.2     W  0.27  11.3     W   23.4   24.9   24.9  1006.4  0.25   4.8   0.000   0.018   26.7    87   24.3   30.1   114    1    100.0    5 
 9/15/05  4:05a   23.4   23.4   23.4    93   22.2   4.8     W  0.40  16.1   NNW   23.4   24.9   24.9  1006.4  0.25   4.1   0.000   0.018   26.7    87   24.3   30.1   114    1    100.0    5 
 9/15/05  4:10a   23.4   23.4   23.4    93   22.2   3.2     W  0.27  16.1     N   23.4   24.9   24.9  1006.4  0.25   5.8   0.000   0.018   26.7    87   24.3   30.1   114    1    100.0    5 
 9/15/05  4:15a   23.4   23.4   23.4    93   22.2   4.8   WNW  0.40  11.3     W   23.4   24.9   24.9  1006.4  0.25   3.3   0.000   0.018   26.7    87   24.3   30.1   114    1    100.0    5 
 9/15/05  4:20a   23.4   23.4   23.4    93   22.2   4.8   WNW  0.40  11.3   WNW   23.4   24.9   24.9  1006.4  0.25   3.3   0.000   0.018   26.6    87   24.2   29.8   114    1    100.0    5 
 9/15/05  4:25a   23.4   23.4   23.4    93   22.2   6.4   WNW  0.54  16.1    NW   23.4   24.9   24.9  1006.4  0.00   2.0   0.000   0.018   26.6    87   24.3   29.9   114    1    100.0    5 
 9/15/05  4:30a   23.4   23.4   23.4    93   22.2   4.8    NW  0.40  11.3     W   23.4   24.9   24.9  1006.3  0.00   1.3   0.000   0.018   26.6    87   24.2   29.8   114    1    100.0    5 
 9/15/05  4:35a   23.4   23.4   23.4    93   22.2   3.2   WNW  0.27  11.3   WSW   23.4   24.9   24.9  1006.3  0.25   1.3   0.000   0.018   26.6    87   24.2   29.8   114    1    100.0    5 
 9/15/05  4:40a   23.4   23.4   23.4    93   22.2   4.8   WNW  0.40  11.3     W   23.4   24.9   24.9  1006.3  0.00   1.3   0.000   0.018   26.6    87   24.2   29.8   114    1    100.0    5 
 9/15/05  4:45a   23.3   23.4   23.3    93   22.1   4.8   WNW  0.40  11.3   WSW   23.3   24.9   24.9  1006.4  0.00   1.0   0.000   0.017   26.6    87   24.2   29.8   114    1    100.0    5 
 9/15/05  4:50a   23.3   23.4   23.3    93   22.1   4.8    NW  0.40  11.3   WNW   23.3   24.8   24.8  1006.4  0.00   0.0   0.000   0.017   26.4    87   24.1   29.6   114    1    100.0    5 
 9/15/05  4:55a   23.3   23.4   23.3    93   22.1   4.8   WNW  0.40  11.3   WNW   23.3   24.8   24.8  1006.4  0.00   0.0   0.000   0.017   26.4    87   24.1   29.6   113    1     99.1    5 
 9/15/05  5:00a   23.3   23.3   23.3    93   22.1   4.8   WNW  0.40  12.9     W   23.3   24.8   24.8  1006.4  0.00   0.0   0.000   0.017   26.4    87   24.1   29.6   114    1    100.0    5 
 9/15/05  5:05a   23.3   23.3   23.3    93   22.1   6.4     W  0.54  14.5     W   23.3   24.8   24.8  1006.4  0.00   0.0   0.000   0.017   26.4    87   24.1   29.6   114    1    100.0    5 
 9/15/05  5:10a   23.3   23.3   23.3    93   22.1   4.8     W  0.40  11.3   WNW   23.3   24.8   24.8  1006.4  0.00   0.0   0.000   0.017   26.4    87   24.1   29.6   113    1     99.1    5 
 9/15/05  5:15a   23.3   23.3   23.3    93   22.1   3.2   WNW  0.27   9.7     W   23.3   24.8   24.8  1006.4  0.00   0.0   0.000   0.017   26.4    88   24.3   29.7   114    1    100.0    5 
 9/15/05  5:20a   23.3   23.3   23.3    93   22.1   3.2    NW  0.27   9.7   WNW   23.3   24.8   24.8  1006.4  0.00   0.0   0.000   0.017   26.4    88   24.3   29.7   114    1    100.0    5 
 9/15/05  5:25a   23.3   23.3   23.3    93   22.1   3.2    NW  0.27   9.7   WNW   23.3   24.8   24.8  1006.4  0.00   0.0   0.000   0.017   26.4    88   24.3   29.7   114    1    100.0    5 
 9/15/05  5:30a   23.3   23.3   23.3    93   22.1   4.8    NW  0.40  11.3    NW   23.3   24.8   24.8  1006.5  0.00   0.0   0.000   0.017   26.6    88   24.4   29.9   114    1    100.0    5 
 9/15/05  5:35a   23.3   23.3   23.3    93   22.1   4.8   WNW  0.40  11.3     W   23.3   24.8   24.8  1006.5  0.00   0.0   0.000   0.017   26.6    87   24.3   29.9   113    1     99.1    5 
 9/15/05  5:40a   23.3   23.4   23.3    93   22.1   4.8   WNW  0.40  11.3     W   23.3   24.8   24.8  1006.5  0.00   0.0   0.000   0.017   26.7    87   24.4   30.2   113    1     99.1    5 
 9/15/05  5:45a   23.4   23.4   23.3    93   22.2   4.8     W  0.40  16.1    NW   23.4   24.9   24.9  1006.2  0.25   0.0   0.000   0.018   26.8    87   24.4   30.3   114    1    100.0    5 
 9/15/05  5:50a   23.4   23.4   23.3    93   22.2   6.4   WNW  0.54  12.9   WNW   23.4   24.9   24.9  1006.2  0.00   0.0   0.000   0.018   26.8    87   24.4   30.3   114    1    100.0    5 
 9/15/05  5:55a   23.4   23.4   23.4    93   22.2   6.4   WNW  0.54  16.1     W   23.4   24.9   24.9  1006.2  0.00   0.0   0.000   0.018   26.9    87   24.5   30.6   114    1    100.0    5 
 9/15/05  6:00a   23.4   23.4   23.4    93   22.2   6.4   WNW  0.54  16.1   WSW   23.4   24.9   24.9  1006.0  0.00   0.0   0.000   0.018   26.9    86   24.3   30.4   114    1    100.0    5 
 9/15/05  6:05a   23.4   23.4   23.4    93   22.2   6.4   WNW  0.54  16.1     W   23.4   24.9   24.9  1006.0  0.00   0.0   0.000   0.018   26.9    86   24.3   30.4   114    1    100.0    5 
 9/15/05  6:10a   23.4   23.4   23.4    93   22.2   6.4   WNW  0.54  19.3    NW   23.4   24.9   24.9  1006.0  0.00   0.0   0.000   0.018   26.9    86   24.4   30.6   113    1     99.1    5 
 9/15/05  6:15a   23.4   23.4   23.4    93   22.2   4.8   WNW  0.40  12.9    NW   23.4   24.9   24.9  1005.8  0.00   0.0   0.000   0.018   26.9    86   24.4   30.6   114    1    100.0    5 
 9/15/05  6:20a   23.4   23.4   23.4    93   22.2   6.4   WNW  0.54  12.9   WSW   23.4   24.9   24.9  1005.8  0.00   0.0   0.000   0.018   26.9    86   24.4   30.6   113    1     99.1    5 
 9/15/05  6:25a   23.4   23.4   23.4    93   22.2   6.4   WNW  0.54  12.9    NW   23.4   24.9   24.9  1005.8  0.00   0.0   0.000   0.018   26.9    86   24.3   30.4   114    1    100.0    5 
 9/15/05  6:30a   23.4   23.5   23.4    93   22.2   6.4   WNW  0.54  12.9   WSW   23.4   24.9   24.9  1005.8  0.00   0.0   0.000   0.018   26.9    87   24.5   30.6   113    1     99.1    5 
 9/15/05  6:35a   23.4   23.4   23.4    93   22.2   4.8     W  0.40  12.9   WNW   23.4   24.9   24.9  1005.8  0.00   0.0   0.000   0.018   26.8    87   24.4   30.3   114    1    100.0    5 
 9/15/05  6:40a   23.4   23.5   23.4    93   22.2   4.8   WNW  0.40  14.5   WNW   23.4   25.1   25.1  1005.8  0.00   0.0   0.000   0.018   26.8    87   24.4   30.3   114    1    100.0    5 
 9/15/05  6:45a   23.5   23.5   23.5    93   22.3   4.8   WNW  0.40  14.5   WSW   23.5   25.2   25.2  1005.8  0.00   0.0   0.000   0.018   26.8    87   24.4   30.3   113    1     99.1    5 
 9/15/05  6:50a   23.5   23.5   23.5    93   22.3   4.8     W  0.40  16.1   WSW   23.5   25.2   25.2  1005.8  0.00   0.0   0.000   0.018   26.8    87   24.4   30.3   112    1     98.2    5 
 9/15/05  6:55a   23.6   23.6   23.6    92   22.2   4.8   WNW  0.40  11.3   WNW   23.6   25.3   25.3  1005.8  0.00   0.0   0.000   0.018   26.9    87   24.5   30.6   114    1    100.0    5 
 9/15/05  7:00a   23.6   23.6   23.6    92   22.2   3.2     W  0.27  11.3    NW   23.6   25.3   25.3  1005.9  0.00   0.0   0.000   0.018   26.9    87   24.5   30.6   114    1    100.0    5 
 9/15/05  7:05a   23.6   23.7   23.6    92   22.2   1.6     W  0.13   4.8     W   23.6   25.3   25.3  1005.9  0.00   0.0   0.000   0.018   26.9    87   24.5   30.6   114    1    100.0    5 
 9/15/05  7:10a   23.7   23.7   23.6    92   22.3   1.6     W  0.13   8.0     W   23.7   25.4   25.4  1005.9  0.00   0.0   0.000   0.019   26.9    87   24.6   30.7   113    1     99.1    5 
 9/15/05  7:15a   23.7   23.7   23.7    92   22.3   1.6     W  0.13   8.0     W   23.7   25.4   25.4  1006.3  0.25   0.0   0.000   0.019   27.0    87   24.6   30.8   114    1    100.0    5 
 9/15/05  7:20a   23.7   23.7   23.7    92   22.3   0.0    SW  0.00   4.8     W   23.7   25.4   25.4  1006.3  0.51  15.5   0.000   0.019   27.1    86   24.5   30.8   114    1    100.0    5 
 9/15/05  7:25a   23.7   23.7   23.7    92   22.3   1.6     W  0.13   4.8     W   23.7   25.4   25.4  1006.3  0.25  15.5   0.000   0.019   27.1    86   24.6   30.9   114    1    100.0    5 
 9/15/05  7:30a   23.7   23.7   23.7    92   22.3   1.6     W  0.13   6.4     W   23.7   25.4   25.4  1006.7  1.52  31.2   0.000   0.019   27.2    86   24.6   31.1   114    1    100.0    5 
 9/15/05  7:35a   23.7   23.7   23.7    92   22.3   3.2   WNW  0.27   9.7   WNW   23.7   25.4   25.4  1006.7  5.08 112.5   0.000   0.019   27.2    86   24.6   31.1   114    1    100.0    5 
 9/15/05  7:40a   23.7   23.7   23.7    92   22.3   6.4   WNW  0.54  17.7     W   23.7   25.4   25.4  1006.7  6.86 126.2   0.000   0.019   27.1    86   24.6   30.9   114    1    100.0    5 
 9/15/05  7:45a   23.7   23.7   23.6    92   22.3   6.4     W  0.54  12.9   WNW   23.7   25.4   25.4  1006.7  3.05  85.1   0.000   0.019   27.1    87   24.7   30.9   114    1    100.0    5 
 9/15/05  7:50a   23.7   23.7   23.6    92   22.3   6.4     W  0.54  16.1   WNW   23.7   25.4   25.4  1006.7  1.78  27.4   0.000   0.019   26.9    87   24.6   30.7   114    1    100.0    5 
 9/15/05  7:55a   23.7   23.7   23.6    93   22.5   6.4     W  0.54  11.3     W   23.7   25.5   25.5  1006.7  0.51  21.8   0.000   0.019   26.9    87   24.6   30.7   114    1    100.0    5 
 9/15/05  8:00a   23.7   23.8   23.7    93   22.5   6.4     W  0.54  20.9   WNW   23.7   25.5   25.5  1006.8  0.25   5.3   0.000   0.019   26.9    88   24.7   30.7   114    1    100.0    5 
 9/15/05  8:05a   23.8   23.9   23.8    93   22.6   8.0     W  0.67  19.3     W   23.8   25.7   25.7  1006.8  0.25   3.0   0.000   0.019   26.9    88   24.7   30.7   114    1    100.0    5 
 9/15/05  8:10a   23.9   23.9   23.9    93   22.7   8.0     W  0.67  19.3     W   23.9   25.9   25.9  1006.8  0.00   2.0   0.000   0.019   26.9    89   24.9   30.8   114    1    100.0    5 
 9/15/05  8:15a   23.9   24.0   23.9    93   22.7   6.4     W  0.54  14.5     W   23.9   25.9   25.9  1006.5  0.25   2.0   0.000   0.019   26.9    89   24.9   30.8   114    1    100.0    5 
 9/15/05  8:20a   24.0   24.0   24.0    93   22.8   4.8     W  0.40  11.3   WNW   24.0   26.0   26.0  1006.5  0.00   1.5   0.000   0.020   26.9    89   24.9   30.8   114    1    100.0    5 
 9/15/05  8:25a   24.0   24.1   24.0    93   22.8   4.8     W  0.40  11.3   WSW   24.0   26.0   26.0  1006.5  0.00   1.3   0.000   0.020   26.9    89   25.0   30.9   113    1     99.1    5 
 9/15/05  8:30a   24.1   24.2   24.1    93   22.9   4.8     W  0.40  12.9     W   24.1   26.1   26.1  1006.5  0.00   0.0   0.000   0.020   26.9    89   25.0   30.9   114    1    100.0    5 
 9/15/05  8:35a   24.1   24.2   24.1    93   22.9   3.2     W  0.27  11.3    SW   24.1   26.2   26.2  1006.5  0.00   0.0   0.000   0.020   26.9    89   25.0   30.9   114    1    100.0    5 
 9/15/05  8:40a   24.2   24.3   24.2    93   23.0   3.2     W  0.27  12.9     W   24.2   26.2   26.2  1006.5  0.00   0.0   0.000   0.020   27.0    89   25.0   31.1   114    1    100.0    5 
 9/15/05  8:45a   24.3   24.3   24.3    93   23.1   3.2     W  0.27  12.9     W   24.3   26.3   26.3  1006.5  0.00   0.0   0.000   0.021   26.9    89   25.0   30.9   114    1    100.0    5 
 9/15/05  8:50a   24.4   24.4   24.3    93   23.2   3.2   WSW  0.27   9.7     W   24.4   26.5   26.5  1006.5  0.00   0.0   0.000   0.021   27.1    89   25.1   31.2   114    1    100.0    5 
 9/15/05  8:55a   24.4   24.4   24.4    93   23.2   3.2     W  0.27   9.7     W   24.4   26.5   26.5  1006.5  0.00   0.0   0.000   0.021   27.1    89   25.1   31.3   114    1    100.0    5 
 9/15/05  9:00a   24.3   24.4   24.3    93   23.1   6.4     W  0.54  16.1   WSW   24.3   26.4   26.4  1006.4  0.00   0.0   0.000   0.021   27.2    89   25.2   31.5   114    1    100.0    5 
 9/15/05  9:05a   24.4   24.4   24.3    93   23.2   4.8   WSW  0.40  12.9   WSW   24.4   26.5   26.5  1006.4  0.00   0.0   0.000   0.021   27.1    89   25.1   31.2   114    1    100.0    5 
 9/15/05  9:10a   24.4   24.4   24.4    93   23.2   6.4     W  0.54  19.3   WSW   24.4   26.5   26.5  1006.4  0.00   0.0   0.000   0.021   27.2    89   25.2   31.5   114    1    100.0    5 
 9/15/05  9:15a   24.4   24.4   24.4    92   23.0   8.0     W  0.67  17.7   WSW   24.4   26.4   26.4  1006.4  0.00   0.0   0.000   0.021   27.2    89   25.2   31.5   114    1    100.0    5 
 9/15/05  9:20a   24.4   24.4   24.4    92   23.0   8.0     W  0.67  16.1     W   24.4   26.4   26.4  1006.4  0.00   0.0   0.000   0.021   27.1    89   25.1   31.3   113    1     99.1    5 
 9/15/05  9:25a   24.4   24.4   24.4    92   23.0   6.4     W  0.54  12.9   WSW   24.4   26.4   26.4  1006.4  0.00   0.0   0.000   0.021   27.1    89   25.1   31.3   114    1    100.0    5 
 9/15/05  9:30a   24.4   24.4   24.4    93   23.2   1.6     W  0.13   6.4   WSW   24.4   26.5   26.5  1006.4  0.00   0.0   0.000   0.021   27.2    89   25.2   31.5   114    1    100.0    5 
 9/15/05  9:35a   24.4   24.6   24.4    92   23.1   4.8     W  0.40  16.1   WSW   24.4   26.5   26.5  1006.4  0.25   0.0   0.000   0.021   27.2    90   25.4   31.7   114    1    100.0    5 
 9/15/05  9:40a   24.4   24.4   24.4    93   23.2   1.6   WSW  0.13   9.7   WSW   24.4   26.5   26.5  1006.4  0.51   5.3   0.000   0.021   27.2    90   25.4   31.8   114    1    100.0    5 
 9/15/05  9:45a   24.3   24.4   24.3    93   23.1   4.8     W  0.40  14.5     W   24.3   26.4   26.4  1006.2  0.25   3.8   0.000   0.021   27.3    90   25.5   32.1   114    1    100.0    5 
 9/15/05  9:50a   24.3   24.4   24.3    93   23.1   1.6     W  0.13   9.7   WNW   24.3   26.3   26.3  1006.2  0.25   4.1   0.000   0.021   27.4    89   25.4   32.1   114    1    100.0    5 
 9/15/05  9:55a   24.4   24.4   24.3    93   23.2   3.2     W  0.27   9.7    SW   24.4   26.5   26.5  1006.2  0.25   5.8   0.000   0.021   27.5    89   25.5   32.4   114    1    100.0    5 
 9/15/05 10:00a   24.4   24.4   24.4    93   23.2   3.2   WSW  0.27   9.7   SSW   24.4   26.5   26.5  1006.0  0.51   4.8   0.000   0.021   27.5    88   25.3   32.2   114    1    100.0    5 
 9/15/05 10:05a   24.4   24.4   24.4    93   23.2   3.2    SW  0.27   8.0    SW   24.4   26.5   26.5  1006.0  0.25   4.8   0.000   0.021   27.5    88   25.3   32.2   113    1     99.1    5 
 9/15/05 10:10a   24.3   24.4   24.3    93   23.1   3.2   WSW  0.27   8.0   WNW   24.3   26.4   26.4  1006.0  0.51   6.1   0.000   0.021   27.5    88   25.3   32.2   111    1     97.4    5 
 9/15/05 10:15a   24.3   24.3   24.2    93   23.1   3.2    SW  0.27   8.0     W   24.3   26.3   26.3  1005.9  0.25   9.7   0.000   0.021   27.5    88   25.3   32.2   113    1     99.1    5 
 9/15/05 10:20a   24.2   24.3   24.2    93   23.0   4.8    SW  0.40  11.3    SW   24.2   26.2   26.2  1005.9  0.25   3.8   0.000   0.020   27.5    88   25.3   32.2   114    1    100.0    5 
 9/15/05 10:25a   24.2   24.2   24.2    93   23.0   4.8    SW  0.40   9.7    SW   24.2   26.2   26.2  1005.9  0.25   4.8   0.000   0.020   27.5    88   25.3   32.2   114    1    100.0    5 
 9/15/05 10:30a   24.3   24.3   24.2    93   23.1   6.4   SSW  0.54  12.9    SW   24.3   26.3   26.3  1005.3  0.76  11.9   0.000   0.021   27.4    88   25.3   32.1   114    1    100.0    5 
 9/15/05 10:35a   24.3   24.3   24.3    93   23.1   4.8    SW  0.40  12.9   SSW   24.3   26.3   26.3  1005.3  1.27  22.4   0.000   0.021   27.4    88   25.2   31.9   114    1    100.0    5 
 9/15/05 10:40a   24.3   24.3   24.3    93   23.1   1.6     W  0.13   6.4     W   24.3   26.3   26.3  1005.3  1.02  21.1   0.000   0.021   27.4    88   25.2   31.9   114    1    100.0    5 
 9/15/05 10:45a   24.2   24.3   24.2    93   23.0   3.2   WSW  0.27  12.9     W   24.2   26.3   26.3  1005.6  0.00   2.5   0.000   0.020   27.3    88   25.1   31.6   114    1    100.0    5 
 9/15/05 10:50a   24.2   24.3   24.2    93   23.0   3.2   WSW  0.27   9.7     W   24.2   26.3   26.3  1005.6  1.02  14.5   0.000   0.020   27.2    88   25.1   31.4   114    1    100.0    5 
 9/15/05 10:55a   24.3   24.3   24.3    93   23.1   3.2   WSW  0.27  16.1   WSW   24.3   26.3   26.3  1005.6  1.27  15.5   0.000   0.021   27.2    88   25.0   31.3   114    1    100.0    5 
 9/15/05 11:00a   24.3   24.3   24.3    93   23.1   4.8    SW  0.40  12.9    SW   24.3   26.3   26.3  1005.3  1.27  19.1   0.000   0.021   27.2    88   25.0   31.3   114    1    100.0    5 
 9/15/05 11:05a   24.2   24.3   24.2    93   23.0   8.0   WSW  0.67  17.7   WSW   24.2   26.3   26.3  1005.3  2.03  38.4   0.000   0.020   27.1    89   25.1   31.2   114    1    100.0    5 
 9/15/05 11:10a   24.2   24.2   24.2    93   23.0   4.8   WSW  0.40  11.3   WSW   24.2   26.2   26.2  1005.3  2.79  45.0   0.000   0.020   27.1    89   25.1   31.2   114    1    100.0    5 
 9/15/05 11:15a   24.2   24.2   24.2    93   23.0   6.4   WSW  0.54  12.9    SW   24.2   26.2   26.2  1005.3  3.05  51.6   0.000   0.020   27.0    89   25.0   31.1   114    1    100.0    5 
 9/15/05 11:20a   24.0   24.1   24.0    93   22.8   8.0   WSW  0.67  17.7     W   24.0   26.0   26.0  1005.3  3.05  51.1   0.000   0.020   26.9    89   25.0   30.9   114    1    100.0    5 
 9/15/05 11:25a   23.9   24.0   23.9    93   22.7   9.7   WSW  0.80  25.7     W   23.9   25.9   25.9  1005.3  1.78  29.2   0.000   0.019   26.9    89   24.9   30.8   114    1    100.0    5 
 9/15/05 11:30a   23.8   23.9   23.7    93   22.6   9.7    SW  0.80  19.3    SW   23.8   25.7   25.7  1005.0  0.76  20.3   0.000   0.019   26.8    89   24.9   30.7   114    1    100.0    5 
 9/15/05 11:35a   23.7   23.7   23.7    93   22.5   8.0    SW  0.67  17.7   SSE   23.7   25.5   25.5  1005.0  0.76   8.1   0.000   0.019   26.7    89   24.8   30.4   114    1    100.0    5 
 9/15/05 11:40a   23.7   23.7   23.7    93   22.5  11.3    SW  0.94  25.7    SW   23.7   25.5   25.5  1005.0  0.25   6.1   0.000   0.019   26.7    88   24.5   30.2   114    1    100.0    5 
 9/15/05 11:45a   23.7   23.7   23.7    93   22.5   4.8    SW  0.40  14.5    SW   23.7   25.5   25.5  1004.6  0.25   5.3   0.000   0.019   26.6    89   24.6   30.1   114    1    100.0    5 
 9/15/05 11:50a   23.7   23.8   23.7    93   22.5   4.8   SSW  0.40  12.9   WSW   23.7   25.5   25.5  1004.6  0.25   3.0   0.000   0.019   26.6    89   24.6   30.1   114    1    100.0    5 
 9/15/05 11:55a   23.8   23.9   23.8    93   22.6   3.2    SW  0.27  12.9   SSW   23.8   25.8   25.8  1004.6  0.00   1.5   0.000   0.019   26.5    89   24.5   29.9   114    1    100.0    5 
 9/15/05 12:00p   23.9   24.0   23.9    93   22.7   3.2    SW  0.27   9.7   SSW   23.9   25.9   25.9  1004.5  0.00   1.0   0.000   0.019   26.4    89   24.5   29.8   114    1    100.0    5 
 9/15/05 12:05p   24.1   24.1   24.0    93   22.9   3.2   SSW  0.27   9.7     S   24.1   26.1   26.1  1004.5  0.25   1.0   0.000   0.020   26.4    90   24.7   30.0   114    1    100.0    5 
 9/15/05 12:10p   24.1   24.1   24.1    93   22.9   3.2    SW  0.27   9.7    SW   24.1   26.1   26.1  1004.5  0.25   2.3   0.000   0.020   26.3    90   24.6   29.7   114    1    100.0    5 
 9/15/05 12:15p   24.1   24.2   24.1    93   22.9   4.8   SSW  0.40  11.3   WSW   24.1   26.2   26.2  1004.4  0.00   2.3   0.000   0.020   26.3    90   24.6   29.7   114    1    100.0    5 
 9/15/05 12:20p   24.1   24.2   24.1    93   22.9   1.6   SSW  0.13  11.3   SSW   24.1   26.2   26.2  1004.4  0.00   1.3   0.000   0.020   26.3    91   24.7   29.9   114    1    100.0    5 
 9/15/05 12:25p   24.2   24.2   24.2    93   23.0   1.6   SSW  0.13   9.7   WSW   24.2   26.2   26.2  1004.4  0.00   1.0   0.000   0.020   26.3    91   24.7   29.8   114    1    100.0    5 
 9/15/05 12:30p   24.2   24.2   24.2    93   23.0   3.2   SSW  0.27   9.7   SSW   24.2   26.2   26.2  1004.1  0.00   0.0   0.000   0.020   26.3    91   24.7   29.8   114    1    100.0    5 
 9/15/05 12:35p   24.2   24.3   24.2    93   23.0   3.2     S  0.27  11.3    SE   24.2   26.3   26.3  1004.1  0.00   0.0   0.000   0.020   26.2    91   24.6   29.6   113    1     99.1    5 
 9/15/05 12:40p   24.3   24.4   24.3    93   23.1   3.2     S  0.27   9.7   SSW   24.3   26.3   26.3  1004.1  0.00   0.0   0.000   0.021   26.2    92   24.8   29.8   114    1    100.0    5 
 9/15/05 12:45p   24.3   24.4   24.3    93   23.1   1.6    SE  0.13   4.8     S   24.3   26.4   26.4  1003.9  0.25   0.0   0.000   0.021   26.2    92   24.8   29.8   114    1    100.0    5 
 9/15/05 12:50p   24.3   24.3   24.3    93   23.1   3.2    SW  0.27   9.7   SSW   24.3   26.3   26.3  1003.9  0.25   3.3   0.000   0.021   26.2    92   24.8   29.8   114    1    100.0    5 
 9/15/05 12:55p   24.4   24.4   24.3    93   23.2   1.6     S  0.13   8.0     S   24.4   26.5   26.5  1003.9  0.76  11.7   0.000   0.021   26.2    92   24.8   29.8   114    1    100.0    5 
 9/15/05  1:00p   24.4   24.4   24.4    94   23.4   1.6     S  0.13   9.7    SE   24.4   26.6   26.6  1004.0  0.25  11.7   0.000   0.021   26.2    92   24.8   29.8   113    1     99.1    5 
 9/15/05  1:05p   24.5   24.6   24.4    93   23.3   1.6     S  0.13   8.0   SSE   24.5   26.6   26.6  1004.0  0.00   1.8   0.000   0.021   26.2    93   25.0   29.9   114    1    100.0    5 
 9/15/05  1:10p   24.6   24.6   24.6    94   23.5   1.6     S  0.13   8.0     S   24.6   26.8   26.8  1004.0  0.76  10.9   0.000   0.022   26.2    93   25.0   29.9   114    1    100.0    5 
 9/15/05  1:15p   24.6   24.6   24.6    93   23.3   1.6   SSE  0.13   9.7     S   24.6   26.7   26.7  1004.1  0.25  10.2   0.000   0.022   26.2    93   25.0   29.9   114    1    100.0    5 
 9/15/05  1:20p   24.6   24.6   24.6    94   23.5   1.6   SSE  0.13   6.4   SSE   24.6   26.8   26.8  1004.1  1.02  43.4   0.000   0.022   26.2    93   25.0   29.9   114    1    100.0    5 
 9/15/05  1:25p   24.6   24.7   24.6    94   23.6   1.6   SSE  0.13   6.4     S   24.6   26.9   26.9  1004.1  0.76  25.1   0.000   0.022   26.2    94   25.2   30.0   114    1    100.0    5 
 9/15/05  1:30p   24.7   24.7   24.7    93   23.5   3.2     S  0.27  16.1   SSE   24.7   26.9   26.9  1003.9  0.76  10.2   0.000   0.022   26.2    94   25.2   30.0   114    1    100.0    5 
 9/15/05  1:35p   24.7   24.7   24.7    94   23.6   6.4   SSW  0.54  12.9     S   24.7   26.9   26.9  1003.9  0.76   9.7   0.000   0.022   26.2    94   25.2   30.0   114    1    100.0    5 
 9/15/05  1:40p   24.7   24.8   24.7    94   23.7   4.8   SSW  0.40  12.9   SSW   24.7   27.1   27.1  1003.9  1.02  13.5   0.000   0.022   26.2    95   25.4   30.2   114    1    100.0    5 
 9/15/05  1:45p   24.8   24.8   24.7    94   23.7   4.8     S  0.40  16.1     S   24.8   27.1   27.1  1003.8  0.76  12.4   0.000   0.022   26.2    95   25.4   30.2   114    1    100.0    5 
 9/15/05  1:50p   24.8   24.8   24.8    94   23.7   4.8   SSW  0.40  12.9     S   24.8   27.1   27.1  1003.8  0.76  11.4   0.000   0.022   26.2    95   25.4   30.2   113    1     99.1    5 
 9/15/05  1:55p   24.8   24.8   24.8    93   23.6   6.4   SSW  0.54  12.9   SSW   24.8   27.1   27.1  1003.8  0.51   8.9   0.000   0.023   26.4    95   25.5   30.6   113    1     99.1    5 
 9/15/05  2:00p   24.8   24.8   24.8    94   23.7   4.8     S  0.40   9.7   SSW   24.8   27.1   27.1  1003.6  0.76  22.6   0.000   0.022   26.4    95   25.6   30.7   114    1    100.0    5 
 9/15/05  2:05p   24.8   24.8   24.8    94   23.8   3.2     S  0.27  11.3   WSW   24.8   27.2   27.2  1003.6  0.25   6.1   0.000   0.023   26.6    95   25.7   30.9   113    1     99.1    5 
 9/15/05  2:10p   24.8   24.8   24.8    93   23.6   6.4   SSW  0.54  16.1     S   24.8   27.1   27.1  1003.6  0.25   3.6   0.000   0.023   26.7    95   25.8   31.2   114    1    100.0    5 
 9/15/05  2:15p   24.8   24.8   24.8    93   23.6   4.8     S  0.40  11.3   SSW   24.8   27.1   27.1  1003.6  0.51  13.5   0.000   0.022   26.8    94   25.7   31.3   114    1    100.0    5 
 9/15/05  2:20p   24.7   24.8   24.7    93   23.5   6.4    SW  0.54  17.7    SW   24.7   27.0   27.0  1003.6  3.05  47.5   0.000   0.022   26.8    94   25.7   31.3   113    1     99.1    5 
 9/15/05  2:25p   24.6   24.7   24.4    93   23.3   9.7   SSW  0.80  29.0   SSW   24.6   26.7   26.7  1003.6  5.08 119.9   0.000   0.022   26.9    93   25.7   31.4   113    1     99.1    5 
 9/15/05  2:30p   24.2   24.4   24.2    93   23.0   8.0     S  0.67  17.7     S   24.2   26.3   26.3  1003.8  3.56 119.9   0.000   0.020   26.8    92   25.4   31.2   108    1     94.7    5 
 9/15/05  2:35p   24.1   24.2   24.1    93   22.9   6.4     S  0.54  16.1    SW   24.1   26.2   26.2  1003.8  3.81  66.5   0.000   0.020   26.8    92   25.4   31.0   111    1     97.4    5 
 9/15/05  2:40p   24.2   24.2   24.1    94   23.1   6.4   SSW  0.54  12.9    SW   24.2   26.3   26.3  1003.8  3.56  68.3   0.000   0.020   26.8    92   25.4   31.0   106    1     93.0    5 
 9/15/05  2:45p   24.1   24.2   24.1    94   23.1   3.2     S  0.27   9.7   SSE   24.1   26.2   26.2  1003.7  2.54  96.3   0.000   0.020   26.7    92   25.3   30.7   106    1     93.0    5 
 9/15/05  2:50p   24.1   24.1   24.0    93   22.9   1.6     S  0.13   4.8   ESE   24.1   26.1   26.1  1003.7  1.02  17.3   0.000   0.020   26.7    92   25.3   30.7   114    1    100.0    5 
 9/15/05  2:55p   24.0   24.0   23.9    94   23.0   4.8     S  0.40   9.7    SE   24.0   26.1   26.1  1003.7  1.27  27.2   0.000   0.020   26.7    92   25.3   30.7   109    1     95.6    5 
 9/15/05  3:00p   23.9   23.9   23.9    94   22.9   3.2   SSE  0.27  12.9   SSE   23.9   25.9   25.9  1003.8  2.54  36.3   0.000   0.019   26.6    92   25.1   30.5    96    1     84.2    5 
 9/15/05  3:05p   23.9   24.0   23.9    94   22.9   4.8     S  0.40  12.9   SSW   23.9   25.9   25.9  1003.8  2.79  42.7   0.000   0.019   26.6    92   25.1   30.5    97    1     85.1    5 
 9/15/05  3:10p   24.0   24.0   24.0    94   23.0   4.8     S  0.40  11.3   SSE   24.0   26.1   26.1  1003.8  2.54  58.2   0.000   0.020   26.6    92   25.1   30.5   100    1     87.7    5 
 9/15/05  3:15p   24.0   24.0   24.0    94   23.0   3.2     S  0.27  11.3     S   24.0   26.1   26.1  1003.8  2.03  58.2   0.000   0.020   26.6    92   25.1   30.5    98    1     86.0    5 
 9/15/05  3:20p   24.1   24.1   24.0    94   23.0   3.2     S  0.27  12.9     S   24.1   26.1   26.1  1003.8  2.03  40.9   0.000   0.020   26.6    92   25.1   30.5   108    1     94.7    5 
 9/15/05  3:25p   24.1   24.2   24.1    94   23.0   0.0     S  0.00   4.8    SW   24.1   26.1   26.1  1003.8  1.52  40.9   0.000   0.020   26.6    92   25.2   30.6   110    1     96.5    5 
 9/15/05  3:30p   24.2   24.2   24.2    94   23.1   0.0   ESE  0.00   3.2   ESE   24.2   26.3   26.3  1003.8  0.25  13.5   0.000   0.020   26.7    92   25.3   30.7   114    1    100.0    5 
 9/15/05  3:35p   24.2   24.2   24.2    94   23.1   0.0   ESE  0.00   3.2   ESE   24.2   26.3   26.3  1003.8  0.25   7.9   0.000   0.020   26.7    93   25.4   30.9   114    1    100.0    5 
 9/15/05  3:40p   24.2   24.2   24.2    94   23.1   0.0    SE  0.00   3.2   SSE   24.2   26.3   26.3  1003.8  0.51   6.1   0.000   0.020   26.7    93   25.5   31.0   114    1    100.0    5 
 9/15/05  3:45p   24.2   24.3   24.2    94   23.2   1.6   ESE  0.13   6.4    SE   24.2   26.3   26.3  1003.9  0.51   6.1   0.000   0.020   26.8    93   25.6   31.2   114    1    100.0    5 
 9/15/05  3:50p   24.3   24.3   24.3    94   23.2   1.6   SSE  0.13   8.0   ESE   24.3   26.4   26.4  1003.9  0.00   2.8   0.000   0.021   26.8    93   25.6   31.2   114    1    100.0    5 
 9/15/05  3:55p   24.2   24.3   24.2    94   23.2   1.6   SSE  0.13   9.7   ESE   24.2   26.3   26.3  1003.9  0.51   5.3   0.000   0.020   26.9    93   25.7   31.4   113    1     99.1    5 
 9/15/05  4:00p   24.1   24.2   24.1    94   23.1   0.0    SE  0.00   4.8    SE   24.1   26.2   26.2  1003.9  0.51   7.6   0.000   0.020   26.9    92   25.5   31.3   113    1     99.1    5 
 9/15/05  4:05p   24.1   24.2   24.1    94   23.0   0.0   SSE  0.00   3.2     S   24.1   26.1   26.1  1003.9  0.51   7.6   0.000   0.020   26.9    92   25.5   31.3   114    1    100.0    5 
 9/15/05  4:10p   24.2   24.2   24.2    94   23.1   0.0   SSE  0.00   8.0   SSE   24.2   26.3   26.3  1003.9  0.25   7.9   0.000   0.020   26.9    92   25.5   31.3   113    1     99.1    5 
 9/15/05  4:15p   24.2   24.2   24.2    94   23.1   1.6    SE  0.13  11.3     S   24.2   26.3   26.3  1004.2  0.51   9.1   0.000   0.020   26.9    92   25.5   31.3   112    1     98.2    5 
 9/15/05  4:20p   24.2   24.3   24.2    94   23.2   3.2   SSE  0.27  11.3   SSW   24.2   26.3   26.3  1004.2  1.02  26.7   0.000   0.020   26.9    92   25.5   31.3   111    1     97.4    5 
 9/15/05  4:25p   24.2   24.3   24.2    94   23.2   3.2    SE  0.27  11.3    SE   24.2   26.3   26.3  1004.2  0.51  14.7   0.000   0.020   26.9    92   25.5   31.3   114    1    100.0    5 
 9/15/05  4:30p   24.1   24.2   24.1    94   23.1   4.8   SSE  0.40  12.9   SSE   24.1   26.2   26.2  1004.4  1.52  33.5   0.000   0.020   26.9    92   25.5   31.3   104    1     91.2    5 
 9/15/05  4:35p   24.1   24.1   24.1    94   23.0   3.2     S  0.27  11.3   SSW   24.1   26.1   26.1  1004.4  2.03  44.7   0.000   0.020   26.9    92   25.5   31.3   102    1     89.5    5 
 9/15/05  4:40p   24.2   24.2   24.1    94   23.1   1.6     E  0.13  11.3   ESE   24.2   26.3   26.3  1004.4  1.78  67.1   0.000   0.020   26.9    92   25.5   31.3   102    1     89.5    5 
 9/15/05  4:45p   24.1   24.2   24.0    94   23.0   4.8   ESE  0.40  17.7   ESE   24.1   26.1   26.1  1004.3  1.27  23.4   0.000   0.020   26.9    92   25.5   31.3   101    1     88.6    5 
 9/15/05  4:50p   24.0   24.0   23.9    94   23.0   4.8   SSE  0.40  12.9   ENE   24.0   26.1   26.1  1004.3  1.27  31.0   0.000   0.020   26.9    91   25.3   31.1   100    1     87.7    5 
 9/15/05  4:55p   23.9   23.9   23.9    94   22.9   4.8   SSE  0.40  12.9   SSE   23.9   25.9   25.9  1004.3  2.29  42.9   0.000   0.019   26.9    91   25.3   31.1   103    1     90.4    5 
 9/15/05  5:00p   23.9   23.9   23.9    94   22.9   3.2   ESE  0.27  11.3   ENE   23.9   25.9   25.9  1004.6  2.03  49.0   0.000   0.019   26.8    91   25.2   31.0    97    1     85.1    5 
 9/15/05  5:05p   23.8   23.9   23.8    94   22.8   4.8   ESE  0.40  16.1   ESE   23.8   25.8   25.8  1004.6  1.52  35.8   0.000   0.019   26.8    91   25.2   30.8   109    1     95.6    5 
 9/15/05  5:10p   23.8   23.8   23.8    94   22.8   3.2   SSE  0.27  11.3     E   23.8   25.7   25.7  1004.6  1.78  38.9   0.000   0.019   26.8    91   25.2   31.0    85    1     74.6    5 
 9/15/05  5:15p   23.8   23.8   23.7    94   22.8   4.8   ESE  0.40  17.7   ESE   23.8   25.7   25.7  1004.6  1.27  24.6   0.000   0.019   26.8    91   25.2   30.8   101    1     88.6    5 
 9/15/05  5:20p   23.7   23.7   23.7    94   22.6   3.2   SSE  0.27  12.9   ENE   23.7   25.5   25.5  1004.6  1.27  26.7   0.000   0.019   26.8    90   25.0   30.7    99    1     86.8    5 
 9/15/05  5:25p   23.6   23.7   23.6    94   22.6   3.2   ESE  0.27  11.3   ESE   23.6   25.4   25.4  1004.6  0.76  14.7   0.000   0.018   26.8    90   25.0   30.7    87    1     76.3    5 
 9/15/05  5:30p   23.6   23.6   23.6    94   22.6   3.2   ESE  0.27   9.7    SW   23.6   25.4   25.4  1004.8  0.51   8.9   0.000   0.018   26.8    90   25.0   30.7   100    1     87.7    5 
 9/15/05  5:35p   23.6   23.6   23.6    94   22.6   4.8   SSE  0.40  16.1    SE   23.6   25.4   25.4  1004.8  0.51  15.2   0.000   0.018   26.7    90   24.9   30.4    94    1     82.5    5 
 9/15/05  5:40p   23.5   23.6   23.5    94   22.5   6.4   SSE  0.54  24.1   ESE   23.5   25.2   25.2  1004.8  0.76  18.0   0.000   0.018   26.7    90   24.9   30.4   106    1     93.0    5 
 9/15/05  5:45p   23.5   23.5   23.5    94   22.5   4.8    SE  0.40  12.9    SE   23.5   25.2   25.2  1004.8  0.76   9.7   0.000   0.018   26.7    90   24.9   30.4   105    1     92.1    5 
 9/15/05  5:50p   23.5   23.5   23.5    94   22.5   8.0   ESE  0.67  17.7   ESE   23.5   25.2   25.2  1004.8  0.51  10.2   0.000   0.018   26.6    90   24.8   30.2   102    1     89.5    5 
 9/15/05  5:55p   23.5   23.5   23.5    94   22.5   4.8   ESE  0.40  12.9    SE   23.5   25.2   25.2  1004.8  1.02  16.8   0.000   0.018   26.6    90   24.8   30.2    99    1     86.8    5 
 9/15/05  6:00p   23.5   23.5   23.5    94   22.5   3.2   SSE  0.27  11.3    NE   23.5   25.2   25.2  1004.9  0.51  16.8   0.000   0.018   26.4    90   24.7   30.0   109    1     95.6    5 
 9/15/05  6:05p   23.5   23.5   23.5    94   22.5   4.8    SE  0.40  11.3   ESE   23.5   25.2   25.2  1004.9  0.51   9.4   0.000   0.018   26.4    90   24.7   30.0   106    1     93.0    5 
 9/15/05  6:10p   23.5   23.5   23.5    94   22.5   6.4   SSE  0.54  20.9    SE   23.5   25.2   25.2  1004.9  0.51  14.5   0.000   0.018   26.4    90   24.7   30.0   105    1     92.1    5 
 9/15/05  6:15p   23.5   23.5   23.5    94   22.5   6.4    SE  0.54  17.7   SSE   23.5   25.2   25.2  1005.1  0.51   6.3   0.000   0.018   26.4    90   24.6   29.9   107    1     93.9    5 
 9/15/05  6:20p   23.6   23.6   23.5    94   22.5   8.0     E  0.67  22.5    SE   23.6   25.3   25.3  1005.1  0.25   6.3   0.000   0.018   26.3    90   24.6   29.7   103    1     90.4    5 
 9/15/05  6:25p   23.6   23.6   23.6    94   22.6   6.4   ESE  0.54  17.7    SE   23.6   25.4   25.4  1005.1  0.25   5.6   0.000   0.018   26.4    90   24.6   29.9    88    1     77.2    5 
 9/15/05  6:30p   23.6   23.6   23.5    94   22.5   8.0   SSE  0.67  19.3     E   23.6   25.3   25.3  1005.3  0.51   6.6   0.000   0.018   26.3    90   24.6   29.7   102    1     89.5    5 
 9/15/05  6:35p   23.5   23.6   23.5    94   22.5   4.8   SSE  0.40  17.7     S   23.5   25.2   25.2  1005.3  0.25   6.6   0.000   0.018   26.3    90   24.6   29.7    95    1     83.3    5 
 9/15/05  6:40p   23.6   23.6   23.5    94   22.6   6.4   SSE  0.54  16.1   SSE   23.6   25.4   25.4  1005.3  0.25   5.8   0.000   0.018   26.3    90   24.6   29.7    96    1     84.2    5 
 9/15/05  6:45p   23.6   23.6   23.5    94   22.5   8.0    SE  0.67  20.9   ENE   23.6   25.3   25.3  1005.5  0.51   5.1   0.000   0.018   26.3    90   24.6   29.7    98    1     86.0    5 
 9/15/05  6:50p   23.6   23.6   23.6    94   22.6   4.8   SSE  0.40  12.9   SSW   23.6   25.4   25.4  1005.5  0.25   5.1   0.000   0.018   26.2    91   24.6   29.6    93    1     81.6    5 
 9/15/05  6:55p   23.6   23.6   23.6    94   22.6   6.4    SE  0.54  17.7     E   23.6   25.4   25.4  1005.5  0.25   5.1   0.000   0.018   26.3    91   24.7   29.8   101    1     88.6    5 
 9/15/05  7:00p   23.6   23.6   23.6    94   22.6   4.8   SSE  0.40  12.9   SSW   23.6   25.4   25.4  1005.7  0.25   5.1   0.000   0.018   26.2    91   24.6   29.6   100    1     87.7    5 
 9/15/05  7:05p   23.6   23.6   23.6    94   22.6   4.8    SE  0.40  12.9     S   23.6   25.4   25.4  1005.7  0.25   4.6   0.000   0.018   26.2    91   24.6   29.6   104    1     91.2    5 
 9/15/05  7:10p   23.6   23.7   23.6    93   22.4   3.2    SE  0.27  12.9   SSE   23.6   25.4   25.4  1005.7  0.25   4.6   0.000   0.018   26.2    91   24.6   29.6    83    1     72.8    5 
 9/15/05  7:15p   23.7   23.7   23.7    93   22.5   3.2    SE  0.27   8.0   SSE   23.7   25.5   25.5  1005.9  0.25   5.8   0.000   0.019   26.2    91   24.6   29.6   107    1     93.9    5 
 9/15/05  7:20p   23.7   23.7   23.7    93   22.5   4.8   ESE  0.40  12.9   ESE   23.7   25.5   25.5  1005.9  0.51   4.6   0.000   0.019   26.2    91   24.6   29.6   100    1     87.7    5 
 9/15/05  7:25p   23.7   23.7   23.7    93   22.5   3.2    SE  0.27  11.3     S   23.7   25.5   25.5  1005.9  0.00   2.8   0.000   0.019   26.2    91   24.6   29.6   111    1     97.4    5 
 9/15/05  7:30p   23.7   23.7   23.7    93   22.5   3.2     E  0.27  11.3    SE   23.7   25.5   25.5  1006.0  0.51   6.1   0.000   0.019   26.2    91   24.6   29.6   110    1     96.5    5 
 9/15/05  7:35p   23.7   23.7   23.7    93   22.5   1.6    SE  0.13   4.8    SE   23.7   25.5   25.5  1006.0  0.51   7.9   0.000   0.019   26.2    92   24.8   29.8   112    1     98.2    5 
 9/15/05  7:40p   23.7   23.7   23.7    93   22.5   1.6   SSE  0.13   9.7    SE   23.7   25.5   25.5  1006.0  0.00   2.8   0.000   0.019   26.2    91   24.6   29.6   111    1     97.4    5 
 9/15/05  7:45p   23.7   23.7   23.7    93   22.5   1.6    SE  0.13   8.0   SSE   23.7   25.5   25.5  1006.2  0.25   4.8   0.000   0.019   26.2    92   24.8   29.8   112    1     98.2    5 
 9/15/05  7:50p   23.7   23.7   23.7    93   22.5   1.6    SE  0.13   9.7     S   23.7   25.5   25.5  1006.2  0.51   8.1   0.000   0.019   26.2    92   24.8   29.8   111    1     97.4    5 
 9/15/05  7:55p   23.7   23.7   23.7    93   22.5   1.6   SSE  0.13   8.0    SE   23.7   25.5   25.5  1006.2  0.51  12.4   0.000   0.019   26.3    91   24.7   29.9   111    1     97.4    5 
 9/15/05  8:00p   23.7   23.7   23.7    93   22.5   1.6   SSE  0.13   8.0   ESE   23.7   25.5   25.5  1006.5  1.52  34.5   0.000   0.019   26.3    92   24.9   30.0   112    1     98.2    5 
 9/15/05  8:05p   23.7   23.7   23.7    93   22.5   1.6    SE  0.13   4.8   SSE   23.7   25.5   25.5  1006.5  1.52  37.6   0.000   0.019   26.3    92   24.9   30.0   113    1     99.1    5 
 9/15/05  8:10p   23.7   23.7   23.7    93   22.5   3.2   SSW  0.27   9.7   SSE   23.7   25.5   25.5  1006.5  2.29  51.8   0.000   0.019   26.3    92   24.9   30.0    93    1     81.6    5 
 9/15/05  8:15p   23.7   23.8   23.7    93   22.5   3.2   SSE  0.27   8.0    SW   23.7   25.6   25.6  1006.7  1.02  27.2   0.000   0.019   26.3    92   24.9   30.0   100    1     87.7    5 
 9/15/05  8:20p   23.8   23.8   23.8    93   22.6   4.8   SSE  0.40  16.1     S   23.8   25.7   25.7  1006.7  0.25   7.9   0.000   0.019   26.3    92   24.9   30.0   112    1     98.2    5 
 9/15/05  8:25p   23.8   23.8   23.8    93   22.6   6.4   SSE  0.54  20.9    SE   23.8   25.7   25.7  1006.7  0.51   9.4   0.000   0.019   26.3    92   24.9   30.0   104    1     91.2    5 
 9/15/05  8:30p   23.8   23.9   23.8    93   22.6   4.8     S  0.40   9.7   SSE   23.8   25.8   25.8  1007.0  1.52  33.0   0.000   0.019   26.3    92   24.9   30.0    92    1     80.7    5 
 9/15/05  8:35p   23.9   23.9   23.9    93   22.7   3.2    SE  0.27  12.9    SE   23.9   25.9   25.9  1007.0  1.02  26.4   0.000   0.019   26.3    92   24.9   30.0   105    1     92.1    5 
 9/15/05  8:40p   23.9   23.9   23.9    93   22.7   3.2   SSE  0.27   9.7    SE   23.9   25.9   25.9  1007.0  0.51  15.0   0.000   0.019   26.3    92   24.9   30.0   105    1     92.1    5 
 9/15/05  8:45p   23.9   23.9   23.9    93   22.7   1.6     S  0.13   9.7   SSE   23.9   25.9   25.9  1007.3  0.51  12.4   0.000   0.019   26.3    92   24.9   30.0   113    1     99.1    5 
 9/15/05  8:50p   23.9   23.9   23.9    93   22.7   1.6    SE  0.13   4.8     S   23.9   25.9   25.9  1007.3  0.25   4.3   0.000   0.019   26.3    92   24.9   30.0   112    1     98.2    5 
 9/15/05  8:55p   23.9   23.9   23.9    93   22.7   1.6    SE  0.13  11.3    SE   23.9   25.9   25.9  1007.3  0.25   4.6   0.000   0.019   26.4    92   25.0   30.2   110    1     96.5    5 
 9/15/05  9:00p   23.9   23.9   23.9    93   22.7   4.8   SSE  0.40  20.9   ESE   23.9   25.9   25.9  1007.4  3.05  72.4   0.000   0.019   26.4    92   25.0   30.2   109    1     95.6    5 
 9/15/05  9:05p   23.8   23.9   23.8    93   22.6   4.8     S  0.40  19.3   SSE   23.8   25.8   25.8  1007.4  1.02  26.2   0.000   0.019   26.4    92   25.0   30.2   103    1     90.4    5 
 9/15/05  9:10p   23.8   23.8   23.8    93   22.6   3.2   SSE  0.27  11.3    SE   23.8   25.7   25.7  1007.4  0.76  19.6   0.000   0.019   26.4    92   25.0   30.2    99    1     86.8    5 
 9/15/05  9:15p   23.8   23.8   23.8    93   22.6   3.2     S  0.27   9.7   SSW   23.8   25.7   25.7  1007.7  0.25   6.9   0.000   0.019   26.4    92   25.0   30.2   113    1     99.1    5 
 9/15/05  9:20p   23.8   23.8   23.8    93   22.6   3.2   SSW  0.27  12.9   SSW   23.8   25.7   25.7  1007.7  0.00   2.0   0.000   0.019   26.4    92   25.0   30.2   114    1    100.0    5 
 9/15/05  9:25p   23.8   23.8   23.8    93   22.6   3.2    SE  0.27  11.3    SE   23.8   25.7   25.7  1007.7  0.25   2.0   0.000   0.019   26.4    92   25.0   30.2   114    1    100.0    5 
 9/15/05  9:30p   23.8   23.8   23.8    93   22.6   3.2   SSE  0.27  11.3    SE   23.8   25.7   25.7  1007.9  0.25   3.8   0.000   0.019   26.4    92   25.0   30.2   114    1    100.0    5 
 9/15/05  9:35p   23.8   23.8   23.8    93   22.6   1.6   SSE  0.13   9.7   SSE   23.8   25.7   25.7  1007.9  0.25   3.8   0.000   0.019   26.4    92   25.0   30.2   113    1     99.1    5 
 9/15/05  9:40p   23.8   23.8   23.8    93   22.6   1.6   SSE  0.13   8.0    SE   23.8   25.7   25.7  1007.9  0.25   3.0   0.000   0.019   26.4    92   25.0   30.2   112    1     98.2    5 
 9/15/05  9:45p   23.8   23.8   23.8    93   22.6   1.6    SE  0.13   8.0    SE   23.8   25.7   25.7  1007.9  0.00   2.8   0.000   0.019   26.4    92   25.0   30.2   114    1    100.0    5 
 9/15/05  9:50p   23.8   23.8   23.8    93   22.6   3.2   SSE  0.27   9.7    SE   23.8   25.7   25.7  1007.9  0.51   6.9   0.000   0.019   26.4    92   25.0   30.2   112    1     98.2    5 
 9/15/05  9:55p   23.8   23.8   23.8    93   22.6   1.6    SE  0.13   8.0   SSW   23.8   25.7   25.7  1007.9  0.51   8.4   0.000   0.019   26.4    92   25.0   30.2   110    1     96.5    5 
 9/15/05 10:00p   23.8   23.8   23.8    93   22.6   1.6   SSE  0.13   9.7     S   23.8   25.7   25.7  1007.9  0.51   9.9   0.000   0.019   26.4    92   25.0   30.2   113    1     99.1    5 
 9/15/05 10:05p   23.8   23.8   23.8    93   22.6   1.6   SSE  0.13   9.7    SE   23.8   25.7   25.7  1007.9  0.51  11.9   0.000   0.019   26.4    92   25.0   30.2   112    1     98.2    5 
 9/15/05 10:10p   23.8   23.8   23.8    93   22.6   3.2   SSE  0.27   9.7   SSE   23.8   25.7   25.7  1007.9  0.51   9.7   0.000   0.019   26.6    92   25.1   30.5   106    1     93.0    5 
 9/15/05 10:15p   23.8   23.8   23.8    93   22.6   4.8   SSE  0.40  16.1    SE   23.8   25.7   25.7  1008.0  0.25   7.4   0.000   0.019   26.6    92   25.1   30.5   110    1     96.5    5 
 9/15/05 10:20p   23.7   23.8   23.6    93   22.5   6.4   SSE  0.54  19.3   SSE   23.7   25.5   25.5  1008.0  0.25   3.6   0.000   0.019   26.5    91   24.9   30.2   114    1    100.0    5 
 9/15/05 10:25p   23.6   23.6   23.6    93   22.4   1.6     S  0.13   8.0   SSE   23.6   25.4   25.4  1008.0  0.25   3.3   0.000   0.018   26.5    91   24.9   30.2   114    1    100.0    5 
 9/15/05 10:30p   23.6   23.6   23.6    93   22.4   1.6   SSE  0.13  11.3   SSE   23.6   25.4   25.4  1008.0  0.00   2.0   0.000   0.018   26.4    91   24.9   30.1   114    1    100.0    5 
 9/15/05 10:35p   23.6   23.6   23.5    93   22.4   1.6     S  0.13  11.3    SE   23.6   25.3   25.3  1008.0  0.25   2.3   0.000   0.018   26.4    91   24.9   30.1   112    1     98.2    5 
 9/15/05 10:40p   23.5   23.5   23.5    93   22.3   3.2   SSE  0.27  16.1    SE   23.5   25.2   25.2  1008.0  0.00   1.8   0.000   0.018   26.4    90   24.7   30.0   114    1    100.0    5 
 9/15/05 10:45p   23.4   23.5   23.4    93   22.2   1.6   SSE  0.13   4.8     E   23.4   25.1   25.1  1008.0  0.25   1.8   0.000   0.018   26.4    90   24.7   30.0   114    1    100.0    5 
 9/15/05 10:50p   23.4   23.4   23.4    93   22.2   1.6     S  0.13   8.0    SE   23.4   24.9   24.9  1008.0  0.25   2.3   0.000   0.018   26.4    90   24.7   30.0   114    1    100.0    5 
 9/15/05 10:55p   23.3   23.4   23.3    93   22.1   1.6     S  0.13   9.7   SSE   23.3   24.9   24.9  1008.0  0.25   3.3   0.000   0.017   26.4    90   24.7   30.0   113    1     99.1    5 
 9/15/05 11:00p   23.3   23.3   23.3    93   22.1   1.6   SSE  0.13   8.0    SE   23.3   24.8   24.8  1008.0  0.25   3.8   0.000   0.017   26.4    90   24.7   30.0   113    1     99.1    5 
 9/15/05 11:05p   23.3   23.3   23.3    93   22.1   0.0   SSE  0.00   3.2    SE   23.3   24.8   24.8  1008.0  0.51   5.1   0.000   0.017   26.3    90   24.6   29.7   114    1    100.0    5 
 9/15/05 11:10p   23.3   23.3   23.3    93   22.1   1.6   SSE  0.13   4.8    SE   23.3   24.8   24.8  1008.0  0.25   5.1   0.000   0.017   26.4    90   24.7   30.0   113    1     99.1    5 
 9/15/05 11:15p   23.3   23.3   23.3    93   22.1   1.6   SSE  0.13   8.0   SSW   23.3   24.8   24.8  1008.0  0.25   3.8   0.000   0.017   26.4    90   24.7   30.0   114    1    100.0    5 
 9/15/05 11:20p   23.4   23.4   23.3    93   22.2   1.6   ESE  0.13   8.0   SSE   23.4   24.9   24.9  1008.0  0.51   5.3   0.000   0.018   26.4    90   24.7   30.0   114    1    100.0    5 
 9/15/05 11:25p   23.4   23.5   23.4    93   22.2   1.6    SE  0.13  11.3     S   23.4   25.1   25.1  1008.0  0.00   2.5   0.000   0.018   26.4    90   24.7   30.0   114    1    100.0    5 
 9/15/05 11:30p   23.5   23.5   23.5    93   22.3   1.6    SE  0.13   8.0    SE   23.5   25.2   25.2  1008.0  0.51   4.8   0.000   0.018   26.4    90   24.7   30.0   112    1     98.2    5 
 9/15/05 11:35p   23.5   23.5   23.5    93   22.3   1.6   SSE  0.13   4.8   SSW   23.5   25.2   25.2  1008.0  1.02  17.0   0.000   0.018   26.4    90   24.7   30.0   103    1     90.4    5 
 9/15/05 11:40p   23.5   23.5   23.5    93   22.3   1.6   SSE  0.13   6.4   SSE   23.5   25.2   25.2  1008.0  0.76  15.2   0.000   0.018   26.5    90   24.7   30.1   106    1     93.0    5 
 9/15/05 11:45p   23.5   23.5   23.5    93   22.3   1.6     S  0.13   6.4   ESE   23.5   25.2   25.2  1008.0  0.25   6.9   0.000   0.018   26.5    90   24.7   30.1   111    1     97.4    5 
 9/15/05 11:50p   23.5   23.5   23.5    93   22.3   3.2     S  0.27   9.7     S   23.5   25.2   25.2  1008.0  0.25   4.6   0.000   0.018   26.6    90   24.8   30.2   112    1     98.2    5 
 9/15/05 11:55p   23.5   23.5   23.5    93   22.3   1.6   SSE  0.13   6.4     S   23.5   25.2   25.2  1008.0  0.25   3.3   0.000   0.018   26.6    90   24.8   30.3   113    1     99.1    5 
 9/16/05 12:00a   23.4   23.5   23.3    93   22.2   3.2   SSE  0.27   9.7     S   23.4   24.9   24.9  1008.0  0.51   4.6   0.000   0.018   26.6    90   24.8   30.2   112    1     98.2    5 
 9/16/05 12:05a   23.2   23.3   23.2    93   22.0   1.6    SE  0.13  11.3    SE   23.2   24.7   24.7  1008.0  0.00   2.3   0.000   0.017   26.6    89   24.6   30.1   113    1     99.1    5 
 9/16/05 12:10a   23.2   23.2   23.2    93   22.0   1.6   SSE  0.13   9.7     S   23.2   24.7   24.7  1008.0  0.25   3.6   0.000   0.017   26.5    89   24.5   29.9   104    1     91.2    5 
 9/16/05 12:15a   23.2   23.2   23.1    93   22.0   1.6   ESE  0.13   8.0   ESE   23.2   24.7   24.7  1007.8  0.25   3.6   0.000   0.017   26.4    89   24.5   29.8   113    1     99.1    5 
 9/16/05 12:20a   23.2   23.3   23.2    93   22.0   3.2   ESE  0.27  11.3    SE   23.2   24.7   24.7  1007.8  0.25   3.0   0.000   0.017   26.4    89   24.5   29.8   111    1     97.4    5 
 9/16/05 12:25a   23.3   23.3   23.3    93   22.1   1.6   ESE  0.13   8.0   ESE   23.3   24.8   24.8  1007.8  0.25   2.8   0.000   0.017   26.4    89   24.5   29.8   114    1    100.0    5 
 9/16/05 12:30a   23.3   23.3   23.3    93   22.1   1.6    SE  0.13   4.8    SE   23.3   24.8   24.8  1007.5  0.00   2.0   0.000   0.017   26.5    89   24.5   29.9   114    1    100.0    5 
 9/16/05 12:35a   23.3   23.3   23.3    93   22.1   1.6   ESE  0.13   8.0     E   23.3   24.8   24.8  1007.5  0.00   1.3   0.000   0.017   26.4    89   24.5   29.8   114    1    100.0    5 
 9/16/05 12:40a   23.3   23.3   23.3    93   22.1   1.6   SSE  0.13   8.0    SE   23.3   24.8   24.8  1007.5  0.00   0.0   0.000   0.017   26.5    89   24.5   29.9   114    1    100.0    5 
 9/16/05 12:45a   23.3   23.3   23.3    93   22.1   1.6   SSE  0.13   6.4     S   23.3   24.8   24.8  1007.5  0.25   0.0   0.000   0.017   26.4    89   24.5   29.8   114    1    100.0    5 
 9/16/05 12:50a   23.3   23.3   23.3    93   22.1   1.6   SSE  0.13   4.8     S   23.3   24.8   24.8  1007.5  0.25   3.3   0.000   0.017   26.5    89   24.5   29.9   113    1     99.1    5 
 9/16/05 12:55a   23.3   23.3   23.3    93   22.1   1.6   SSE  0.13   4.8   ESE   23.3   24.8   24.8  1007.5  0.51   7.6   0.000   0.017   26.4    89   24.5   29.8   111    1     97.4    5 
 9/16/05  1:00a   23.3   23.3   23.3    93   22.1   1.6    SE  0.13   4.8    SE   23.3   24.8   24.8  1007.4  0.25   6.3   0.000   0.017   26.3    89   24.4   29.6   114    1    100.0    5 
 9/16/05  1:05a   23.3   23.3   23.3    93   22.1   1.6    SE  0.13   4.8    SE   23.3   24.8   24.8  1007.4  0.25   3.3   0.000   0.017   26.2    89   24.3   29.4   114    1    100.0    5 
 9/16/05  1:10a   23.3   23.3   23.3    93   22.1   1.6   ESE  0.13   8.0   ESE   23.3   24.8   24.8  1007.4  0.00   2.3   0.000   0.017   26.2    89   24.2   29.3   114    1    100.0    5 
 9/16/05  1:15a   23.3   23.4   23.3    93   22.1   0.0   ESE  0.00   4.8     E   23.3   24.9   24.9  1007.3  0.25   2.3   0.000   0.017   26.2    90   24.4   29.4   114    1    100.0    5 
 9/16/05  1:20a   23.4   23.4   23.4    93   22.2   0.0    SE  0.00   3.2   SSW   23.4   24.9   24.9  1007.3  0.25   9.7   0.000   0.018   26.1    90   24.3   29.2   113    1     99.1    5 
 9/16/05  1:25a   23.4   23.4   23.4    93   22.2   0.0   ESE  0.00   3.2   SSE   23.4   24.9   24.9  1007.3  1.02  19.8   0.000   0.018   26.1    90   24.3   29.2   109    1     95.6    5 
 9/16/05  1:30a   23.4   23.4   23.4    93   22.2   0.0     S  0.00   4.8     S   23.4   24.9   24.9  1007.3  0.25  12.4   0.000   0.018   25.9    90   24.2   28.9   106    1     93.0    5 
 9/16/05  1:35a   23.4   23.4   23.4    93   22.2   0.0    SE  0.00   4.8   ESE   23.4   24.9   24.9  1007.3  1.52  33.8   0.000   0.018   25.9    90   24.1   28.8   102    1     89.5    5 
 9/16/05  1:40a   23.4   23.4   23.4    93   22.2   1.6    SE  0.13   3.2    SE   23.4   24.9   24.9  1007.3  0.76  11.9   0.000   0.018   25.8    91   24.3   28.8   111    1     97.4    5 
 9/16/05  1:45a   23.4   23.4   23.4    94   22.4   0.0   ESE  0.00   3.2   ESE   23.4   25.1   25.1  1007.0  0.00   2.8   0.000   0.018   25.8    91   24.3   28.8   114    1    100.0    5 
 9/16/05  1:50a   23.4   23.4   23.4    94   22.4   1.6   ESE  0.13   4.8   SSE   23.4   25.1   25.1  1007.0  0.00   1.5   0.000   0.018   25.8    91   24.2   28.7   114    1    100.0    5 
 9/16/05  1:55a   23.4   23.4   23.4    94   22.4   1.6   ESE  0.13   9.7    SE   23.4   25.1   25.1  1007.0  0.00   1.0   0.000   0.018   25.8    91   24.2   28.7   114    1    100.0    5 
 9/16/05  2:00a   23.4   23.4   23.4    94   22.4   1.6   ESE  0.13   6.4     S   23.4   25.1   25.1  1007.0  0.25   1.0   0.000   0.018   25.7    92   24.3   28.7   113    1     99.1    5 
 9/16/05  2:05a   23.4   23.4   23.4    94   22.4   1.6   SSE  0.13   4.8    SE   23.4   25.1   25.1  1007.0  0.00   0.0   0.000   0.018   25.7    92   24.3   28.6   114    1    100.0    5 
 9/16/05  2:10a   23.4   23.4   23.4    94   22.4   1.6   SSE  0.13   8.0    SE   23.4   25.1   25.1  1007.0  0.00   0.0   0.000   0.018   25.7    92   24.3   28.6   114    1    100.0    5 
 9/16/05  2:15a   23.4   23.5   23.4    94   22.4   1.6   ESE  0.13   6.4    SE   23.4   25.1   25.1  1006.9  0.00   0.0   0.000   0.018   25.6    92   24.2   28.4   113    1     99.1    5 
 9/16/05  2:20a   23.4   23.5   23.4    94   22.4   1.6    SE  0.13   6.4   SSW   23.4   25.1   25.1  1006.9  0.00   0.0   0.000   0.018   25.6    92   24.2   28.4   114    1    100.0    5 
 9/16/05  2:25a   23.4   23.4   23.4    94   22.4   1.6   SSE  0.13   9.7   SSE   23.4   25.1   25.1  1006.9  0.00   0.0   0.000   0.018   25.6    92   24.2   28.4   114    1    100.0    5 
 9/16/05  2:30a   23.4   23.4   23.4    94   22.4   1.6   ESE  0.13   4.8   ESE   23.4   25.1   25.1  1006.9  0.00   0.0   0.000   0.018   25.6    92   24.2   28.3   114    1    100.0    5 
 9/16/05  2:35a   23.4   23.4   23.4    93   22.2   1.6   ESE  0.13  11.3     S   23.4   24.9   24.9  1006.9  0.00   0.0   0.000   0.018   25.5    92   24.1   28.3   114    1    100.0    5 
 9/16/05  2:40a   23.4   23.4   23.4    93   22.2   3.2    SE  0.27   8.0     E   23.4   24.9   24.9  1006.9  0.25   0.0   0.000   0.018   25.5    92   24.1   28.3   114    1    100.0    5 
 9/16/05  2:45a   23.4   23.4   23.4    93   22.2   1.6    SE  0.13   8.0    SE   23.4   24.9   24.9  1006.7  0.00   0.0   0.000   0.018   25.5    92   24.1   28.3   114    1    100.0    5 
 9/16/05  2:50a   23.4   23.4   23.4    93   22.2   3.2   SSE  0.27  11.3   ESE   23.4   24.9   24.9  1006.7  0.00   0.0   0.000   0.018   25.5    93   24.3   28.3   114    1    100.0    5 
 9/16/05  2:55a   23.4   23.4   23.4    93   22.2   1.6   ESE  0.13   9.7   ESE   23.4   24.9   24.9  1006.7  0.00   0.0   0.000   0.018   25.5    93   24.3   28.3   114    1    100.0    5 
 9/16/05  3:00a   23.4   23.4   23.4    93   22.2   1.6    SE  0.13   6.4    SE   23.4   24.9   24.9  1006.7  0.00   0.0   0.000   0.018   25.4    93   24.2   28.2   113    1     99.1    5 
 9/16/05  3:05a   23.4   23.4   23.4    93   22.2   1.6    SE  0.13   9.7   SSE   23.4   24.9   24.9  1006.7  0.00   0.0   0.000   0.018   25.4    93   24.2   28.2   113    1     99.1    5 
 9/16/05  3:10a   23.4   23.4   23.4    93   22.2   1.6   SSE  0.13   8.0   ESE   23.4   24.9   24.9  1006.7  0.00   0.0   0.000   0.018   25.4    93   24.2   28.2   114    1    100.0    5 
 9/16/05  3:15a   23.4   23.4   23.3    93   22.2   3.2   SSE  0.27   9.7    SE   23.4   24.9   24.9  1006.7  0.25   0.0   0.000   0.018   25.4    93   24.2   28.2   114    1    100.0    5 
 9/16/05  3:20a   23.3   23.3   23.3    93   22.1   1.6   SSE  0.13   9.7   ESE   23.3   24.8   24.8  1006.7  0.00   0.0   0.000   0.017   25.4    93   24.2   28.2   114    1    100.0    5 
 9/16/05  3:25a   23.3   23.3   23.3    93   22.1   1.6   SSE  0.13   9.7   ESE   23.3   24.8   24.8  1006.7  0.00   0.0   0.000   0.017   25.4    93   24.2   28.2   114    1    100.0    5 
 9/16/05  3:30a   23.3   23.3   23.3    93   22.1   3.2    SE  0.27  11.3   SSE   23.3   24.8   24.8  1006.5  0.00   0.0   0.000   0.017   25.4    93   24.2   28.2   114    1    100.0    5 
 9/16/05  3:35a   23.3   23.3   23.3    93   22.1   1.6   SSE  0.13   8.0     E   23.3   24.8   24.8  1006.5  0.00   0.0   0.000   0.017   25.4    93   24.2   28.2   114    1    100.0    5 
 9/16/05  3:40a   23.3   23.3   23.3    93   22.1   1.6   ESE  0.13  11.3    SE   23.3   24.8   24.8  1006.5  0.00   0.0   0.000   0.017   25.4    92   24.0   28.2   114    1    100.0    5 
 9/16/05  3:45a   23.3   23.3   23.3    93   22.1   1.6   ESE  0.13   8.0   ESE   23.3   24.8   24.8  1006.3  0.00   0.0   0.000   0.017   25.4    92   24.0   28.1   114    1    100.0    5 
 9/16/05  3:50a   23.2   23.3   23.2    93   22.0   1.6    SE  0.13   4.8     E   23.2   24.7   24.7  1006.3  0.00   0.0   0.000   0.017   25.3    92   23.9   27.9   113    1     99.1    5 
 9/16/05  3:55a   23.3   23.3   23.2    93   22.1   1.6    SE  0.13  11.3    SE   23.3   24.8   24.8  1006.3  0.00   0.0   0.000   0.017   25.4    92   24.0   28.2   114    1    100.0    5 
 9/16/05  4:00a   23.3   23.3   23.3    93   22.1   1.6   SSE  0.13   6.4     S   23.3   24.8   24.8  1006.3  0.00   0.0   0.000   0.017   25.3    92   23.9   27.9   114    1    100.0    5 
 9/16/05  4:05a   23.3   23.3   23.3    93   22.1   1.6    SE  0.13   9.7   ESE   23.3   24.8   24.8  1006.3  0.00   0.0   0.000   0.017   25.3    92   23.9   27.9   114    1    100.0    5 
 9/16/05  4:10a   23.3   23.3   23.3    93   22.1   1.6   SSE  0.13   8.0    SE   23.3   24.8   24.8  1006.3  0.00   0.0   0.000   0.017   25.3    92   23.9   27.9   113    1     99.1    5 
 9/16/05  4:15a   23.3   23.3   23.3    92   21.9   1.6   SSE  0.13   9.7   SSE   23.3   24.7   24.7  1006.4  0.00   0.0   0.000   0.017   25.3    92   23.9   27.9   114    1    100.0    5 
 9/16/05  4:20a   23.3   23.4   23.3    92   21.9   1.6    SE  0.13  11.3   ESE   23.3   24.7   24.7  1006.4  0.00   0.0   0.000   0.017   25.3    92   23.9   27.9   114    1    100.0    5 
 9/16/05  4:25a   23.4   23.4   23.4    92   22.0   1.6   SSE  0.13   4.8    SE   23.4   24.9   24.9  1006.4  0.00   0.0   0.000   0.018   25.3    92   23.9   27.9   114    1    100.0    5 
 9/16/05  4:30a   23.4   23.4   23.4    92   22.0   1.6    SE  0.13   9.7    SE   23.4   24.9   24.9  1006.4  0.00   0.0   0.000   0.018   25.3    92   23.9   27.9   114    1    100.0    5 
 9/16/05  4:35a   23.4   23.4   23.4    92   22.0   3.2   ESE  0.27   9.7     E   23.4   24.9   24.9  1006.4  0.00   0.0   0.000   0.018   25.3    92   23.9   27.9   114    1    100.0    5 
 9/16/05  4:40a   23.5   23.5   23.4    92   22.1   1.6   SSE  0.13   8.0     S   23.5   25.1   25.1  1006.4  0.00   0.0   0.000   0.018   25.3    92   23.9   27.9   114    1    100.0    5 
 9/16/05  4:45a   23.5   23.5   23.5    92   22.1   1.6    SE  0.13   8.0    SE   23.5   25.1   25.1  1006.4  0.00   0.0   0.000   0.018   25.3    92   23.9   27.9   106    1     93.0    5 
 9/16/05  4:50a   23.5   23.5   23.5    91   21.9   1.6    SE  0.13   9.7     S   23.5   25.1   25.1  1006.4  0.00   0.0   0.000   0.018   25.3    92   23.9   27.9   114    1    100.0    5 
 9/16/05  4:55a   23.5   23.5   23.5    91   21.9   3.2   SSE  0.27   8.0    SE   23.5   25.1   25.1  1006.4  0.00   0.0   0.000   0.018   25.4    92   24.0   28.2   114    1    100.0    5 
 9/16/05  5:00a   23.5   23.5   23.5    91   21.9   1.6    SE  0.13   9.7     S   23.5   25.1   25.1  1006.7  0.00   0.0   0.000   0.018   25.5    92   24.1   28.3   114    1    100.0    5 
 9/16/05  5:05a   23.5   23.5   23.5    91   21.9   1.6   SSE  0.13   9.7     S   23.5   25.1   25.1  1006.7  0.00   0.0   0.000   0.018   25.6    91   24.0   28.3   112    1     98.2    5 
 9/16/05  5:10a   23.5   23.5   23.5    91   21.9   3.2   SSE  0.27   9.7   SSE   23.5   25.1   25.1  1006.7  0.00   0.0   0.000   0.018   25.7    91   24.1   28.6   113    1     99.1    5 
 9/16/05  5:15a   23.6   23.6   23.5    90   21.9   1.6   SSE  0.13  11.3     S   23.6   25.2   25.2  1006.7  0.00   0.0   0.000   0.018   25.7    91   24.1   28.6   114    1    100.0    5 
 9/16/05  5:20a   23.6   23.6   23.6    90   21.9   1.6   SSE  0.13   6.4   SSE   23.6   25.2   25.2  1006.7  0.00   0.0   0.000   0.018   25.8    91   24.3   28.8   113    1     99.1    5 
 9/16/05  5:25a   23.6   23.6   23.6    90   21.9   1.6   SSE  0.13   8.0   SSE   23.6   25.2   25.2  1006.7  0.00   0.0   0.000   0.018   25.9    90   24.1   28.8   114    1    100.0    5 
 9/16/05  5:30a   23.6   23.6   23.6    90   21.9   1.6   SSE  0.13  11.3    SW   23.6   25.2   25.2  1006.8  0.00   0.0   0.000   0.018   25.9    90   24.2   28.9   114    1    100.0    5 
 9/16/05  5:35a   23.6   23.7   23.6    90   21.9   1.6   SSE  0.13  11.3    SE   23.6   25.2   25.2  1006.8  0.00   0.0   0.000   0.018   25.9    90   24.2   28.9   114    1    100.0    5 
 9/16/05  5:40a   23.7   23.8   23.7    89   21.7   3.2     S  0.27   9.7   SSE   23.7   25.3   25.3  1006.8  0.00   0.0   0.000   0.019   26.1    90   24.3   29.2   114    1    100.0    5 
 9/16/05  5:45a   23.8   23.8   23.8    90   22.0   1.6   SSE  0.13   8.0   SSE   23.8   25.6   25.6  1006.8  0.25   0.0   0.000   0.019   26.1    90   24.3   29.2   114    1    100.0    5 
 9/16/05  5:50a   23.8   23.8   23.8    90   22.0   3.2   SSE  0.27   9.7   SSW   23.8   25.6   25.6  1006.8  0.25   2.8   0.000   0.019   26.1    90   24.3   29.3   114    1    100.0    5 
 9/16/05  5:55a   23.8   23.8   23.8    90   22.0   1.6   SSE  0.13   9.7     E   23.8   25.6   25.6  1006.8  0.25   5.1   0.000   0.019   26.2    90   24.4   29.4   114    1    100.0    5 
 9/16/05  6:00a   23.8   23.8   23.8    91   22.2   1.6     S  0.13   6.4     E   23.8   25.6   25.6  1006.9  0.25   4.8   0.000   0.019   26.2    90   24.4   29.4   114    1    100.0    5 
 9/16/05  6:05a   23.8   23.8   23.8    91   22.2   1.6     S  0.13  11.3    SE   23.8   25.6   25.6  1006.9  0.25   3.0   0.000   0.019   26.2    90   24.5   29.5   114    1    100.0    5 
 9/16/05  6:10a   23.8   23.8   23.8    91   22.2   1.6    SE  0.13   8.0    SE   23.8   25.6   25.6  1006.9  0.25   3.3   0.000   0.019   26.2    90   24.5   29.5   114    1    100.0    5 
 9/16/05  6:15a   23.8   23.8   23.8    91   22.2   3.2     S  0.27  11.3    SW   23.8   25.6   25.6  1007.4  0.25   3.3   0.000   0.019   26.3    90   24.6   29.7   114    1    100.0    5 
 9/16/05  6:20a   23.8   23.8   23.8    91   22.2   1.6   SSE  0.13   9.7    SE   23.8   25.6   25.6  1007.4  0.25   2.8   0.000   0.019   26.3    90   24.6   29.7   113    1     99.1    5 
 9/16/05  6:25a   23.8   23.8   23.8    91   22.2   3.2   SSE  0.27  11.3   SSE   23.8   25.6   25.6  1007.4  0.00   2.8   0.000   0.019   26.4    90   24.7   30.0   114    1    100.0    5 
 9/16/05  6:30a   23.8   23.8   23.8    92   22.4   1.6   SSE  0.13   8.0    SE   23.8   25.6   25.6  1007.4  0.25   2.8   0.000   0.019   26.4    90   24.7   30.0   114    1    100.0    5 
 9/16/05  6:35a   23.8   23.8   23.8    92   22.4   1.6     S  0.13   6.4     S   23.8   25.6   25.6  1007.4  0.25   2.8   0.000   0.019   26.4    90   24.7   30.0   113    1     99.1    5 
 9/16/05  6:40a   23.8   23.8   23.8    92   22.4   3.2     S  0.27  11.3   SSW   23.8   25.6   25.6  1007.4  0.25   2.8   0.000   0.019   26.4    90   24.7   30.0   114    1    100.0    5 
 9/16/05  6:45a   23.8   23.8   23.8    92   22.4   1.6   SSE  0.13   9.7    SE   23.8   25.6   25.6  1007.7  0.25   5.3   0.000   0.019   26.4    90   24.7   30.0   114    1    100.0    5 
 9/16/05  6:50a   23.8   23.8   23.8    92   22.4   1.6   SSE  0.13   8.0   SSE   23.8   25.6   25.6  1007.7  0.25   3.8   0.000   0.019   26.4    90   24.7   30.0   114    1    100.0    5 
 9/16/05  6:55a   23.8   23.8   23.8    92   22.4   3.2    SE  0.27   9.7    SE   23.8   25.6   25.6  1007.7  0.25   3.3   0.000   0.019   26.4    90   24.7   30.0   113    1     99.1    5 
 9/16/05  7:00a   23.8   23.9   23.8    92   22.5   1.6   SSE  0.13  11.3    SE   23.8   25.7   25.7  1008.0  0.25   3.8   0.000   0.019   26.4    90   24.7   30.0   114    1    100.0    5 
 9/16/05  7:05a   23.9   23.9   23.9    92   22.5   3.2    SE  0.27  17.7     S   23.9   25.8   25.8  1008.0  0.25   3.8   0.000   0.019   26.4    90   24.7   30.0   112    1     98.2    5 
 9/16/05  7:10a   23.9   23.9   23.9    92   22.5   3.2   ESE  0.27  11.3    SE   23.9   25.8   25.8  1008.0  0.00   1.5   0.000   0.019   26.6    90   24.8   30.2   114    1    100.0    5 
 9/16/05  7:15a   23.9   23.9   23.9    92   22.5   1.6   SSE  0.13   9.7     S   23.9   25.8   25.8  1008.3  0.25   1.5   0.000   0.019   26.6    90   24.8   30.2   114    1    100.0    5 
 9/16/05  7:20a   23.9   23.9   23.9    92   22.5   3.2   SSE  0.27  11.3   SSE   23.9   25.8   25.8  1008.3  0.25   2.0   0.000   0.019   26.6    90   24.8   30.2   113    1     99.1    5 
 9/16/05  7:25a   23.9   23.9   23.9    92   22.5   1.6    SE  0.13   9.7   ESE   23.9   25.8   25.8  1008.3  0.51   7.6   0.000   0.019   26.6    90   24.8   30.3   113    1     99.1    5 
 9/16/05  7:30a   23.9   23.9   23.9    92   22.5   1.6    SE  0.13   6.4   ESE   23.9   25.8   25.8  1008.5  0.76  14.7   0.000   0.019   26.6    90   24.8   30.2   114    1    100.0    5 
 9/16/05  7:35a   23.9   23.9   23.9    92   22.5   3.2   ESE  0.27  12.9     E   23.9   25.8   25.8  1008.5  0.51  17.5   0.000   0.019   26.6    90   24.8   30.2   114    1    100.0    5 
 9/16/05  7:40a   23.9   24.0   23.9    92   22.6   3.2   ESE  0.27  11.3     E   23.9   25.9   25.9  1008.5  0.00   2.8   0.000   0.019   26.6    90   24.8   30.2   114    1    100.0    5 
 9/16/05  7:45a   24.0   24.0   24.0    92   22.6   3.2   ESE  0.27  12.9   ESE   24.0   26.0   26.0  1008.5  0.25   2.8   0.000   0.020   26.6    90   24.8   30.2   114    1    100.0    5 
 9/16/05  7:50a   24.0   24.0   24.0    92   22.6   3.2   ESE  0.27  12.9     E   24.0   26.0   26.0  1008.5  0.25   7.6   0.000   0.020   26.7    90   24.9   30.4   114    1    100.0    5 
 9/16/05  7:55a   24.0   24.0   24.0    92   22.6   3.2    SE  0.27  11.3     E   24.0   26.0   26.0  1008.5  0.25   4.1   0.000   0.020   26.7    90   24.9   30.4   114    1    100.0    5 
 9/16/05  8:00a   24.0   24.0   24.0    92   22.6   3.2   ESE  0.27   8.0     E   24.0   26.0   26.0  1008.8  0.00   1.8   0.000   0.020   26.7    90   24.9   30.4   114    1    100.0    5 
 9/16/05  8:05a   24.0   24.0   24.0    92   22.6   3.2   SSE  0.27   8.0    SE   24.0   26.0   26.0  1008.8  0.00   1.0   0.000   0.020   26.7    90   24.9   30.4   114    1    100.0    5 
 9/16/05  8:10a   24.1   24.1   24.0    92   22.7   3.2     S  0.27  11.3    SE   24.1   26.1   26.1  1008.8  0.00   0.0   0.000   0.020   26.8    90   25.0   30.7   113    1     99.1    5 
 9/16/05  8:15a   24.1   24.1   24.1    92   22.7   1.6   SSE  0.13   8.0   SSE   24.1   26.1   26.1  1008.9  0.00   0.0   0.000   0.020   26.8    90   25.0   30.7   114    1    100.0    5 
 9/16/05  8:20a   24.2   24.2   24.1    92   22.8   1.6     S  0.13   8.0     S   24.2   26.2   26.2  1008.9  0.25   0.0   0.000   0.020   26.8    90   25.0   30.7   113    1     99.1    5 
 9/16/05  8:25a   24.2   24.2   24.2    92   22.8   1.6    SE  0.13   9.7    SE   24.2   26.2   26.2  1008.9  0.00   0.0   0.000   0.020   26.9    90   25.1   31.0   112    1     98.2    5 
 9/16/05  8:30a   24.2   24.3   24.2    92   22.8   1.6    SE  0.13   4.8    SE   24.2   26.2   26.2  1008.7  0.00   0.0   0.000   0.020   26.9    90   25.1   31.0   114    1    100.0    5 
 9/16/05  8:35a   24.3   24.3   24.3    92   22.9   1.6   ESE  0.13  11.3   SSE   24.3   26.3   26.3  1008.7  0.00   0.0   0.000   0.021   26.9    90   25.1   31.0   114    1    100.0    5 
 9/16/05  8:40a   24.3   24.4   24.3    92   22.9   1.6    SE  0.13   6.4     S   24.3   26.4   26.4  1008.7  0.00   0.0   0.000   0.021   26.9    90   25.1   31.0   114    1    100.0    5 
 9/16/05  8:45a   24.4   24.4   24.4    92   23.0   1.6    SE  0.13   8.0    SE   24.4   26.4   26.4  1008.7  0.00   0.0   0.000   0.021   26.9    90   25.1   31.0   114    1    100.0    5 
 9/16/05  8:50a   24.4   24.4   24.4    92   23.0   1.6   SSE  0.13   8.0   ESE   24.4   26.4   26.4  1008.7  0.00   0.0   0.000   0.021   26.9    90   25.1   31.0   110    1     96.5    5 
 9/16/05  8:55a   24.4   24.4   24.4    92   23.1   3.2   SSE  0.27   9.7     S   24.4   26.5   26.5  1008.7  0.00   0.0   0.000   0.021   26.9    90   25.2   31.1   114    1    100.0    5 
 9/16/05  9:00a   24.6   24.6   24.4    92   23.2   3.2    SE  0.27   9.7    SE   24.6   26.7   26.7  1008.5  0.00   0.0   0.000   0.022   26.9    90   25.2   31.1   113    1     99.1    5 
 9/16/05  9:05a   24.6   24.7   24.6    92   23.2   1.6     S  0.13   9.7   SSE   24.6   26.8   26.8  1008.5  0.00   0.0   0.000   0.022   26.9    90   25.2   31.1   114    1    100.0    5 
 9/16/05  9:10a   24.7   24.8   24.7    92   23.3   0.0   SSE  0.00   3.2    SE   24.7   26.9   26.9  1008.5  0.00   0.0   0.000   0.022   26.9    90   25.2   31.1   114    1    100.0    5 
 9/16/05  9:15a   24.9   24.9   24.8    91   23.3   1.6    SE  0.13   9.7   SSE   24.9   27.1   27.1  1008.6  0.00   0.0   0.000   0.023   26.9    90   25.2   31.1   113    1     99.1    5 
 9/16/05  9:20a   25.0   25.1   24.9    91   23.4   1.6   SSE  0.13  11.3   SSE   25.0   27.3   27.3  1008.6  0.00   0.0   0.000   0.023   27.1    90   25.3   31.4   114    1    100.0    5 
 9/16/05  9:25a   25.2   25.3   25.2    90   23.5   3.2     S  0.27  12.9    SE   25.2   27.6   27.6  1008.6  0.00   0.0   0.000   0.024   27.1    90   25.3   31.4   114    1    100.0    5 
 9/16/05  9:30a   25.3   25.4   25.3    90   23.6   1.6   SSE  0.13  12.9   SSW   25.3   27.8   27.8  1008.7  0.00   0.0   0.000   0.024   27.1    90   25.3   31.4   114    1    100.0    5 
 9/16/05  9:35a   25.4   25.6   25.4    90   23.7   3.2   SSE  0.27  12.9   SSE   25.4   28.0   28.0  1008.7  0.00   0.0   0.000   0.025   27.2    91   25.6   31.8   114    1    100.0    5 
 9/16/05  9:40a   25.7   25.7   25.6    89   23.7   3.2   SSE  0.27  11.3     S   25.7   28.3   28.3  1008.7  0.00   0.0   0.000   0.025   27.2    91   25.6   31.9   114    1    100.0    5 
 9/16/05  9:45a   25.7   25.8   25.7    88   23.6   3.2   SSE  0.27   9.7   ESE   25.7   28.4   28.4  1008.6  0.00   0.0   0.000   0.026   27.3    90   25.5   31.9   114    1    100.0    5 
 9/16/05  9:50a   25.8   25.9   25.8    86   23.3   3.2    SE  0.27  12.9    SE   25.8   28.4   28.4  1008.6  0.00   0.0   0.000   0.026   27.3    91   25.7   32.3   112    1     98.2    5 
 9/16/05  9:55a   26.0   26.1   25.9    86   23.5   3.2    SE  0.27  16.1     E   26.0   28.7   28.7  1008.6  0.00   0.0   0.000   0.027   27.5    90   25.7   32.6   114    1    100.0    5 
 9/16/05 10:00a   26.2   26.4   26.1    85   23.5   1.6   SSE  0.13   6.4   SSW   26.2   28.9   28.9  1008.7  0.00   0.0   0.000   0.027   27.5    90   25.7   32.6   113    1     99.1    5 
 9/16/05 10:05a   26.4   26.6   26.4    84   23.5   1.6   SSE  0.13   8.0    SE   26.4   29.2   29.2  1008.7  0.00   0.0   0.000   0.028   27.6    90   25.8   32.9   114    1    100.0    5 
 9/16/05 10:10a   26.6   26.7   26.6    83   23.5   3.2   SSE  0.27  11.3   ESE   26.6   29.4   29.4  1008.7  0.00   0.0   0.000   0.029   27.7    90   25.9   33.2   114    1    100.0    5 
 9/16/05 10:15a   26.7   26.7   26.7    82   23.3   4.8    SE  0.40  16.1   ESE   26.7   29.4   29.4  1008.5  0.00   0.0   0.000   0.029   27.7    90   25.9   33.2   113    1     99.1    5 
 9/16/05 10:20a   26.8   26.8   26.7    81   23.2   4.8   SSE  0.40  16.1    SE   26.8   29.5   29.5  1008.5  0.00   0.0   0.000   0.029   27.8    89   25.8   33.2   114    1    100.0    5 
 9/16/05 10:25a   26.9   27.0   26.8    81   23.4   4.8   SSE  0.40  16.1     E   26.9   29.8   29.8  1008.5  0.00   0.0   0.000   0.030   27.8    90   26.0   33.4   106    1     93.0    5 
 9/16/05 10:30a   27.1   27.1   27.0    81   23.5   4.8   ESE  0.40  17.7   SSE   27.1   30.1   30.1  1008.5  0.00   0.0   0.000   0.030   27.8    89   25.8   33.2   114    1    100.0    5 
 9/16/05 10:35a   27.1   27.1   27.1    80   23.4   4.8    SE  0.40  16.1   ESE   27.1   30.1   30.1  1008.5  0.00   0.0   0.000   0.030   27.8    89   25.8   33.2   114    1    100.0    5 
 9/16/05 10:40a   27.2   27.3   27.2    79   23.3   3.2     S  0.27  17.7    SE   27.2   30.2   30.2  1008.5  0.00   0.0   0.000   0.031   27.8    88   25.6   33.0   113    1     99.1    5 
 9/16/05 10:45a   27.3   27.3   27.2    80   23.5   3.2     S  0.27  20.9    SW   27.3   30.4   30.4  1008.6  0.00   0.0   0.000   0.031   27.8    88   25.6   33.0   114    1    100.0    5 
 9/16/05 10:50a   27.3   27.3   27.3    80   23.5   4.8    SE  0.40  12.9   SSE   27.3   30.4   30.4  1008.6  0.00   0.0   0.000   0.031   27.8    88   25.6   33.0   114    1    100.0    5 
 9/16/05 10:55a   27.4   27.4   27.3    79   23.4   3.2    SE  0.27  17.7   WSW   27.4   30.6   30.6  1008.6  0.00   0.0   0.000   0.031   27.8    88   25.6   33.0   113    1     99.1    5 
 9/16/05 11:00a   27.4   27.5   27.4    80   23.7   3.2     S  0.27  11.3     S   27.4   30.8   30.8  1008.4  0.00   0.0   0.000   0.032   27.8    88   25.6   33.0   114    1    100.0    5 
 9/16/05 11:05a   27.5   27.6   27.5    79   23.5   4.8   SSE  0.40  12.9   SSE   27.5   30.8   30.8  1008.4  0.00   0.0   0.000   0.032   27.8    88   25.6   33.0   114    1    100.0    5 
 9/16/05 11:10a   27.7   27.7   27.6    79   23.7   4.8   SSE  0.40  19.3   SSE   27.7   31.2   31.2  1008.4  0.00   0.0   0.000   0.032   27.9    88   25.7   33.3   114    1    100.0    5 
 9/16/05 11:15a   27.9   28.1   27.8    77   23.5   4.8   SSE  0.40  12.9   ESE   27.9   31.6   31.6  1008.3  0.00   0.0   0.000   0.033   27.9    88   25.7   33.3   114    1    100.0    5 
 9/16/05 11:20a   28.2   28.3   28.1    77   23.8   6.4     S  0.54  27.4     S   28.2   32.2   32.2  1008.3  0.00   0.0   0.000   0.034   27.9    88   25.7   33.3   114    1    100.0    5 
 9/16/05 11:25a   28.4   28.6   28.3    76   23.8   4.8   SSE  0.40  14.5     E   28.4   32.7   32.7  1008.3  0.00   0.0   0.000   0.035   28.0    88   25.8   33.6   113    1     99.1    5 
 9/16/05 11:30a   28.6   28.7   28.6    76   24.0   6.4    SE  0.54  17.7   SSE   28.6   33.2   33.2  1008.3  0.00   0.0   0.000   0.036   28.1    88   25.9   33.9   112    1     98.2    5 
 9/16/05 11:35a   28.7   28.7   28.6    75   23.8   6.4    SE  0.54  17.7     E   28.7   33.3   33.3  1008.3  0.00   0.0   0.000   0.036   28.3    88   26.1   34.4   113    1     99.1    5 
 9/16/05 11:40a   28.6   28.6   28.5    76   24.0   4.8     S  0.40  17.7   SSE   28.6   33.2   33.2  1008.3  0.00   0.0   0.000   0.036   28.4    88   26.3   34.8   114    1    100.0    5 
 9/16/05 11:45a   28.3   28.5   28.2    76   23.7   4.8   SSE  0.40  16.1   SSW   28.3   32.4   32.4  1008.3  0.00   0.0   0.000   0.035   28.6    87   26.2   35.0   114    1    100.0    5 
 9/16/05 11:50a   28.1   28.2   28.1    77   23.7   6.4    SE  0.54  17.7    SE   28.1   32.1   32.1  1008.3  0.00   0.0   0.000   0.034   28.7    87   26.3   35.3    84    1     73.7    5 
 9/16/05 11:55a   27.9   27.9   27.9    77   23.5   6.4   SSE  0.54  19.3     S   27.9   31.6   31.6  1008.3  0.00   0.0   0.000   0.033   28.8    87   26.4   35.7   100    1     87.7    5 
 9/16/05 12:00p   27.9   27.9   27.8    78   23.7   6.4   SSE  0.54  17.7   ESE   27.9   31.6   31.6  1007.7  0.00   0.0   0.000   0.033   28.8    86   26.2   35.5   114    1    100.0    5 
 9/16/05 12:05p   27.8   27.9   27.8    78   23.6   3.2    SE  0.27  12.9     S   27.8   31.4   31.4  1007.7  0.00   0.0   0.000   0.033   28.9    86   26.3   35.8   114    1    100.0    5 
 9/16/05 12:10p   27.9   28.1   27.9    78   23.7   3.2   ESE  0.27  11.3   ESE   27.9   31.8   31.8  1007.7  0.00   0.0   0.000   0.033   29.0    86   26.4   36.1   112    1     98.2    5 
 9/16/05 12:15p   28.1   28.1   27.9    78   23.9   3.2   SSE  0.27  11.3   SSW   28.1   32.1   32.1  1007.5  0.00   0.0   0.000   0.034   29.0    86   26.4   36.1   114    1    100.0    5 
 9/16/05 12:20p   28.1   28.2   28.1    77   23.7   3.2   SSE  0.27  12.9    SW   28.1   32.1   32.1  1007.5  0.00   0.0   0.000   0.034   29.1    85   26.3   36.1   114    1    100.0    5 
 9/16/05 12:25p   28.2   28.3   28.2    77   23.8   3.2   SSE  0.27   9.7   SSW   28.2   32.2   32.2  1007.5  0.00   0.0   0.000   0.034   29.2    85   26.4   36.4   114    1    100.0    5 
 9/16/05 12:30p   28.3   28.3   28.3    77   23.9   3.2    SE  0.27  22.5   ENE   28.3   32.5   32.5  1007.1  0.00   0.0   0.000   0.035   29.2    85   26.4   36.4   114    1    100.0    5 
 9/16/05 12:35p   28.2   28.3   28.2    77   23.8   3.2   SSE  0.27  16.1     S   28.2   32.3   32.3  1007.1  0.00   0.0   0.000   0.034   29.2    85   26.4   36.4   114    1    100.0    5 
 9/16/05 12:40p   28.3   28.3   28.3    77   23.9   3.2    SE  0.27  11.3     S   28.3   32.5   32.5  1007.1  0.00   0.0   0.000   0.035   29.3    85   26.5   36.6   112    1     98.2    5 
 9/16/05 12:45p   28.2   28.3   28.2    77   23.8   3.2    SE  0.27  12.9    SE   28.2   32.3   32.3  1006.7  0.00   0.0   0.000   0.034   29.4    85   26.6   36.8   112    1     98.2    5 
 9/16/05 12:50p   28.2   28.3   28.2    76   23.6   3.2   SSE  0.27  12.9   ESE   28.2   32.2   32.2  1006.7  0.00   0.0   0.000   0.034   29.4    84   26.5   36.7   114    1    100.0    5 
 9/16/05 12:55p   28.2   28.3   28.2    77   23.8   1.6    SE  0.13   4.8    SE   28.2   32.2   32.2  1006.7  0.00   0.0   0.000   0.034   29.4    84   26.5   36.7   114    1    100.0    5 
 9/16/05  1:00p   28.3   28.3   28.3    77   23.9   1.6   SSE  0.13   8.0     S   28.3   32.5   32.5  1006.6  0.00   0.0   0.000   0.035   29.5    84   26.5   36.8   113    1     99.1    5 
 9/16/05  1:05p   28.3   28.4   28.3    77   23.9   1.6   ESE  0.13   4.8   SSE   28.3   32.6   32.6  1006.6  0.00   0.0   0.000   0.035   29.6    84   26.6   36.9   114    1    100.0    5 
 9/16/05  1:10p   28.4   28.4   28.4    77   24.0   1.6   SSE  0.13   4.8   ESE   28.4   32.8   32.8  1006.6  0.00   0.0   0.000   0.035   29.6    84   26.6   37.1   114    1    100.0    5 
 9/16/05  1:15p   28.3   28.4   28.3    77   23.9   1.6   ESE  0.13   8.0    SE   28.3   32.6   32.6  1006.7  0.00   0.0   0.000   0.035   29.7    83   26.5   37.1   114    1    100.0    5 
 9/16/05  1:20p   28.4   28.4   28.4    77   24.0   0.0   SSE  0.00   4.8   ESE   28.4   32.8   32.8  1006.7  0.00   0.0   0.000   0.035   29.7    83   26.5   37.1   114    1    100.0    5 
 9/16/05  1:25p   28.4   28.4   28.4    77   24.0   1.6   SSE  0.13   6.4   SSE   28.4   32.8   32.8  1006.7  0.00   0.0   0.000   0.035   29.7    83   26.5   37.1   114    1    100.0    5 
 9/16/05  1:30p   28.4   28.4   28.4    77   24.0   1.6   SSE  0.13   8.0   SSE   28.4   32.8   32.8  1006.7  0.00   0.0   0.000   0.035   29.8    83   26.6   37.3   114    1    100.0    5 
 9/16/05  1:35p   28.4   28.4   28.4    78   24.2   0.0   SSE  0.00   3.2    SE   28.4   32.9   32.9  1006.7  0.00   0.0   0.000   0.035   29.8    83   26.6   37.3   114    1    100.0    5 
 9/16/05  1:40p   28.4   28.4   28.4    78   24.2   1.6   SSE  0.13   4.8   SSE   28.4   32.9   32.9  1006.7  0.00   0.0   0.000   0.035   29.8    83   26.6   37.3   115    1    100.0    5 
 9/16/05  1:45p   28.5   28.5   28.4    78   24.3   1.6     S  0.13   8.0   SSE   28.5   33.3   33.3  1006.7  0.00   0.0   0.000   0.035   29.8    83   26.6   37.3   114    1    100.0    5 
 9/16/05  1:50p   28.5   28.5   28.5    78   24.3   0.0     S  0.00   4.8     S   28.5   33.3   33.3  1006.7  0.00   0.0   0.000   0.035   29.8    83   26.6   37.3   114    1    100.0    5 
 9/16/05  1:55p   28.6   28.6   28.5    78   24.3   0.0   SSE  0.00   1.6     S   28.6   33.4   33.4  1006.7  0.00   0.0   0.000   0.035   29.9    83   26.7   37.6   114    1    100.0    5 
 9/16/05  2:00p   28.6   28.6   28.6    78   24.4   0.0   ESE  0.00   3.2   ESE   28.6   33.6   33.6  1006.6  0.00   0.0   0.000   0.036   29.9    83   26.7   37.6   114    1    100.0    5 
 9/16/05  2:05p   28.6   28.6   28.6    78   24.4   0.0   ESE  0.00   4.8   ESE   28.6   33.6   33.6  1006.6  0.00   0.0   0.000   0.036   29.9    83   26.7   37.6   113    1     99.1    5 
 9/16/05  2:10p   28.5   28.6   28.5    78   24.3   0.0   SSE  0.00   3.2   SSE   28.5   33.3   33.3  1006.6  0.00   0.0   0.000   0.035   29.9    82   26.5   37.3   114    1    100.0    5 
 9/16/05  2:15p   28.5   28.5   28.5    78   24.3   0.0   ---  0.00   0.0   ---   28.5   33.3   33.3  1006.6  0.00   0.0   0.000   0.035   29.8    83   26.6   37.3   114    1    100.0    5 
 9/16/05  2:20p   28.5   28.5   28.5    78   24.3   0.0     S  0.00   3.2    SE   28.5   33.3   33.3  1006.6  0.00   0.0   0.000   0.035   29.7    84   26.7   37.3   113    1     99.1    5 
 9/16/05  2:25p   28.6   28.6   28.5    78   24.4   0.0     S  0.00   1.6     S   28.6   33.6   33.6  1006.6  0.00   0.0   0.000   0.036   29.6    84   26.6   37.1   114    1    100.0    5 
 9/16/05  2:30p   28.7   28.7   28.6    78   24.4   0.0     S  0.00   3.2     S   28.7   33.7   33.7  1006.5  0.00   0.0   0.000   0.036   29.6    85   26.8   37.2   114    1    100.0    5 
 9/16/05  2:35p   28.7   28.7   28.6    78   24.5   0.0     S  0.00   3.2     S   28.7   33.9   33.9  1006.5  0.00   0.0   0.000   0.036   29.4    85   26.7   36.9   114    1    100.0    5 
 9/16/05  2:40p   28.7   28.7   28.6    79   24.7   0.0     S  0.00   1.6     S   28.7   33.9   33.9  1006.5  0.00   0.0   0.000   0.036   29.6    85   26.8   37.2   114    1    100.0    5 
 9/16/05  2:45p   28.6   28.6   28.5    80   24.8   0.0     S  0.00   1.6     S   28.6   33.9   33.9  1006.7  0.00   0.0   0.000   0.036   29.4    85   26.7   36.9   114    1    100.0    5 
 9/16/05  2:50p   28.4   28.5   28.3    80   24.7   1.6   SSE  0.13   4.8    SE   28.4   33.5   33.5  1006.7  0.00   0.0   0.000   0.035   29.4    85   26.7   36.9   114    1    100.0    5 
 9/16/05  2:55p   28.2   28.3   28.1    80   24.4   1.6   SSW  0.13   8.0   SSW   28.2   32.7   32.7  1006.7  0.00   0.0   0.000   0.034   29.4    85   26.7   36.9   114    1    100.0    5 
 9/16/05  3:00p   28.0   28.1   27.9    80   24.2   3.2     S  0.27  11.3   SSE   28.0   32.2   32.2  1006.9  0.00   0.0   0.000   0.034   29.4    85   26.7   36.9   114    1    100.0    5 
 9/16/05  3:05p   27.8   27.9   27.5    80   24.0   6.4   SSW  0.54  20.9    SW   27.8   31.6   31.6  1006.9  0.00   0.0   0.000   0.033   29.3    85   26.5   36.6   113    1     99.1    5 
 9/16/05  3:10p   27.1   27.5   26.7    81   23.5  11.3    SW  0.94  25.7    SW   27.1   30.1   30.1  1006.9  0.00   0.0   0.000   0.030   29.3    82   25.9   35.9   113    1     99.1    5 
 9/16/05  3:15p   26.2   26.7   25.8    85   23.5   8.0   SSW  0.67  19.3    SW   26.2   28.9   28.9  1007.3  1.02  19.3   0.000   0.027   29.0    82   25.6   35.3   114    1    100.0    5 
 9/16/05  3:20p   25.5   25.8   25.3    87   23.2   6.4    SW  0.54  17.7    SE   25.5   27.9   27.9  1007.3  0.76  18.8   0.000   0.025   28.7    84   25.7   34.8   114    1    100.0    5 
 9/16/05  3:25p   25.2   25.3   25.1    89   23.2   6.4   SSW  0.54  20.9     W   25.2   27.4   27.4  1007.3  0.51   7.4   0.000   0.024   28.5    85   25.7   34.4   114    1    100.0    5 
 9/16/05  3:30p   25.0   25.1   24.9    89   23.1   3.2    SW  0.27  11.3    SW   25.0   27.2   27.2  1007.8  0.25   5.6   0.000   0.023   28.4    85   25.7   34.3   114    1    100.0    5 
 9/16/05  3:35p   24.9   24.9   24.8    90   23.1   6.4   SSW  0.54  16.1     S   24.9   27.1   27.1  1007.8  0.25   4.1   0.000   0.023   28.4    85   25.6   34.1   112    1     98.2    5 
 9/16/05  3:40p   24.8   24.8   24.8    89   22.9   8.0   SSW  0.67  19.3    SW   24.8   26.9   26.9  1007.8  0.25   2.8   0.000   0.023   28.3    85   25.5   33.8   114    1    100.0    5 
 9/16/05  3:45p   24.7   24.8   24.7    89   22.8   4.8     S  0.40   9.7   SSE   24.7   26.8   26.8  1008.0  0.51   5.3   0.000   0.022   28.1    85   25.3   33.2   114    1    100.0    5 
 9/16/05  3:50p   24.6   24.7   24.6    90   22.9   6.4   SSW  0.54  16.1   SSW   24.6   26.7   26.7  1008.0  0.51   7.9   0.000   0.022   27.9    85   25.1   32.7   113    1     99.1    5 
 9/16/05  3:55p   24.4   24.6   24.4    90   22.7   4.8   SSW  0.40  12.9   WSW   24.4   26.4   26.4  1008.0  1.27  24.6   0.000   0.021   28.0    85   25.2   33.1   114    1    100.0    5 
 9/16/05  4:00p   24.3   24.4   24.2    90   22.6   4.8     S  0.40  12.9    SW   24.3   26.3   26.3  1008.1  1.02  13.5   0.000   0.021   27.9    85   25.2   32.9   114    1    100.0    5 
 9/16/05  4:05p   24.1   24.2   24.1    91   22.5   3.2     S  0.27  11.3   SSE   24.1   26.1   26.1  1008.1  0.51  11.4   0.000   0.020   27.9    84   24.9   32.6   112    1     98.2    5 
 9/16/05  4:10p   24.1   24.1   24.1    91   22.5   1.6   SSE  0.13   6.4   SSW   24.1   26.0   26.0  1008.1  0.25   7.1   0.000   0.020   27.9    84   25.0   32.7   113    1     99.1    5 
 9/16/05  4:15p   24.1   24.1   24.1    91   22.5   0.0   ---  0.00   0.0   ---   24.1   26.0   26.0  1008.1  0.25   3.8   0.000   0.020   28.0    84   25.0   32.9   114    1    100.0    5 
 9/16/05  4:20p   24.1   24.1   24.1    91   22.5   0.0    SE  0.00   1.6    SE   24.1   26.0   26.0  1008.1  0.25   3.0   0.000   0.020   28.1    84   25.1   33.1   107    1     93.9    5 
 9/16/05  4:25p   24.1   24.1   24.1    92   22.7   0.0   SSE  0.00   1.6   SSE   24.1   26.1   26.1  1008.1  0.00   1.8   0.000   0.020   28.1    84   25.2   33.2   114    1    100.0    5 
 9/16/05  4:30p   24.1   24.2   24.1    92   22.7   0.0   ---  0.00   0.0   ---   24.1   26.1   26.1  1008.0  0.00   1.3   0.000   0.020   28.2    84   25.3   33.5   114    1    100.0    5 
 9/16/05  4:35p   24.2   24.2   24.2    92   22.8   0.0   ---  0.00   0.0   ---   24.2   26.2   26.2  1008.0  0.00   0.0   0.000   0.020   28.2    84   25.3   33.5   114    1    100.0    5 
 9/16/05  4:40p   24.2   24.2   24.2    92   22.8   0.0   SSE  0.00   1.6   SSE   24.2   26.2   26.2  1008.0  0.00   0.0   0.000   0.020   28.3    84   25.4   33.8    91    1     79.8    5 
 9/16/05  4:45p   24.2   24.2   24.2    92   22.8   0.0    SE  0.00   1.6   SSE   24.2   26.2   26.2  1008.4  0.00   0.0   0.000   0.020   28.3    84   25.4   33.8   114    1    100.0    5 
 9/16/05  4:50p   24.2   24.2   24.2    92   22.8   0.0    SE  0.00   1.6    SE   24.2   26.2   26.2  1008.4  0.00   0.0   0.000   0.020   28.3    84   25.4   33.8   114    1    100.0    5 
 9/16/05  4:55p   24.2   24.3   24.2    92   22.8   0.0    SE  0.00   4.8    SE   24.2   26.2   26.2  1008.4  0.25   0.0   0.000   0.020   28.4    83   25.3   33.9   114    1    100.0    5 
 9/16/05  5:00p   24.3   24.3   24.2    92   22.9   0.0   ESE  0.00   3.2   ESE   24.3   26.3   26.3  1008.5  0.00   0.0   0.000   0.021   28.4    84   25.4   33.9   114    1    100.0    5 
 9/16/05  5:05p   24.2   24.3   24.2    92   22.8   1.6     E  0.13   9.7   ESE   24.2   26.2   26.2  1008.5  0.25   1.3   0.000   0.020   28.3    83   25.2   33.6   114    1    100.0    5 
 9/16/05  5:10p   24.2   24.2   24.2    92   22.8   0.0   ESE  0.00   8.0     E   24.2   26.2   26.2  1008.5  0.00   1.3   0.000   0.020   28.4    83   25.2   33.8   113    1     99.1    5 
 9/16/05  5:15p   24.2   24.2   24.1    92   22.8   3.2   ESE  0.27   9.7   ESE   24.2   26.2   26.2  1008.7  0.25   2.3   0.000   0.020   28.3    83   25.1   33.5   113    1     99.1    5 
 9/16/05  5:20p   24.1   24.1   24.1    92   22.7   1.6    SE  0.13   8.0   SSE   24.1   26.1   26.1  1008.7  0.00   1.5   0.000   0.020   28.2    83   25.1   33.3   114    1    100.0    5 
 9/16/05  5:25p   24.1   24.1   24.1    92   22.7   1.6   ESE  0.13   4.8   SSE   24.1   26.1   26.1  1008.7  0.25   1.5   0.000   0.020   28.2    83   25.0   33.2   114    1    100.0    5 
 9/16/05  5:30p   24.0   24.1   24.0    92   22.6   1.6   ESE  0.13   6.4   ENE   24.0   26.0   26.0  1008.8  0.25   1.8   0.000   0.020   28.1    83   24.9   33.0   114    1    100.0    5 
 9/16/05  5:35p   24.0   24.0   24.0    92   22.6   0.0   ESE  0.00   4.8   ESE   24.0   26.0   26.0  1008.8  0.00   1.8   0.000   0.020   28.1    83   24.9   33.0   113    1     99.1    5 
 9/16/05  5:40p   24.0   24.0   23.9    92   22.6   0.0    SE  0.00   4.8   ESE   24.0   26.0   26.0  1008.8  0.25   2.3   0.000   0.020   28.1    83   24.9   33.0   114    1    100.0    5 
 9/16/05  5:45p   23.9   24.0   23.9    92   22.5   0.0    SE  0.00   3.2    SE   23.9   25.8   25.8  1008.9  0.00   1.5   0.000   0.019   28.0    83   24.8   32.7   114    1    100.0    5 
 9/16/05  5:50p   23.9   23.9   23.9    92   22.5   0.0   ESE  0.00   1.6    SE   23.9   25.8   25.8  1008.9  0.25   1.5   0.000   0.019   28.0    83   24.8   32.7   114    1    100.0    5 
 9/16/05  5:55p   23.9   23.9   23.9    92   22.5   0.0   ESE  0.00   4.8   SSE   23.9   25.8   25.8  1008.9  0.00   1.0   0.000   0.019   28.0    83   24.8   32.7   114    1    100.0    5 
 9/16/05  6:00p   23.9   23.9   23.9    92   22.5   0.0    SE  0.00   1.6    SE   23.9   25.8   25.8  1009.3  0.00   1.0   0.000   0.019   28.0    83   24.8   32.7   113    1     99.1    5 
 9/16/05  6:05p   23.9   23.9   23.9    92   22.5   0.0    SE  0.00   3.2   SSE   23.9   25.8   25.8  1009.3  0.25   1.0   0.000   0.019   27.9    83   24.7   32.4   114    1    100.0    5 
 9/16/05  6:10p   23.9   23.9   23.9    92   22.5   0.0     S  0.00   3.2     S   23.9   25.8   25.8  1009.3  0.00   1.0   0.000   0.019   27.9    83   24.8   32.6   113    1     99.1    5 
 9/16/05  6:15p   23.9   23.9   23.9    93   22.7   0.0     S  0.00   1.6     S   23.9   25.9   25.9  1009.8  0.25   1.8   0.000   0.019   27.9    83   24.7   32.4   114    1    100.0    5 
 9/16/05  6:20p   23.9   23.9   23.9    92   22.5   0.0     S  0.00   3.2     S   23.9   25.8   25.8  1009.8  0.00   1.8   0.000   0.019   27.9    83   24.7   32.4   114    1    100.0    5 
 9/16/05  6:25p   23.9   24.0   23.9    92   22.5   0.0     S  0.00   1.6     S   23.9   25.8   25.8  1009.8  0.51   3.6   0.000   0.019   27.9    83   24.7   32.4   114    1    100.0    5 
 9/16/05  6:30p   24.0   24.0   23.9    93   22.8   0.0     S  0.00   1.6     S   24.0   26.0   26.0  1010.0  0.51   6.3   0.000   0.020   27.9    83   24.7   32.4   113    1     99.1    5 
 9/16/05  6:35p   24.0   24.0   23.9    93   22.8   0.0     S  0.00   1.6     S   24.0   26.0   26.0  1010.0  0.25   6.3   0.000   0.020   27.9    84   24.9   32.6   114    1    100.0    5 
 9/16/05  6:40p   23.9   23.9   23.9    93   22.7   0.0   ---  0.00   0.0   ---   23.9   25.9   25.9  1010.0  0.25   5.3   0.000   0.019   27.9    84   25.0   32.7   114    1    100.0    5 
 9/16/05  6:45p   23.9   23.9   23.9    93   22.7   0.0   ---  0.00   0.0   ---   23.9   25.9   25.9  1010.0  0.25   3.8   0.000   0.019   27.9    84   24.9   32.6   114    1    100.0    5 
 9/16/05  6:50p   23.9   23.9   23.9    93   22.7   0.0   ---  0.00   0.0   ---   23.9   25.9   25.9  1010.0  0.00   2.0   0.000   0.019   27.9    84   24.9   32.6   114    1    100.0    5 
 9/16/05  6:55p   23.9   23.9   23.9    93   22.7   0.0   ---  0.00   0.0   ---   23.9   25.9   25.9  1010.0  0.76   8.6   0.000   0.019   28.0    84   25.0   32.9   114    1    100.0    5 
 9/16/05  7:00p   23.9   23.9   23.9    93   22.7   0.0   ---  0.00   0.0   ---   23.9   25.9   25.9  1010.0  0.25   8.6   0.000   0.019   28.0    84   25.0   32.9   114    1    100.0    5 
 9/16/05  7:05p   23.9   23.9   23.9    93   22.7   0.0   ---  0.00   0.0   ---   23.9   25.9   25.9  1010.0  0.00   2.5   0.000   0.019   27.9    84   25.0   32.7   114    1    100.0    5 
 9/16/05  7:10p   23.9   23.9   23.9    93   22.7   0.0   ---  0.00   0.0   ---   23.9   25.9   25.9  1010.0  0.25   2.5   0.000   0.019   28.0    84   25.0   32.9   114    1    100.0    5 
 9/16/05  7:15p   23.9   24.0   23.9    93   22.7   0.0   ---  0.00   0.0   ---   23.9   25.9   25.9  1010.2  0.00   1.8   0.000   0.019   28.0    84   25.0   32.9   114    1    100.0    5 
 9/16/05  7:20p   24.0   24.0   24.0    93   22.8   0.0     S  0.00   1.6     S   24.0   26.0   26.0  1010.2  0.25   2.0   0.000   0.020   28.0    84   25.0   32.9   112    1     98.2    5 
 9/16/05  7:25p   24.0   24.0   24.0    93   22.8   0.0     S  0.00   1.6     S   24.0   26.0   26.0  1010.2  0.25   2.8   0.000   0.020   28.0    84   25.0   32.9   114    1    100.0    5 
 9/16/05  7:30p   24.0   24.0   24.0    93   22.8   0.0     S  0.00   1.6     S   24.0   26.0   26.0  1010.2  0.00   1.8   0.000   0.020   28.0    84   25.0   32.9   114    1    100.0    5 
 9/16/05  7:35p   24.0   24.0   24.0    93   22.8   0.0   ---  0.00   0.0   ---   24.0   26.0   26.0  1010.2  0.25   1.8   0.000   0.020   27.9    84   25.0   32.7   114    1    100.0    5 
 9/16/05  7:40p   24.0   24.0   24.0    93   22.8   0.0   ---  0.00   0.0   ---   24.0   26.0   26.0  1010.2  0.00   1.5   0.000   0.020   28.0    84   25.0   32.9   114    1    100.0    5 
 9/16/05  7:45p   24.0   24.0   24.0    93   22.8   0.0     S  0.00   1.6     S   24.0   26.0   26.0  1010.2  0.00   1.0   0.000   0.020   28.0    84   25.0   32.9   114    1    100.0    5 
 9/16/05  7:50p   24.0   24.0   24.0    93   22.8   0.0   ---  0.00   0.0   ---   24.0   26.0   26.0  1010.2  0.00   0.0   0.000   0.020   28.0    84   25.0   32.9   114    1    100.0    5 
 9/16/05  7:55p   24.0   24.0   24.0    93   22.8   0.0   SSW  0.00   3.2   SSW   24.0   26.0   26.0  1010.2  0.00   0.0   0.000   0.020   27.9    84   24.9   32.6   114    1    100.0    5 
 9/16/05  8:00p   23.9   24.0   23.9    93   22.7   1.6    SW  0.13   4.8    SW   23.9   25.9   25.9  1010.5  0.00   0.0   0.000   0.019   27.9    84   24.9   32.6   114    1    100.0    5 
 9/16/05  8:05p   23.9   23.9   23.9    93   22.7   0.0   SSW  0.00   4.8   SSW   23.9   25.9   25.9  1010.5  0.00   0.0   0.000   0.019   27.8    84   24.8   32.3   114    1    100.0    5 
 9/16/05  8:10p   23.9   24.0   23.9    93   22.7   1.6   SSW  0.13   4.8    SW   23.9   25.9   25.9  1010.5  0.00   0.0   0.000   0.019   27.8    84   24.8   32.3   114    1    100.0    5 
 9/16/05  8:15p   24.0   24.0   23.9    93   22.8   3.2   SSW  0.27  12.9     S   24.0   26.0   26.0  1011.0  0.25   0.0   0.000   0.020   27.7    84   24.8   32.1   114    1    100.0    5 
 9/16/05  8:20p   23.6   23.9   23.4    93   22.4  11.3     S  0.94  25.7     S   23.6   25.4   25.4  1011.0  0.00   0.0   0.000   0.018   27.7    83   24.6   31.9   114    1    100.0    5 
 9/16/05  8:25p   23.7   23.8   23.5    93   22.5   8.0    SW  0.67  27.4    SW   23.7   25.5   25.5  1011.0  0.51   5.8   0.000   0.019   27.6    83   24.5   31.7   114    1    100.0    5 
 9/16/05  8:30p   23.7   23.8   23.7    92   22.3   3.2   SSW  0.27  11.3    SW   23.7   25.4   25.4  1011.1  0.51   5.8   0.000   0.019   27.5    84   24.6   31.6   114    1    100.0    5 
 9/16/05  8:35p   23.6   23.6   23.6    93   22.4   3.2     S  0.27   8.0     S   23.6   25.4   25.4  1011.1  0.00   2.5   0.000   0.018   27.4    84   24.4   31.3   113    1     99.1    5 
 9/16/05  8:40p   23.6   23.6   23.6    93   22.4   0.0   SSW  0.00   4.8   SSW   23.6   25.4   25.4  1011.1  0.51   5.1   0.000   0.018   27.3    84   24.4   31.2   114    1    100.0    5 
 9/16/05  8:45p   23.6   23.6   23.5    92   22.2   0.0   SSW  0.00   1.6   SSW   23.6   25.2   25.2  1011.0  0.25   5.1   0.000   0.018   27.3    84   24.3   31.0   114    1    100.0    5 
 9/16/05  8:50p   23.4   23.5   23.3    92   22.0   0.0     S  0.00   1.6     S   23.4   24.9   24.9  1011.0  0.25   6.6   0.000   0.018   27.3    84   24.3   31.0   113    1     99.1    5 
 9/16/05  8:55p   23.3   23.3   23.2    93   22.1   0.0     E  0.00   3.2   ESE   23.3   24.8   24.8  1011.0  0.51   4.6   0.000   0.017   27.3    84   24.3   31.0   114    1    100.0    5 
 9/16/05  9:00p   23.2   23.2   23.1    92   21.8   1.6     E  0.13   3.2     E   23.2   24.7   24.7  1010.7  0.25   4.6   0.000   0.017   27.3    84   24.3   31.0   114    1    100.0    5 
 9/16/05  9:05p   23.1   23.1   23.0    92   21.7   1.6   ENE  0.13   4.8   ENE   23.1   24.5   24.5  1010.7  0.25   3.8   0.000   0.016   27.3    84   24.3   31.0   114    1    100.0    5 
 9/16/05  9:10p   22.9   23.0   22.9    93   21.7   0.0     E  0.00   3.2   ESE   22.9   24.4   24.4  1010.7  0.00   2.3   0.000   0.016   27.3    84   24.3   31.0   114    1    100.0    5 
 9/16/05  9:15p   22.9   22.9   22.8    93   21.7   0.0     E  0.00   1.6     E   22.9   24.4   24.4  1010.6  0.25   2.3   0.000   0.016   27.3    84   24.3   31.0   113    1     99.1    5 
 9/16/05  9:20p   22.8   22.8   22.8    93   21.6   0.0     E  0.00   3.2     E   22.8   24.3   24.3  1010.6  0.00   1.5   0.000   0.016   27.3    84   24.3   31.0   114    1    100.0    5 
 9/16/05  9:25p   22.8   22.8   22.8    93   21.6   1.6   ENE  0.13   4.8   ENE   22.8   24.3   24.3  1010.6  0.00   1.0   0.000   0.016   27.3    84   24.3   31.0   114    1    100.0    5 
 9/16/05  9:30p   22.8   22.8   22.8    93   21.6   0.0   SSE  0.00   4.8   SSE   22.8   24.3   24.3  1010.6  0.00   0.0   0.000   0.016   27.2    83   24.0   30.6   114    1    100.0    5 
 9/16/05  9:35p   22.8   22.8   22.8    93   21.6   0.0   ENE  0.00   1.6   ENE   22.8   24.3   24.3  1010.6  0.25   0.0   0.000   0.016   27.1    83   23.9   30.3   114    1    100.0    5 
 9/16/05  9:40p   22.8   22.8   22.8    93   21.6   0.0   ---  0.00   0.0   ---   22.8   24.3   24.3  1010.6  0.00   0.0   0.000   0.016   27.2    83   24.0   30.6   114    1    100.0    5 
 9/16/05  9:45p   22.8   22.8   22.8    93   21.6   0.0   ---  0.00   0.0   ---   22.8   24.3   24.3  1010.9  0.00   0.0   0.000   0.016   27.1    83   23.9   30.3   114    1    100.0    5 
 9/16/05  9:50p   22.8   22.8   22.8    93   21.6   0.0   ---  0.00   0.0   ---   22.8   24.3   24.3  1010.9  0.00   0.0   0.000   0.016   27.1    83   23.9   30.3   114    1    100.0    5 
 9/16/05  9:55p   22.8   22.8   22.8    93   21.6   0.0   ---  0.00   0.0   ---   22.8   24.3   24.3  1010.9  0.00   0.0   0.000   0.016   27.1    83   23.9   30.3   114    1    100.0    5 
 9/16/05 10:00p   22.8   22.8   22.8    93   21.6   0.0   ---  0.00   0.0   ---   22.8   24.3   24.3  1010.9  0.00   0.0   0.000   0.016   27.1    83   23.9   30.3   114    1    100.0    5 
 9/16/05 10:05p   22.8   22.8   22.8    93   21.6   0.0   ---  0.00   0.0   ---   22.8   24.3   24.3  1010.9  0.00   0.0   0.000   0.016   26.9    83   23.8   30.1   114    1    100.0    5 
 9/16/05 10:10p   22.8   22.9   22.8    93   21.6   0.0     E  0.00   1.6     E   22.8   24.3   24.3  1010.9  0.25   0.0   0.000   0.016   27.0    83   23.9   30.2   110    1     96.5    5 
 9/16/05 10:15p   22.9   22.9   22.9    93   21.7   0.0   ---  0.00   0.0   ---   22.9   24.4   24.4  1010.8  0.00   0.0   0.000   0.016   26.9    83   23.8   30.1   114    1    100.0    5 
 9/16/05 10:20p   22.9   22.9   22.8    93   21.7   0.0   ---  0.00   0.0   ---   22.9   24.4   24.4  1010.8  0.00   0.0   0.000   0.016   26.9    83   23.8   30.1   113    1     99.1    5 
 9/16/05 10:25p   22.9   22.9   22.9    93   21.7   0.0   ---  0.00   0.0   ---   22.9   24.4   24.4  1010.8  0.00   0.0   0.000   0.016   26.9    83   23.8   30.1   114    1    100.0    5 
 9/16/05 10:30p   22.9   22.9   22.9    93   21.7   0.0   ---  0.00   0.0   ---   22.9   24.4   24.4  1010.7  0.00   0.0   0.000   0.016   26.9    84   24.0   30.3   114    1    100.0    5 
 9/16/05 10:35p   22.9   22.9   22.9    93   21.7   0.0   ---  0.00   0.0   ---   22.9   24.4   24.4  1010.7  0.00   0.0   0.000   0.016   26.9    84   24.0   30.3   114    1    100.0    5 
 9/16/05 10:40p   22.9   23.0   22.9    93   21.8   0.0   ---  0.00   0.0   ---   22.9   24.4   24.4  1010.7  0.00   0.0   0.000   0.016   26.9    84   24.0   30.3   114    1    100.0    5 
 9/16/05 10:45p   23.0   23.0   23.0    93   21.8   0.0   ---  0.00   0.0   ---   23.0   24.5   24.5  1010.6  0.00   0.0   0.000   0.016   26.9    84   24.0   30.3   114    1    100.0    5 
 9/16/05 10:50p   23.1   23.1   23.0    93   21.9   0.0   ESE  0.00   1.6   ESE   23.1   24.6   24.6  1010.6  0.00   0.0   0.000   0.016   26.9    84   24.0   30.3   114    1    100.0    5 
 9/16/05 10:55p   23.1   23.1   23.1    93   21.9   0.0   ESE  0.00   3.2   ESE   23.1   24.6   24.6  1010.6  0.00   0.0   0.000   0.017   27.0    84   24.1   30.4   114    1    100.0    5 
 9/16/05 11:00p   23.2   23.2   23.1    93   22.0   0.0   SSE  0.00   3.2   SSE   23.2   24.7   24.7  1010.6  0.00   0.0   0.000   0.017   26.9    84   24.0   30.3   114    1    100.0    5 
 9/16/05 11:05p   23.2   23.2   23.2    93   22.0   0.0    SW  0.00   4.8    SW   23.2   24.7   24.7  1010.6  0.00   0.0   0.000   0.017   26.9    84   24.0   30.3   113    1     99.1    5 
 9/16/05 11:10p   23.2   23.2   23.2    93   22.0   0.0    SW  0.00   3.2    SW   23.2   24.7   24.7  1010.6  0.00   0.0   0.000   0.017   27.1    84   24.1   30.5   114    1    100.0    5 
 9/16/05 11:15p   23.2   23.2   23.2    94   22.2   0.0    SW  0.00   1.6    SW   23.2   24.8   24.8  1010.6  0.00   0.0   0.000   0.017   27.1    84   24.1   30.5   113    1     99.1    5 
 9/16/05 11:20p   23.2   23.2   23.2    93   22.0   0.0    SW  0.00   3.2    SW   23.2   24.7   24.7  1010.6  0.00   0.0   0.000   0.017   27.1    85   24.3   30.6   113    1     99.1    5 
 9/16/05 11:25p   23.3   23.3   23.2    93   22.1   0.0    SW  0.00   1.6    SW   23.3   24.8   24.8  1010.6  0.00   0.0   0.000   0.017   27.1    85   24.3   30.6   114    1    100.0    5 
 9/16/05 11:30p   23.3   23.3   23.3    93   22.1   0.0   ---  0.00   0.0   ---   23.3   24.8   24.8  1010.6  0.00   0.0   0.000   0.017   27.1    85   24.3   30.6   114    1    100.0    5 
 9/16/05 11:35p   23.3   23.3   23.3    93   22.1   0.0    SW  0.00   1.6    SW   23.3   24.8   24.8  1010.6  0.00   0.0   0.000   0.017   27.1    85   24.3   30.6   114    1    100.0    5 
 9/16/05 11:40p   23.3   23.3   23.3    93   22.1   1.6   NNW  0.13   3.2   NNW   23.3   24.8   24.8  1010.6  0.00   0.0   0.000   0.017   27.1    85   24.3   30.6   114    1    100.0    5 
 9/16/05 11:45p   23.3   23.3   23.3    93   22.1   0.0   NNW  0.00   1.6   NNW   23.3   24.8   24.8  1010.5  0.00   0.0   0.000   0.017   27.1    85   24.3   30.6   114    1    100.0    5 
 9/16/05 11:50p   23.3   23.3   23.3    93   22.1   0.0   NNW  0.00   1.6   NNW   23.3   24.8   24.8  1010.5  0.00   0.0   0.000   0.017   27.1    85   24.3   30.6   113    1     99.1    5 
 9/16/05 11:55p   23.3   23.3   23.3    93   22.1   0.0   NNW  0.00   1.6   NNW   23.3   24.8   24.8  1010.5  0.00   0.0   0.000   0.017   27.1    85   24.3   30.6   114    1    100.0    5 
 9/17/05 12:00a   23.3   23.3   23.3    93   22.1   0.0   NNW  0.00   1.6   NNW   23.3   24.8   24.8  1010.4  0.00   0.0   0.000   0.017   27.1    85   24.3   30.6   114    1    100.0    5 
--------------------------------------------------------------------------------------------------------------------------------------------------------------------------------------------

Data observations can also be seen in a different graphing format at the Weather Underground website: 

(1) WeatherUnderground Typhoon2000.com Data: Sep 15, 2005
(2) WeatherUnderground Typhoon2000.com Data: Sep 16, 2005

::..Copyright 2005 Typhoon2000.com All Rights Reserved..::